Provisional Data: Tuscarora Creek near Woodhull, NY


Please select a monitoring station.
Please select start date.
Please select start date.

Toggle Unit: C/F Toggle Unit: C/F
Sample Time Temperature (C) Temperature (F) Specific Conductivity (mS/cm) pH   Turbidity (NTU+) DO (mg/L)
8/9/2021 12:00:00 AM 21.03 69.854 0.252 7.54 24.49 7.9
8/9/2021 12:15:00 AM 20.96 69.728 0.251 7.54 24.46 7.9
8/9/2021 12:30:00 AM 20.9 69.62 0.25 7.54 24.42 7.92
8/9/2021 12:45:00 AM 20.84 69.512 0.25 7.54 24.56 7.94
8/9/2021 1:00:00 AM 20.78 69.404 0.25 7.53 23 7.93
8/9/2021 1:15:00 AM 20.72 69.296 0.25 7.54 21.2 7.94
8/9/2021 1:30:00 AM 20.66 69.188 0.25 7.53 19.86 7.95
8/9/2021 1:45:00 AM 20.61 69.098 0.251 7.54 21.51 7.96
8/9/2021 2:00:00 AM 20.55 68.99 0.251 7.53 25.43 7.97
8/9/2021 2:15:00 AM 20.5 68.9 0.251 7.53 20.65 7.98
8/9/2021 2:30:00 AM 20.44 68.792 0.252 7.53 20.05 7.99
8/9/2021 2:45:00 AM 20.39 68.702 0.253 7.53 20.14 7.99
8/9/2021 3:00:00 AM 20.34 68.612 0.254 7.53 20.38 8
8/9/2021 3:15:00 AM 20.28 68.504 0.255 7.53 17.71 8
8/9/2021 3:30:00 AM 20.23 68.414 0.255 7.53 18.42 8.01
8/9/2021 3:45:00 AM 20.18 68.324 0.256 7.53 16.8 8.02
8/9/2021 4:00:00 AM 20.13 68.234 0.257 7.53 16.67 8.03
8/9/2021 4:15:00 AM 20.08 68.144 0.257 7.53 17.32 8.04
8/9/2021 4:30:00 AM 20.04 68.07201 0.258 7.53 16.61 8.04
8/9/2021 4:45:00 AM 20 68 0.26 7.53 15.64 8.06
8/9/2021 5:00:00 AM 19.96 67.92799 0.262 7.53 14.58 8.06
8/9/2021 5:15:00 AM 19.92 67.856 0.264 7.54 14.84 8.07
8/9/2021 5:30:00 AM 19.88 67.784 0.264 7.53 15.11 8.08
8/9/2021 5:45:00 AM 19.85 67.73 0.263 7.54 15.37 8.09
8/9/2021 6:00:00 AM 19.81 67.658 0.263 7.53 22.47 8.08
8/9/2021 6:15:00 AM 19.77 67.586 0.263 7.54 14.12 8.11
8/9/2021 6:30:00 AM 19.74 67.532 0.264 7.53 13.6 8.12
8/9/2021 6:45:00 AM 19.71 67.478 0.264 7.54 13.31 8.14
8/9/2021 7:00:00 AM 19.69 67.442 0.265 7.55 12.76 8.19
8/9/2021 7:15:00 AM 19.66 67.388 0.265 7.56 12.74 8.23
8/9/2021 7:30:00 AM 19.65 67.37 0.266 7.57 11.77 8.3
8/9/2021 7:45:00 AM 19.64 67.352 0.267 7.58 11.81 8.38
8/9/2021 8:00:00 AM 19.64 67.352 0.267 7.61 10.28 8.5
8/9/2021 8:15:00 AM 19.65 67.37 0.268 7.63 11.4 8.63
8/9/2021 8:30:00 AM 19.66 67.388 0.268 7.66 10.27 8.77
8/9/2021 8:45:00 AM 19.69 67.442 0.269 7.7 10.17 8.91
8/9/2021 9:00:00 AM 19.73 67.514 0.27 7.72 10.15 9.05
8/9/2021 9:15:00 AM 19.77 67.586 0.271 7.76 9.59 9.18
8/9/2021 9:30:00 AM 19.83 67.694 0.272 7.78 9.09 9.3
8/9/2021 9:45:00 AM 19.9 67.82 0.273 7.81 8.4 9.44
8/9/2021 10:00:00 AM 20.02 68.036 0.273 7.9 8.61 9.67
8/9/2021 10:15:00 AM 20.15 68.27 0.273 7.99 7.74 9.95
8/9/2021 10:30:00 AM 20.34 68.612 0.272 8.1 8.26 10.19
8/9/2021 10:45:00 AM 20.64 69.152 0.272 8.2 6.92 10.45
8/9/2021 11:00:00 AM 20.9 69.62 0.272 8.29 7.57 10.62
8/9/2021 11:15:00 AM 21.05 69.89 0.273 8.33 6.72 10.73
8/9/2021 11:30:00 AM 21.35 70.43 0.273 8.42 6.46 10.9
8/9/2021 11:45:00 AM 21.7 71.06 0.273 8.48 6.34 11.02
8/9/2021 12:00:00 PM 21.96 71.528 0.274 8.53 6.15 11.08
8/9/2021 12:15:00 PM 22.13 71.834 0.275 8.55 6.2 11.09
8/9/2021 12:30:00 PM 22.32 72.176 0.276 8.58 6.08 11.02
8/9/2021 12:45:00 PM 22.5 72.5 0.276 8.6 8 11.05
8/9/2021 1:00:00 PM 22.77 72.986 0.276 8.63 5.5 11.02
8/9/2021 1:15:00 PM 23.04 73.472 0.276 8.67 5.25 11.15
8/9/2021 1:30:00 PM 23.2 73.76 0.276 8.67 6.01 11.01
8/9/2021 1:45:00 PM 23.44 74.192 0.276 8.7 5.34 11.03
8/9/2021 2:00:00 PM 23.53 74.354 0.276 8.69 5.69 10.87
8/9/2021 2:15:00 PM 23.6 74.48 0.277 8.68 5.76 10.72
8/9/2021 2:30:00 PM 23.7 74.66 0.276 8.7 5.01 10.78
8/9/2021 2:45:00 PM 23.68 74.624 0.277 8.67 5.82 10.52
8/9/2021 3:00:00 PM 23.74 74.732 0.278 8.67 5.27 10.46
8/9/2021 3:15:00 PM 23.9 75.02 0.278 8.7 5.13 10.41
8/9/2021 3:30:00 PM 24.07 75.326 0.278 8.71 4.9 10.31
8/9/2021 3:45:00 PM 24.23 75.614 0.279 8.72 4.94 10.29
8/9/2021 4:00:00 PM 24.36 75.848 0.279 8.72 4.88 10.2
8/9/2021 4:15:00 PM 24.49 76.082 0.279 8.73 5.09 10.1
8/9/2021 4:30:00 PM 24.6 76.28 0.279 8.73 4.94 9.97
8/9/2021 4:45:00 PM 24.7 76.46 0.28 8.74 5.39 9.86
8/9/2021 5:00:00 PM 24.78 76.604 0.28 8.74 4.95 9.78
8/9/2021 5:15:00 PM 24.8 76.64 0.28 8.71 5.25 9.57
8/9/2021 5:30:00 PM 24.81 76.658 0.281 8.68 4.6 9.35
8/9/2021 5:45:00 PM 24.82 76.676 0.281 8.66 5.47 9.18
8/9/2021 6:00:00 PM 24.84 76.712 0.282 8.64 5.33 9.06
8/9/2021 6:15:00 PM 24.84 76.712 0.282 8.61 5.47 8.88
8/9/2021 6:30:00 PM 24.81 76.658 0.284 8.56 5.12 8.68
8/9/2021 6:45:00 PM 24.76 76.568 0.285 8.49 5.27 8.49
8/9/2021 7:00:00 PM 24.72 76.496 0.286 8.44 5.08 8.34
8/9/2021 7:15:00 PM 24.68 76.424 0.287 8.37 5.38 8.16
8/9/2021 7:30:00 PM 24.64 76.352 0.288 8.31 5.99 8
8/9/2021 7:45:00 PM 24.59 76.262 0.289 8.24 5.34 7.85
8/9/2021 8:00:00 PM 24.53 76.154 0.292 8.16 5.07 7.7
8/9/2021 8:15:00 PM 24.47 76.046 0.294 8.09 5.38 7.55
8/9/2021 8:30:00 PM 24.39 75.902 0.295 8 6.08 7.42
8/9/2021 8:45:00 PM 24.32 75.776 0.295 7.93 6.16 7.32
8/9/2021 9:00:00 PM 24.26 75.668 0.295 7.87 6.07 7.24
8/9/2021 9:15:00 PM 24.19 75.542 0.295 7.83 5.61 7.17
8/9/2021 9:30:00 PM 24.13 75.434 0.295 7.79 5.88 7.16
8/9/2021 9:45:00 PM 24.06 75.308 0.295 7.74 5.76 7.1
8/9/2021 10:00:00 PM 23.98 75.164 0.296 7.71 5.83 7.08
8/9/2021 10:15:00 PM 23.9 75.02 0.297 7.69 5.41 7.08
8/9/2021 10:30:00 PM 23.82 74.876 0.297 7.67 5.87 7.06
8/9/2021 10:45:00 PM 23.75 74.75 0.298 7.66 5.49 7.08
8/9/2021 11:00:00 PM 23.67 74.606 0.298 7.65 5.41 7.09
8/9/2021 11:15:00 PM 23.58 74.444 0.299 7.62 5.89 7.06
8/9/2021 11:30:00 PM 23.5 74.3 0.299 7.62 5.79 7.09
8/9/2021 11:45:00 PM 23.41 74.138 0.3 7.61 5.33 7.09
8/10/2021 12:00:00 AM 23.33 73.994 0.3 7.6 5.37 7.1
8/10/2021 12:15:00 AM 23.25 73.85 0.301 7.59 5.82 7.09
8/10/2021 12:30:00 AM 23.17 73.706 0.301 7.59 5.6 7.12
8/10/2021 12:45:00 AM 23.09 73.562 0.302 7.58 4.99 7.12
8/10/2021 1:00:00 AM 23 73.4 0.303 7.57 5.81 7.12
8/10/2021 1:15:00 AM 22.92 73.256 0.303 7.57 5.88 7.14
8/10/2021 1:30:00 AM 22.84 73.112 0.304 7.57 5.75 7.17
8/10/2021 1:45:00 AM 22.76 72.968 0.305 7.56 5.62 7.16
8/10/2021 2:00:00 AM 22.69 72.842 0.305 7.58 5.99 7.2
8/10/2021 2:15:00 AM 22.61 72.698 0.306 7.57 6.45 7.22
8/10/2021 2:30:00 AM 22.54 72.57201 0.307 7.57 5.86 7.22
8/10/2021 2:45:00 AM 22.47 72.446 0.307 7.57 5.86 7.23
8/10/2021 3:00:00 AM 22.39 72.302 0.308 7.56 5.53 7.24
8/10/2021 3:15:00 AM 22.32 72.176 0.309 7.56 6.03 7.25
8/10/2021 3:30:00 AM 22.24 72.032 0.31 7.56 5.57 7.26
8/10/2021 3:45:00 AM 22.17 71.906 0.312 7.57 5.16 7.29
8/10/2021 4:00:00 AM 22.09 71.762 0.314 7.57 5.84 7.3
8/10/2021 4:15:00 AM 22.02 71.636 0.315 7.57 5.63 7.3
8/10/2021 4:30:00 AM 21.94 71.492 0.315 7.57 5.71 7.34
8/10/2021 4:45:00 AM 21.84 71.312 0.315 7.56 6 7.34
8/10/2021 5:00:00 AM 21.76 71.168 0.315 7.56 5.21 7.35
8/10/2021 5:15:00 AM 21.69 71.042 0.315 7.56 6.26 7.37
8/10/2021 5:30:00 AM 21.62 70.916 0.315 7.56 16.03 7.37
8/10/2021 5:45:00 AM 21.56 70.808 0.315 7.57 7.07 7.4
8/10/2021 6:00:00 AM 21.5 70.7 0.315 7.57 5.99 7.41
8/10/2021 6:15:00 AM 21.44 70.592 0.315 7.57 6.65 7.42
8/10/2021 6:30:00 AM 21.37 70.466 0.316 7.57 5.71 7.46
8/10/2021 6:45:00 AM 21.31 70.358 0.316 7.57 5.87 7.52
8/10/2021 7:00:00 AM 21.27 70.286 0.316 7.59 6.53 7.61
8/10/2021 7:15:00 AM 21.23 70.214 0.316 7.6 5.44 7.71
8/10/2021 7:30:00 AM 21.19 70.142 0.317 7.62 6.74 7.82
8/10/2021 7:45:00 AM 21.17 70.106 0.317 7.63 6.08 7.95
8/10/2021 8:00:00 AM 21.16 70.088 0.317 7.67 6.4 8.2
8/10/2021 8:15:00 AM 21.16 70.088 0.317 7.72 6.01 8.48
8/10/2021 8:30:00 AM 21.14 70.052 0.317 7.72 5.87 8.51
8/10/2021 8:45:00 AM 21.18 70.124 0.317 7.78 5.76 8.81
8/10/2021 9:00:00 AM 21.26 70.268 0.317 7.87 5.06 9.21
8/10/2021 9:15:00 AM 21.33 70.394 0.317 7.94 5.31 9.42
8/10/2021 9:30:00 AM 21.37 70.466 0.317 7.98 5.34 9.56
8/10/2021 9:45:00 AM 21.43 70.574 0.316 8.05 5.48 9.76
8/10/2021 10:00:00 AM 21.51 70.718 0.316 8.13 4.63 10.04
8/10/2021 10:15:00 AM 21.62 70.916 0.316 8.24 4.8 10.38
8/10/2021 10:30:00 AM 21.71 71.078 0.316 8.3 4.98 10.58
8/10/2021 10:45:00 AM 21.88 71.384 0.315 8.35 4.3 10.71
8/10/2021 11:00:00 AM 22.15 71.87 0.315 8.46 4.51 11.05
8/10/2021 11:15:00 AM 22.5 72.5 0.315 8.55 7.39 11.33
8/10/2021 11:30:00 AM 22.89 73.202 0.315 8.63 4.28 11.57
8/10/2021 11:45:00 AM 23.01 73.418 0.315 8.65 4.35 11.64
8/10/2021 12:00:00 PM 23.19 73.742 0.314 8.68 4.3 11.66
8/10/2021 12:15:00 PM 23.36 74.048 0.314 8.72 3.94 11.72
8/10/2021 12:30:00 PM 23.39 74.102 0.313 8.72 3.81 11.56
8/10/2021 12:45:00 PM 23.39 74.102 0.313 8.72 3.7 11.41
8/10/2021 1:00:00 PM 23.69 74.642 0.312 8.78 3.88 11.67
8/10/2021 1:15:00 PM 24.1 75.38 0.311 8.86 3.9 11.94
8/10/2021 1:30:00 PM 24.39 75.902 0.311 8.87 4.22 11.92
8/10/2021 1:45:00 PM 24.43 75.974 0.311 8.86 4.26 11.72
8/10/2021 2:00:00 PM 24.44 75.992 0.311 8.84 3.67 11.61
8/10/2021 2:15:00 PM 24.35 75.83 0.311 8.8 3.8 11.13
8/10/2021 2:30:00 PM 24.46 76.028 0.312 8.8 3.69 11.04
8/10/2021 2:45:00 PM 24.56 76.208 0.311 8.83 3.26 11.14
8/10/2021 3:00:00 PM 24.67 76.406 0.31 8.86 3.68 11.25
8/10/2021 3:15:00 PM 24.75 76.55 0.31 8.86 3.3 11.08
8/10/2021 3:30:00 PM 24.81 76.658 0.31 8.86 3.75 11.08
8/10/2021 3:45:00 PM 24.93 76.874 0.31 8.87 3.71 11.08
8/10/2021 4:00:00 PM 25 77 0.31 8.87 3.47 10.94
8/10/2021 4:15:00 PM 25.06 77.108 0.31 8.86 3.81 10.77
8/10/2021 4:30:00 PM 25.05 77.09 0.31 8.84 3.51 10.5
8/10/2021 4:45:00 PM 25.01 77.018 0.311 8.8 4.43 10.27
8/10/2021 5:00:00 PM 24.98 76.964 0.311 8.81 3.96 10.29
8/10/2021 5:15:00 PM 24.98 76.964 0.31 8.81 4.42 10.2
8/10/2021 5:30:00 PM 24.93 76.874 0.311 8.78 4.04 9.83
8/10/2021 5:45:00 PM 24.89 76.802 0.311 8.75 3.96 9.6
8/10/2021 6:00:00 PM 24.89 76.802 0.311 8.75 6.24 9.47
8/10/2021 6:15:00 PM 24.88 76.784 0.312 8.73 4.23 9.24
8/10/2021 6:30:00 PM 24.82 76.676 0.314 8.69 3.84 9.04
8/10/2021 6:45:00 PM 24.75 76.55 0.317 8.63 5.8 8.74
8/10/2021 7:00:00 PM 24.68 76.424 0.319 8.56 3.78 8.43
8/10/2021 7:15:00 PM 24.62 76.316 0.319 8.52 9.8 8.31
8/10/2021 7:30:00 PM 24.55 76.19 0.319 8.5 4.37 8.33
8/10/2021 7:45:00 PM 24.48 76.064 0.32 8.44 4.01 8.16
8/10/2021 8:00:00 PM 24.4 75.92 0.32 8.37 3.8 7.89
8/10/2021 8:15:00 PM 24.35 75.83 0.32 8.29 3.8 7.64
8/10/2021 8:30:00 PM 24.31 75.758 0.321 8.21 3.9 7.47
8/10/2021 8:45:00 PM 24.27 75.686 0.321 8.14 4.12 7.33
8/10/2021 9:00:00 PM 24.21 75.578 0.322 8.05 4.57 7.21
8/10/2021 9:15:00 PM 24.16 75.488 0.322 7.98 3.96 7.11
8/10/2021 9:30:00 PM 24.13 75.434 0.323 7.92 4.24 7.05
8/10/2021 9:45:00 PM 24.1 75.38 0.323 7.87 4.39 6.98
8/10/2021 10:00:00 PM 24.06 75.308 0.323 7.82 3.92 6.93
8/10/2021 10:15:00 PM 24.01 75.218 0.324 7.78 4.19 6.91
8/10/2021 10:30:00 PM 23.96 75.128 0.324 7.76 4.26 6.88
8/10/2021 10:45:00 PM 23.93 75.074 0.324 7.73 4.3 6.85
8/10/2021 11:00:00 PM 23.91 75.038 0.325 7.72 3.87 6.86
8/10/2021 11:15:00 PM 23.88 74.984 0.325 7.7 4.07 6.84
8/10/2021 11:30:00 PM 23.85 74.93 0.326 7.68 4.09 6.81
8/10/2021 11:45:00 PM 23.82 74.876 0.326 7.69 3.68 6.84
8/11/2021 12:00:00 AM 23.76 74.768 0.326 7.67 3.83 6.83
8/11/2021 12:15:00 AM 23.71 74.67799 0.326 7.66 4.01 6.83
8/11/2021 12:30:00 AM 23.67 74.606 0.326 7.66 3.81 6.85
8/11/2021 12:45:00 AM 23.63 74.534 0.327 7.65 4.68 6.82
8/11/2021 1:00:00 AM 23.58 74.444 0.328 7.64 3.92 6.84
8/11/2021 1:15:00 AM 23.52 74.336 0.327 7.65 4.06 6.86
8/11/2021 1:30:00 AM 23.45 74.21 0.328 7.64 4.29 6.87
8/11/2021 1:45:00 AM 23.4 74.12 0.33 7.63 3.97 6.85
8/11/2021 2:00:00 AM 23.35 74.03 0.331 7.62 3.89 6.86
8/11/2021 2:15:00 AM 23.3 73.94 0.333 7.62 4.25 6.86
8/11/2021 2:30:00 AM 23.25 73.85 0.334 7.63 4.12 6.89
8/11/2021 2:45:00 AM 23.18 73.724 0.334 7.61 4.33 6.89
8/11/2021 3:00:00 AM 23.11 73.598 0.334 7.62 4.14 6.89
8/11/2021 3:15:00 AM 23.03 73.454 0.334 7.61 4.2 6.93
8/11/2021 3:30:00 AM 22.96 73.328 0.334 7.62 3.89 6.96
8/11/2021 3:45:00 AM 22.9 73.22 0.334 7.61 4.27 6.93
8/11/2021 4:00:00 AM 22.85 73.13 0.334 7.62 4.04 6.98
8/11/2021 4:15:00 AM 22.79 73.022 0.334 7.61 4.26 6.98
8/11/2021 4:30:00 AM 22.72 72.896 0.335 7.6 5.02 6.98
8/11/2021 4:45:00 AM 22.66 72.788 0.335 7.61 4.53 7
8/11/2021 5:00:00 AM 22.62 72.716 0.335 7.62 4.79 7.01
8/11/2021 5:15:00 AM 22.57 72.626 0.335 7.61 4.48 7.01
8/11/2021 5:30:00 AM 22.54 72.57201 0.336 7.61 4.93 7
8/11/2021 5:45:00 AM 22.49 72.482 0.336 7.61 4.78 7.02
8/11/2021 6:00:00 AM 22.44 72.392 0.337 7.61 4.74 7.03
8/11/2021 6:15:00 AM 22.39 72.302 0.337 7.61 4.59 7.02
8/11/2021 6:30:00 AM 22.36 72.248 0.338 7.62 4.73 7.07
8/11/2021 6:45:00 AM 22.35 72.23 0.338 7.63 4.62 7.14
8/11/2021 7:00:00 AM 22.34 72.212 0.339 7.64 4.66 7.22
8/11/2021 7:15:00 AM 22.33 72.194 0.339 7.67 4.73 7.36
8/11/2021 7:30:00 AM 22.34 72.212 0.336 7.68 5.51 7.53
8/11/2021 7:45:00 AM 22.35 72.23 0.338 7.72 4.34 7.74
8/11/2021 8:00:00 AM 22.37 72.266 0.34 7.75 4.4 7.94
8/11/2021 8:15:00 AM 22.4 72.32 0.339 7.8 4.18 8.2
8/11/2021 8:30:00 AM 22.42 72.356 0.34 7.81 4.23 8.24
8/11/2021 8:45:00 AM 22.49 72.482 0.339 7.86 4.48 8.54
8/11/2021 9:00:00 AM 22.55 72.59 0.34 7.94 4.23 8.93
8/11/2021 9:15:00 AM 22.62 72.716 0.34 8.01 4.01 9.19
8/11/2021 9:30:00 AM 22.69 72.842 0.341 8.07 4.02 9.36
8/11/2021 9:45:00 AM 22.84 73.112 0.341 8.13 4.05 9.66
8/11/2021 10:00:00 AM 23.01 73.418 0.341 8.25 3.85 10.09
8/11/2021 10:15:00 AM 23.2 73.76 0.34 8.33 4.04 10.45
8/11/2021 10:30:00 AM 23.4 74.12 0.338 8.44 4.04 10.77
8/11/2021 10:45:00 AM 23.61 74.498 0.337 8.51 3.91 11.05
8/11/2021 11:00:00 AM 23.83 74.894 0.334 8.59 3.7 11.33
8/11/2021 11:15:00 AM 23.97 75.146 0.333 8.63 3.83 11.42
8/11/2021 11:30:00 AM 24.09 75.362 0.332 8.65 3.71 11.39
8/11/2021 11:45:00 AM 24.26 75.668 0.331 8.69 3.55 11.45
8/11/2021 12:00:00 PM 24.41 75.938 0.33 8.72 3.42 11.62
8/11/2021 12:15:00 PM 24.64 76.352 0.329 8.78 3.43 11.82
8/11/2021 12:30:00 PM 24.71 76.478 0.328 8.79 3.49 11.7
8/11/2021 12:45:00 PM 24.71 76.478 0.328 8.77 3.68 11.39
8/11/2021 1:00:00 PM 24.85 76.73 0.328 8.78 3.44 11.41
8/11/2021 1:15:00 PM 25.05 77.09 0.326 8.85 3.55 11.71
8/11/2021 1:30:00 PM 25.26 77.468 0.325 8.88 3.37 11.77
8/11/2021 1:45:00 PM 25.56 78.008 0.325 8.91 3.72 11.89
8/11/2021 2:00:00 PM 25.79 78.422 0.324 8.93 3.42 11.82
8/11/2021 2:15:00 PM 26 78.8 0.324 8.93 3.03 11.83
8/11/2021 2:30:00 PM 26.12 79.016 0.324 8.93 3.65 11.73
8/11/2021 2:45:00 PM 26.21 79.17799 0.323 8.93 3.36 11.63
8/11/2021 3:00:00 PM 26.35 79.43 0.323 8.94 3.21 11.49
8/11/2021 3:15:00 PM 26.46 79.628 0.323 8.95 3.49 11.41
8/11/2021 3:30:00 PM 26.57 79.826 0.322 8.96 3.35 11.2
8/11/2021 3:45:00 PM 26.73 80.114 0.322 8.96 3.28 11.13
8/11/2021 4:00:00 PM 26.84 80.312 0.321 8.96 3.77 10.91
8/11/2021 4:15:00 PM 26.94 80.492 0.321 8.96 4.45 10.81
8/11/2021 4:30:00 PM 26.97 80.546 0.322 8.94 3.38 10.46
8/11/2021 4:45:00 PM 26.98 80.564 0.322 8.92 3.31 10.22
8/11/2021 5:00:00 PM 27.04 80.672 0.322 8.9 3.65 10.01
8/11/2021 5:15:00 PM 27.03 80.654 0.322 8.88 3.44 9.79
8/11/2021 5:30:00 PM 26.99 80.582 0.323 8.86 3.18 9.64
8/11/2021 5:45:00 PM 26.97 80.546 0.323 8.84 2.93 9.42
8/11/2021 6:00:00 PM 26.89 80.402 0.324 8.8 3.32 9.3
8/11/2021 6:15:00 PM 26.76 80.168 0.325 8.74 3.12 8.96
8/11/2021 6:30:00 PM 26.63 79.934 0.326 8.7 3.52 8.71
8/11/2021 6:45:00 PM 26.49 79.682 0.327 8.66 3.34 8.58
8/11/2021 7:00:00 PM 26.38 79.484 0.327 8.64 3.35 8.56
8/11/2021 7:15:00 PM 26.28 79.304 0.328 8.61 3.13 8.39
8/11/2021 7:30:00 PM 26.13 79.034 0.329 8.55 3.39 8.13
8/11/2021 7:45:00 PM 26.01 78.818 0.33 8.48 3.57 7.87
8/11/2021 8:00:00 PM 25.87 78.566 0.332 8.41 3.29 7.59
8/11/2021 8:15:00 PM 25.72 78.296 0.333 8.31 3.8 7.31
8/11/2021 8:30:00 PM 25.58 78.044 0.335 8.22 4.24 7.07
8/11/2021 8:45:00 PM 25.45 77.81 0.336 8.15 3.43 6.97
8/11/2021 9:00:00 PM 25.33 77.594 0.337 8.08 3.98 6.89
8/11/2021 9:15:00 PM 25.21 77.378 0.337 8.01 3.75 6.8
8/11/2021 9:30:00 PM 25.09 77.162 0.338 7.95 3.72 6.72
8/11/2021 9:45:00 PM 24.99 76.982 0.339 7.89 4.16 6.66
8/11/2021 10:00:00 PM 24.89 76.802 0.34 7.85 4.06 6.61
8/11/2021 10:15:00 PM 24.8 76.64 0.34 7.81 4.85 6.59
8/11/2021 10:30:00 PM 24.72 76.496 0.341 7.78 3.8 6.57
8/11/2021 10:45:00 PM 24.64 76.352 0.341 7.75 4.88 6.54
8/11/2021 11:00:00 PM 24.56 76.208 0.342 7.73 4.52 6.53
8/11/2021 11:15:00 PM 24.47 76.046 0.342 7.71 4.04 6.53
8/11/2021 11:30:00 PM 24.4 75.92 0.343 7.7 3.59 6.53
8/11/2021 11:45:00 PM 24.33 75.794 0.344 7.68 3.95 6.53
8/12/2021 12:00:00 AM 24.26 75.668 0.345 7.68 4.04 6.53
8/12/2021 12:15:00 AM 24.19 75.542 0.347 7.66 4.06 6.53
8/12/2021 12:30:00 AM 24.13 75.434 0.348 7.66 4.22 6.56
8/12/2021 12:45:00 AM 24.07 75.326 0.348 7.65 4.12 6.56
8/12/2021 1:00:00 AM 24.01 75.218 0.348 7.66 3.81 6.59
8/12/2021 1:15:00 AM 23.94 75.092 0.349 7.64 4.28 6.55
8/12/2021 1:30:00 AM 23.89 75.002 0.349 7.63 3.47 6.58
8/12/2021 1:45:00 AM 23.84 74.912 0.348 7.63 4.12 6.59
8/12/2021 2:00:00 AM 23.77 74.786 0.348 7.63 3.9 6.6
8/12/2021 2:15:00 AM 23.7 74.66 0.347 7.63 3.58 6.64
8/12/2021 2:30:00 AM 23.64 74.552 0.347 7.62 3.88 6.64
8/12/2021 2:45:00 AM 23.56 74.408 0.347 7.62 3.81 6.63
8/12/2021 3:00:00 AM 23.5 74.3 0.347 7.62 4.3 6.64
8/12/2021 3:15:00 AM 23.44 74.192 0.346 7.62 3.88 6.66
8/12/2021 3:30:00 AM 23.38 74.084 0.346 7.62 3.67 6.7
8/12/2021 3:45:00 AM 23.32 73.976 0.347 7.62 3.71 6.7
8/12/2021 4:00:00 AM 23.24 73.832 0.347 7.61 4.59 6.68
8/12/2021 4:15:00 AM 23.17 73.706 0.347 7.6 3.62 6.7
8/12/2021 4:30:00 AM 23.11 73.598 0.347 7.6 3.26 6.72
8/12/2021 4:45:00 AM 23.04 73.472 0.348 7.61 3.41 6.75
8/12/2021 5:00:00 AM 22.97 73.346 0.348 7.6 3.78 6.75
8/12/2021 5:15:00 AM 22.9 73.22 0.348 7.6 4.35 6.76
8/12/2021 5:30:00 AM 22.83 73.094 0.349 7.6 4.28 6.78
8/12/2021 5:45:00 AM 22.75 72.95 0.349 7.59 4.65 6.77
8/12/2021 6:00:00 AM 22.69 72.842 0.349 7.6 4.02 6.78
8/12/2021 6:15:00 AM 22.62 72.716 0.35 7.6 4.54 6.81
8/12/2021 6:30:00 AM 22.56 72.608 0.35 7.6 3.99 6.83
8/12/2021 6:45:00 AM 22.5 72.5 0.351 7.61 3.96 6.91
8/12/2021 7:00:00 AM 22.46 72.42799 0.351 7.62 4.23 7.02
8/12/2021 7:15:00 AM 22.42 72.356 0.351 7.65 4.02 7.17
8/12/2021 7:30:00 AM 22.4 72.32 0.352 7.67 4.25 7.35
8/12/2021 7:45:00 AM 22.4 72.32 0.353 7.69 4.03 7.56
8/12/2021 8:00:00 AM 22.45 72.41 0.355 7.73 4.03 7.78
8/12/2021 8:15:00 AM 22.53 72.554 0.356 7.8 4.04 8.13
8/12/2021 8:30:00 AM 22.6 72.68 0.357 7.84 5.24 8.41
8/12/2021 8:45:00 AM 22.67 72.806 0.357 7.91 3.82 8.62
8/12/2021 9:00:00 AM 22.75 72.95 0.357 7.95 3.95 8.86
8/12/2021 9:15:00 AM 22.85 73.13 0.356 8.02 4.8 9.07
8/12/2021 9:30:00 AM 23 73.4 0.355 8.11 3.9 9.53
8/12/2021 9:45:00 AM 23.13 73.634 0.354 8.17 4.23 9.71
8/12/2021 10:00:00 AM 23.29 73.922 0.353 8.23 3.85 9.92
8/12/2021 10:15:00 AM 23.45 74.21 0.351 8.28 4.09 9.96
8/12/2021 10:30:00 AM 23.66 74.588 0.349 8.37 3.82 10.28
8/12/2021 10:45:00 AM 24.03 75.254 0.347 8.49 3.66 10.82
8/12/2021 11:00:00 AM 24.1 75.38 0.346 8.49 3.9 10.79
8/12/2021 11:15:00 AM 24.03 75.254 0.346 8.45 3.71 10.26
8/12/2021 11:30:00 AM 23.95 75.11 0.348 8.34 3.49 9.57
8/12/2021 11:45:00 AM 23.97 75.146 0.347 8.37 4.4 9.83
8/12/2021 12:00:00 PM 24.26 75.668 0.345 8.51 4.27 10.46
8/12/2021 12:15:00 PM 24.69 76.442 0.342 8.66 5.49 11.25
8/12/2021 12:30:00 PM 25.02 77.036 0.341 8.72 3.97 11.54
8/12/2021 12:45:00 PM 25.51 77.918 0.34 8.78 3.51 11.73
8/12/2021 1:00:00 PM 25.76 78.368 0.339 8.77 4.12 11.55
8/12/2021 1:15:00 PM 25.82 78.476 0.339 8.76 4.73 11.54
8/12/2021 1:30:00 PM 25.55 77.99 0.34 8.68 3.47 11
8/12/2021 1:45:00 PM 25.3 77.54 0.342 8.57 3.28 10.13
8/12/2021 2:00:00 PM 25.07 77.126 0.344 8.47 3.77 9.32
8/12/2021 2:15:00 PM 24.97 76.946 0.345 8.42 3.29 8.93
8/12/2021 2:30:00 PM 24.92 76.856 0.346 8.41 3.26 8.63
8/12/2021 2:45:00 PM 24.92 76.856 0.346 8.4 3.44 8.52
8/12/2021 3:00:00 PM 24.93 76.874 0.347 8.4 3.08 8.44
8/12/2021 3:15:00 PM 24.91 76.838 0.348 8.38 3.3 8.38
8/12/2021 3:30:00 PM 24.89 76.802 0.348 8.39 3.44 8.55
8/12/2021 3:45:00 PM 24.98 76.964 0.348 8.45 3.29 9.05
8/12/2021 4:00:00 PM 25.1 77.18 0.347 8.52 3.61 9.65
8/12/2021 4:15:00 PM 25.2 77.36 0.346 8.59 3.27 9.98
8/12/2021 4:30:00 PM 25.29 77.522 0.346 8.57 2.97 9.91
8/12/2021 4:45:00 PM 25.36 77.648 0.347 8.54 3.49 9.72
8/12/2021 5:00:00 PM 25.43 77.774 0.348 8.5 3.2 9.53
8/12/2021 5:15:00 PM 25.4 77.72 0.349 8.46 3.86 9.24
8/12/2021 5:30:00 PM 25.43 77.774 0.35 8.44 3.63 9.2
8/12/2021 5:45:00 PM 25.42 77.756 0.35 8.44 3.21 9.29
8/12/2021 6:00:00 PM 25.44 77.792 0.348 8.5 3.16 9.61
8/12/2021 6:15:00 PM 25.41 77.738 0.348 8.49 3.48 9.33
8/12/2021 6:30:00 PM 25.33 77.594 0.349 8.42 3.6 8.84
8/12/2021 6:45:00 PM 25.24 77.432 0.35 8.35 3.12 8.48
8/12/2021 7:00:00 PM 25.15 77.27 0.35 8.32 3.34 8.28
8/12/2021 7:15:00 PM 25.1 77.18 0.35 8.32 3.55 8.11
8/12/2021 7:30:00 PM 25.06 77.108 0.351 8.28 3.69 7.92
8/12/2021 7:45:00 PM 25.02 77.036 0.351 8.24 4.02 7.66
8/12/2021 8:00:00 PM 24.97 76.946 0.351 8.19 3.42 7.46
8/12/2021 8:15:00 PM 24.93 76.874 0.352 8.14 3.48 7.26
8/12/2021 8:30:00 PM 24.88 76.784 0.354 8.05 3.77 7.1
8/12/2021 8:45:00 PM 24.81 76.658 0.355 7.97 4.53 6.97
8/12/2021 9:00:00 PM 24.73 76.514 0.356 7.91 4.32 6.88
8/12/2021 9:15:00 PM 24.64 76.352 0.358 7.85 3.64 6.81
8/12/2021 9:30:00 PM 24.56 76.208 0.359 7.81 3.68 6.75
8/12/2021 9:45:00 PM 24.47 76.046 0.36 7.77 3.48 6.7
8/12/2021 10:00:00 PM 24.39 75.902 0.361 7.74 3.58 6.67
8/12/2021 10:15:00 PM 24.31 75.758 0.363 7.72 3.39 6.67
8/12/2021 10:30:00 PM 24.23 75.614 0.364 7.7 3.2 6.66
8/12/2021 10:45:00 PM 24.17 75.506 0.365 7.68 3.52 6.58
8/12/2021 11:00:00 PM 24.11 75.398 0.365 7.68 3.46 6.64
8/12/2021 11:15:00 PM 24.05 75.29 0.366 7.67 3.4 6.63
8/12/2021 11:30:00 PM 24 75.2 0.366 7.66 3.74 6.61
8/12/2021 11:45:00 PM 23.96 75.128 0.366 7.65 3.45 6.61
8/13/2021 12:00:00 AM 23.91 75.038 0.365 7.64 3.46 6.62
8/13/2021 12:15:00 AM 23.87 74.966 0.365 7.65 3.75 6.61
8/13/2021 12:30:00 AM 23.82 74.876 0.365 7.64 3.8 6.61
8/13/2021 12:45:00 AM 23.76 74.768 0.365 7.65 3.31 6.66
8/13/2021 1:00:00 AM 23.69 74.642 0.365 7.64 3.66 6.65
8/13/2021 1:15:00 AM 23.62 74.516 0.365 7.64 3.74 6.68
8/13/2021 1:30:00 AM 23.55 74.39 0.365 7.64 3.29 6.69
8/13/2021 1:45:00 AM 23.48 74.264 0.365 7.64 3.14 6.7
8/13/2021 2:00:00 AM 23.41 74.138 0.365 7.63 4.35 6.71
8/13/2021 2:15:00 AM 23.35 74.03 0.365 7.63 3.78 6.71
8/13/2021 2:30:00 AM 23.28 73.904 0.366 7.63 4.47 6.72
8/13/2021 2:45:00 AM 23.21 73.778 0.366 7.63 4.26 6.74
8/13/2021 3:00:00 AM 23.13 73.634 0.366 7.63 3.72 6.74
8/13/2021 3:15:00 AM 23.05 73.49 0.366 7.63 3.94 6.76
8/13/2021 3:30:00 AM 22.97 73.346 0.366 7.62 3.82 6.77
8/13/2021 3:45:00 AM 22.89 73.202 0.367 7.63 3.69 6.8
8/13/2021 4:00:00 AM 22.81 73.058 0.367 7.63 3.34 6.82
8/13/2021 4:15:00 AM 22.73 72.914 0.367 7.63 3.91 6.79
8/13/2021 4:30:00 AM 22.65 72.77 0.367 7.62 3.77 6.84
8/13/2021 4:45:00 AM 22.56 72.608 0.367 7.63 3.49 6.86
8/13/2021 5:00:00 AM 22.48 72.464 0.368 7.63 3.29 6.89
8/13/2021 5:15:00 AM 22.4 72.32 0.368 7.63 3.87 6.89
8/13/2021 5:30:00 AM 22.32 72.176 0.369 7.63 3.73 6.91
8/13/2021 5:45:00 AM 22.26 72.068 0.37 7.63 4.55 6.89
8/13/2021 6:00:00 AM 22.19 71.942 0.372 7.63 4.59 6.92
8/13/2021 6:15:00 AM 22.12 71.816 0.373 7.63 3.99 6.93
8/13/2021 6:30:00 AM 22.07 71.726 0.374 7.64 3.96 6.98
8/13/2021 6:45:00 AM 22.03 71.654 0.374 7.64 3.9 7.06
8/13/2021 7:00:00 AM 22.01 71.618 0.374 7.67 3.68 7.17
8/13/2021 7:15:00 AM 21.99 71.582 0.374 7.67 3.93 7.24
8/13/2021 7:30:00 AM 21.98 71.564 0.374 7.69 4.03 7.36
8/13/2021 7:45:00 AM 21.98 71.564 0.373 7.72 3.51 7.53
8/13/2021 8:00:00 AM 21.95 71.51 0.373 7.72 3.87 7.61
8/13/2021 8:15:00 AM 21.93 71.474 0.372 7.75 3.58 7.77
8/13/2021 8:30:00 AM 21.95 71.51 0.371 7.78 3.83 7.99
8/13/2021 8:45:00 AM 22.01 71.618 0.37 7.83 3.62 8.29
8/13/2021 9:00:00 AM 22.14 71.852 0.369 7.92 3.67 8.83
8/13/2021 9:15:00 AM 22.28 72.104 0.368 8 3.79 9.21
8/13/2021 9:30:00 AM 22.46 72.42799 0.366 8.09 3.62 9.59
8/13/2021 9:45:00 AM 22.52 72.536 0.366 8.1 3.86 9.61
8/13/2021 10:00:00 AM 22.61 72.698 0.365 8.12 3.66 9.56
8/13/2021 10:15:00 AM 22.7 72.86 0.365 8.17 3.12 9.81
8/13/2021 10:30:00 AM 22.82 73.076 0.363 8.24 3.51 10.21
8/13/2021 10:45:00 AM 22.96 73.328 0.362 8.32 4.03 10.47
8/13/2021 11:00:00 AM 23.17 73.706 0.36 8.4 4.94 10.75
8/13/2021 11:15:00 AM 23.48 74.264 0.359 8.47 3.56 11.11
8/13/2021 11:30:00 AM 23.96 75.128 0.357 8.58 3.22 11.51
8/13/2021 11:45:00 AM 24.34 75.812 0.355 8.62 3.48 11.7
8/13/2021 12:00:00 PM 24.88 76.784 0.355 8.66 4.56 11.88
8/13/2021 12:15:00 PM 25.28 77.504 0.354 8.69 3.52 11.98
8/13/2021 12:30:00 PM 25.3 77.54 0.353 8.69 3.31 11.82
8/13/2021 12:45:00 PM 25.19 77.342 0.352 8.66 3.49 11.44
8/13/2021 1:00:00 PM 25.13 77.234 0.352 8.65 3.05 11.23
8/13/2021 1:15:00 PM 25.51 77.918 0.351 8.72 3.64 11.57
8/13/2021 1:30:00 PM 25.96 78.728 0.35 8.78 4.14 11.84
8/13/2021 1:45:00 PM 26.26 79.268 0.349 8.81 2.89 11.69
8/13/2021 2:00:00 PM 26.72 80.096 0.348 8.83 3.55 11.75
8/13/2021 2:15:00 PM 26.71 80.078 0.347 8.81 3.32 11.42
8/13/2021 2:30:00 PM 26.6 79.88 0.348 8.77 3.34 10.97
8/13/2021 2:45:00 PM 26.64 79.952 0.348 8.74 3.34 10.8
8/13/2021 3:00:00 PM 26.64 79.952 0.347 8.75 6.48 10.85
8/13/2021 3:15:00 PM 26.54 79.772 0.346 8.75 4.14 10.67
8/13/2021 3:30:00 PM 26.41 79.538 0.346 8.69 3.65 9.96
8/13/2021 3:45:00 PM 26.38 79.484 0.348 8.63 3.75 9.15
8/13/2021 4:00:00 PM 26.3 79.34 0.349 8.55 3.66 8.76
8/13/2021 4:15:00 PM 26.23 79.214 0.35 8.54 4.07 8.82
8/13/2021 4:30:00 PM 26.1 78.98 0.35 8.53 4.36 8.75
8/13/2021 4:45:00 PM 25.9 78.62 0.348 8.47 4.18 8.4
8/13/2021 5:00:00 PM 25.82 78.476 0.35 8.43 5.13 8.29
8/13/2021 5:15:00 PM 25.81 78.458 0.349 8.47 4.47 8.67
8/13/2021 5:30:00 PM 25.8 78.44 0.349 8.51 4.41 9
8/13/2021 5:45:00 PM 25.77 78.386 0.35 8.52 4.27 9.14
8/13/2021 6:00:00 PM 25.75 78.35 0.351 8.51 4.31 9.11
8/13/2021 6:15:00 PM 25.66 78.188 0.352 8.47 4.23 8.99
8/13/2021 6:30:00 PM 25.55 77.99 0.353 8.41 4.35 8.73
8/13/2021 6:45:00 PM 25.39 77.702 0.355 8.33 3.76 8.43
8/13/2021 7:00:00 PM 25.26 77.468 0.356 8.27 3.85 8.23
8/13/2021 7:15:00 PM 25.14 77.252 0.357 8.23 4.47 8.12
8/13/2021 7:30:00 PM 25.01 77.018 0.358 8.21 4.13 8.01
8/13/2021 7:45:00 PM 24.9 76.82 0.36 8.16 4.42 7.78
8/13/2021 8:00:00 PM 24.79 76.622 0.362 8.1 3.82 7.55
8/13/2021 8:15:00 PM 24.65 76.37 0.364 8.03 3.7 7.34
8/13/2021 8:30:00 PM 24.52 76.136 0.366 7.97 4.13 7.18
8/13/2021 8:45:00 PM 24.39 75.902 0.367 7.93 3.99 7.07
8/13/2021 9:00:00 PM 24.3 75.74 0.368 7.89 3.98 6.99
8/13/2021 9:15:00 PM 24.22 75.596 0.368 7.86 3.89 6.89
8/13/2021 9:30:00 PM 24.14 75.452 0.369 7.83 3.63 6.83
8/13/2021 9:45:00 PM 24.06 75.308 0.369 7.8 4.12 6.77
8/13/2021 10:00:00 PM 23.99 75.182 0.369 7.78 3.99 6.74
8/13/2021 10:15:00 PM 23.91 75.038 0.37 7.75 3.57 6.7
8/13/2021 10:30:00 PM 23.84 74.912 0.371 7.73 4.61 6.66
8/13/2021 10:45:00 PM 23.77 74.786 0.371 7.72 3.5 6.67
8/13/2021 11:00:00 PM 23.72 74.696 0.371 7.7 3.72 6.66
8/13/2021 11:15:00 PM 23.67 74.606 0.372 7.7 3.69 6.65
8/13/2021 11:30:00 PM 23.62 74.516 0.372 7.69 3.7 6.65
8/13/2021 11:45:00 PM 23.58 74.444 0.372 7.68 3.99 6.63
8/14/2021 12:00:00 AM 23.53 74.354 0.372 7.67 3.36 6.64
8/14/2021 12:15:00 AM 23.48 74.264 0.372 7.67 3.51 6.67
8/14/2021 12:30:00 AM 23.4 74.12 0.37 7.67 3.89 6.71
8/14/2021 12:45:00 AM 23.32 73.976 0.369 7.66 3.96 6.7
8/14/2021 1:00:00 AM 23.27 73.886 0.368 7.67 3.85 6.7
8/14/2021 1:15:00 AM 23.23 73.814 0.368 7.66 3.64 6.7
8/14/2021 1:30:00 AM 23.2 73.76 0.368 7.67 3.66 6.72
8/14/2021 1:45:00 AM 23.18 73.724 0.369 7.67 3.58 6.73
8/14/2021 2:00:00 AM 23.14 73.652 0.37 7.67 3.4 6.7
8/14/2021 2:15:00 AM 23.11 73.598 0.37 7.67 3.62 6.73
8/14/2021 2:30:00 AM 23.07 73.526 0.37 7.67 3.5 6.76
8/14/2021 2:45:00 AM 23.03 73.454 0.371 7.67 3.97 6.78
8/14/2021 3:00:00 AM 23 73.4 0.372 7.67 3.98 6.79
8/14/2021 3:15:00 AM 22.97 73.346 0.372 7.68 4.22 6.81
8/14/2021 3:30:00 AM 22.93 73.274 0.373 7.68 3.72 6.84
8/14/2021 3:45:00 AM 22.88 73.184 0.373 7.68 3.97 6.87
8/14/2021 4:00:00 AM 22.82 73.076 0.373 7.68 3.92 6.91
8/14/2021 4:15:00 AM 22.79 73.022 0.373 7.69 4.1 6.95
8/14/2021 4:30:00 AM 22.75 72.95 0.372 7.69 4.13 6.95
8/14/2021 4:45:00 AM 22.72 72.896 0.372 7.7 4.1 7
8/14/2021 5:00:00 AM 22.68 72.824 0.372 7.7 3.89 7.02
8/14/2021 5:15:00 AM 22.64 72.752 0.372 7.71 4.97 7.05
8/14/2021 5:30:00 AM 22.6 72.68 0.371 7.72 4.91 7.12
8/14/2021 5:45:00 AM 22.56 72.608 0.371 7.72 5.26 7.14
8/14/2021 6:00:00 AM 22.54 72.57201 0.371 7.73 5.06 7.17
8/14/2021 6:15:00 AM 22.51 72.518 0.372 7.74 7.63 7.24
8/14/2021 6:30:00 AM 22.49 72.482 0.373 7.77 8.59 7.36
8/14/2021 6:45:00 AM 22.42 72.356 0.376 7.79 8.23 7.46
8/14/2021 7:00:00 AM 22.35 72.23 0.376 7.79 9.17 7.54
8/14/2021 7:15:00 AM 22.26 72.068 0.373 7.8 8.65 7.61
8/14/2021 7:30:00 AM 22.13 71.834 0.367 7.8 8.37 7.67
8/14/2021 7:45:00 AM 22 71.6 0.353 7.8 8.76 7.73
8/14/2021 8:00:00 AM 21.85 71.33 0.337 7.79 7.76 7.82
8/14/2021 8:15:00 AM 21.69 71.042 0.323 7.79 7.43 7.94
8/14/2021 8:30:00 AM 21.54 70.772 0.313 7.8 7.14 8.04
8/14/2021 8:45:00 AM 21.41 70.538 0.308 7.81 8.23 8.15
8/14/2021 9:00:00 AM 21.3 70.34 0.305 7.83 7.3 8.25
8/14/2021 9:15:00 AM 21.2 70.16 0.303 7.84 7.83 8.31
8/14/2021 9:30:00 AM 21.11 69.998 0.301 7.86 6.99 8.44
8/14/2021 9:45:00 AM 21.06 69.908 0.3 7.9 7.44 8.62
8/14/2021 10:00:00 AM 21.1 69.98 0.299 7.99 7.72 9.01
8/14/2021 10:15:00 AM 21.14 70.052 0.299 8.07 7.07 9.32
8/14/2021 10:30:00 AM 21.13 70.034 0.3 8.1 6.78 9.39
8/14/2021 10:45:00 AM 21.14 70.052 0.301 8.14 7.7 9.52
8/14/2021 11:00:00 AM 21.2 70.16 0.302 8.2 7.34 9.7
8/14/2021 11:15:00 AM 21.26 70.268 0.303 8.25 7.48 9.85
8/14/2021 11:30:00 AM 21.36 70.448 0.305 8.28 7.22 9.91
8/14/2021 11:45:00 AM 21.54 70.772 0.306 8.35 7.8 10.16
8/14/2021 12:00:00 PM 21.87 71.366 0.307 8.42 7.04 10.4
8/14/2021 12:15:00 PM 22.09 71.762 0.308 8.44 7.66 10.45
8/14/2021 12:30:00 PM 22.27 72.086 0.309 8.47 7.34 10.57
8/14/2021 12:45:00 PM 22.49 72.482 0.31 8.5 7.36 10.6
8/14/2021 1:00:00 PM 22.83 73.094 0.31 8.55 7.7 10.76
8/14/2021 1:15:00 PM 23.08 73.544 0.31 8.57 7.1 10.77
8/14/2021 1:30:00 PM 23.29 73.922 0.31 8.58 7.23 10.76
8/14/2021 1:45:00 PM 23.48 74.264 0.309 8.6 6.95 10.7
8/14/2021 2:00:00 PM 23.71 74.67799 0.31 8.61 7.06 10.67
8/14/2021 2:15:00 PM 23.94 75.092 0.309 8.62 6.62 10.57
8/14/2021 2:30:00 PM 24.06 75.308 0.309 8.63 6.97 10.5
8/14/2021 2:45:00 PM 24.14 75.452 0.309 8.6 6.55 10.25
8/14/2021 3:00:00 PM 24.12 75.416 0.309 8.58 6.62 10.06
8/14/2021 3:15:00 PM 24.23 75.614 0.309 8.58 6.54 9.97
8/14/2021 3:30:00 PM 24.2 75.56 0.309 8.58 5.86 9.91
8/14/2021 3:45:00 PM 24.3 75.74 0.309 8.57 5.65 9.76
8/14/2021 4:00:00 PM 24.32 75.776 0.309 8.56 5.4 9.72
8/14/2021 4:15:00 PM 24.44 75.992 0.308 8.59 5.39 9.71
8/14/2021 4:30:00 PM 24.49 76.082 0.308 8.57 5.59 9.56
8/14/2021 4:45:00 PM 24.53 76.154 0.309 8.56 5.77 9.45
8/14/2021 5:00:00 PM 24.54 76.172 0.309 8.55 5.65 9.36
8/14/2021 5:15:00 PM 24.54 76.172 0.309 8.54 5.53 9.3
8/14/2021 5:30:00 PM 24.51 76.118 0.309 8.51 5.18 9.1
8/14/2021 5:45:00 PM 24.44 75.992 0.31 8.47 4.8 8.92
8/14/2021 6:00:00 PM 24.32 75.776 0.31 8.41 5.02 8.69
8/14/2021 6:15:00 PM 24.22 75.596 0.311 8.37 4.76 8.52
8/14/2021 6:30:00 PM 24.16 75.488 0.312 8.35 4.37 8.42
8/14/2021 6:45:00 PM 24.06 75.308 0.313 8.31 4.7 8.32
8/14/2021 7:00:00 PM 23.95 75.11 0.314 8.26 5.07 8.17
8/14/2021 7:15:00 PM 23.84 74.912 0.315 8.2 4.95 8
8/14/2021 7:30:00 PM 23.73 74.714 0.316 8.14 4.56 7.88
8/14/2021 7:45:00 PM 23.62 74.516 0.317 8.09 4.77 7.75
8/14/2021 8:00:00 PM 23.51 74.318 0.319 8.04 4.63 7.63
8/14/2021 8:15:00 PM 23.4 74.12 0.32 7.98 4.6 7.51
8/14/2021 8:30:00 PM 23.29 73.922 0.321 7.93 4.45 7.4
8/14/2021 8:45:00 PM 23.19 73.742 0.322 7.88 4.75 7.31
8/14/2021 9:00:00 PM 23.09 73.562 0.324 7.85 5.04 7.27
8/14/2021 9:15:00 PM 23 73.4 0.327 7.83 4.47 7.23
8/14/2021 9:30:00 PM 22.91 73.238 0.329 7.8 4.41 7.2
8/14/2021 9:45:00 PM 22.82 73.076 0.33 7.78 4.67 7.18
8/14/2021 10:00:00 PM 22.73 72.914 0.332 7.76 4.45 7.13
8/14/2021 10:15:00 PM 22.64 72.752 0.332 7.75 4.58 7.17
8/14/2021 10:30:00 PM 22.54 72.57201 0.333 7.74 4.65 7.15
8/14/2021 10:45:00 PM 22.45 72.41 0.334 7.73 4.5 7.16
8/14/2021 11:00:00 PM 22.35 72.23 0.334 7.72 3.95 7.19
8/14/2021 11:15:00 PM 22.25 72.05 0.335 7.71 4.3 7.17
8/14/2021 11:30:00 PM 22.14 71.852 0.336 7.7 4.33 7.21
8/14/2021 11:45:00 PM 22.04 71.672 0.337 7.7 4.4 7.19
8/15/2021 12:00:00 AM 21.93 71.474 0.338 7.7 4.2 7.23
8/15/2021 12:15:00 AM 21.82 71.276 0.339 7.69 4.1 7.24
8/15/2021 12:30:00 AM 21.71 71.078 0.339 7.7 4.12 7.28
8/15/2021 12:45:00 AM 21.6 70.88 0.34 7.69 4.13 7.29
8/15/2021 1:00:00 AM 21.5 70.7 0.341 7.69 4.41 7.3
8/15/2021 1:15:00 AM 21.38 70.484 0.342 7.68 4.21 7.32
8/15/2021 1:30:00 AM 21.27 70.286 0.343 7.67 4.34 7.31
8/15/2021 1:45:00 AM 21.16 70.088 0.343 7.68 6.52 7.36
8/15/2021 2:00:00 AM 21.05 69.89 0.344 7.68 4.02 7.37
8/15/2021 2:15:00 AM 20.94 69.692 0.344 7.69 4.48 7.41
8/15/2021 2:30:00 AM 20.84 69.512 0.345 7.69 4.02 7.46
8/15/2021 2:45:00 AM 20.72 69.296 0.346 7.68 4.73 7.45
8/15/2021 3:00:00 AM 20.62 69.116 0.346 7.69 4.15 7.48
8/15/2021 3:15:00 AM 20.52 68.936 0.346 7.69 4.13 7.54
8/15/2021 3:30:00 AM 20.42 68.756 0.347 7.69 4.32 7.54
8/15/2021 3:45:00 AM 20.32 68.576 0.347 7.69 4.2 7.57
8/15/2021 4:00:00 AM 20.22 68.396 0.348 7.69 4.33 7.59
8/15/2021 4:15:00 AM 20.12 68.216 0.348 7.69 4.37 7.62
8/15/2021 4:30:00 AM 20.01 68.018 0.349 7.68 4.27 7.61
8/15/2021 4:45:00 AM 19.92 67.856 0.35 7.7 4.08 7.68
8/15/2021 5:00:00 AM 19.83 67.694 0.352 7.7 4.29 7.68
8/15/2021 5:15:00 AM 19.73 67.514 0.354 7.69 4.1 7.68
8/15/2021 5:30:00 AM 19.63 67.334 0.356 7.69 4.05 7.73
8/15/2021 5:45:00 AM 19.53 67.154 0.357 7.69 4.42 7.73
8/15/2021 6:00:00 AM 19.44 66.992 0.358 7.69 4.21 7.74
8/15/2021 6:15:00 AM 19.37 66.866 0.358 7.7 3.88 7.79
8/15/2021 6:30:00 AM 19.3 66.74 0.358 7.7 4 7.8
8/15/2021 6:45:00 AM 19.24 66.632 0.358 7.71 4.08 7.88
8/15/2021 7:00:00 AM 19.17 66.506 0.357 7.73 4.03 7.99
8/15/2021 7:15:00 AM 19.11 66.398 0.357 7.74 3.97 8.1
8/15/2021 7:30:00 AM 19.06 66.308 0.357 7.76 3.87 8.24
8/15/2021 7:45:00 AM 19 66.2 0.357 7.79 4.01 8.39
8/15/2021 8:00:00 AM 18.94 66.092 0.357 7.8 4.05 8.51
8/15/2021 8:15:00 AM 18.91 66.038 0.357 7.82 3.77 8.64
8/15/2021 8:30:00 AM 18.89 66.002 0.356 7.86 3.52 8.77
8/15/2021 8:45:00 AM 18.88 65.984 0.356 7.88 3.8 8.86
8/15/2021 9:00:00 AM 18.9 66.02 0.356 7.91 3.59 8.97
8/15/2021 9:15:00 AM 18.95 66.11 0.355 7.95 3.4 9.13
8/15/2021 9:30:00 AM 19.08 66.344 0.354 8.02 3.51 9.42
8/15/2021 9:45:00 AM 19.27 66.686 0.354 8.08 3.69 9.76
8/15/2021 10:00:00 AM 19.44 66.992 0.352 8.19 3.22 10.11
8/15/2021 10:15:00 AM 19.67 67.406 0.352 8.25 3.36 10.3
8/15/2021 10:30:00 AM 19.94 67.892 0.351 8.33 3.48 10.61
8/15/2021 10:45:00 AM 20.28 68.504 0.349 8.42 3.27 10.94
8/15/2021 11:00:00 AM 20.69 69.242 0.349 8.48 3.05 11.19
8/15/2021 11:15:00 AM 20.92 69.656 0.347 8.51 3.29 11.28
8/15/2021 11:30:00 AM 21.2 70.16 0.347 8.55 2.93 11.4
8/15/2021 11:45:00 AM 21.24 70.232 0.346 8.55 3.25 11.4
8/15/2021 12:00:00 PM 21.36 70.448 0.345 8.57 3.01 11.43
8/15/2021 12:15:00 PM 21.43 70.574 0.344 8.58 2.83 11.33
8/15/2021 12:30:00 PM 21.77 71.186 0.343 8.64 2.85 11.53
8/15/2021 12:45:00 PM 22.05 71.69 0.342 8.68 2.86 11.75
8/15/2021 1:00:00 PM 22.3 72.14 0.341 8.72 2.68 11.82
8/15/2021 1:15:00 PM 22.4 72.32 0.34 8.72 2.69 11.77
8/15/2021 1:30:00 PM 22.44 72.392 0.34 8.72 2.82 11.74
8/15/2021 1:45:00 PM 22.55 72.59 0.339 8.74 2.77 11.79
8/15/2021 2:00:00 PM 22.77 72.986 0.337 8.79 2.8 11.84
8/15/2021 2:15:00 PM 22.94 73.292 0.336 8.8 2.65 11.83
8/15/2021 2:30:00 PM 22.98 73.364 0.335 8.79 2.95 11.66
8/15/2021 2:45:00 PM 23.01 73.418 0.334 8.78 2.84 11.53
8/15/2021 3:00:00 PM 23.14 73.652 0.333 8.8 2.69 11.45
8/15/2021 3:15:00 PM 23.24 73.832 0.333 8.8 2.81 11.34
8/15/2021 3:30:00 PM 23.38 74.084 0.332 8.81 2.64 11.28
8/15/2021 3:45:00 PM 23.51 74.318 0.332 8.81 2.62 11.2
8/15/2021 4:00:00 PM 23.56 74.408 0.332 8.8 2.78 11.08
8/15/2021 4:15:00 PM 23.56 74.408 0.331 8.79 2.55 10.96
8/15/2021 4:30:00 PM 23.52 74.336 0.331 8.78 2.83 10.8
8/15/2021 4:45:00 PM 23.49 74.282 0.331 8.77 2.7 10.72
8/15/2021 5:00:00 PM 23.42 74.156 0.332 8.74 2.43 10.51
8/15/2021 5:15:00 PM 23.41 74.138 0.332 8.72 2.65 10.18
8/15/2021 5:30:00 PM 23.36 74.048 0.333 8.69 2.75 9.96
8/15/2021 5:45:00 PM 23.29 73.922 0.334 8.66 2.68 9.83
8/15/2021 6:00:00 PM 23.16 73.688 0.334 8.62 2.79 9.7
8/15/2021 6:15:00 PM 23.09 73.562 0.335 8.62 2.9 9.61
8/15/2021 6:30:00 PM 23.01 73.418 0.335 8.6 2.46 9.46
8/15/2021 6:45:00 PM 22.92 73.256 0.335 8.57 2.83 9.29
8/15/2021 7:00:00 PM 22.79 73.022 0.336 8.52 2.69 9.08
8/15/2021 7:15:00 PM 22.65 72.77 0.337 8.47 2.93 8.84
8/15/2021 7:30:00 PM 22.54 72.57201 0.338 8.42 2.68 8.63
8/15/2021 7:45:00 PM 22.43 72.374 0.339 8.38 3.12 8.48
8/15/2021 8:00:00 PM 22.31 72.158 0.34 8.33 3.04 8.28
8/15/2021 8:15:00 PM 22.16 71.888 0.342 8.26 3.23 8.06
8/15/2021 8:30:00 PM 21.99 71.582 0.344 8.18 2.76 7.85
8/15/2021 8:45:00 PM 21.82 71.276 0.345 8.1 2.94 7.69
8/15/2021 9:00:00 PM 21.66 70.988 0.346 8.05 2.99 7.59
8/15/2021 9:15:00 PM 21.52 70.736 0.347 8 3.15 7.51
8/15/2021 9:30:00 PM 21.39 70.502 0.348 7.95 3.42 7.46
8/15/2021 9:45:00 PM 21.27 70.286 0.348 7.92 2.98 7.43
8/15/2021 10:00:00 PM 21.15 70.07 0.349 7.88 3.11 7.38
8/15/2021 10:15:00 PM 21.05 69.89 0.35 7.85 3.29 7.34
8/15/2021 10:30:00 PM 20.95 69.71 0.35 7.82 3.05 7.34
8/15/2021 10:45:00 PM 20.88 69.584 0.35 7.81 2.84 7.32
8/15/2021 11:00:00 PM 20.8 69.44 0.351 7.79 2.99 7.31
8/15/2021 11:15:00 PM 20.72 69.296 0.351 7.77 3.29 7.31
8/15/2021 11:30:00 PM 20.65 69.17 0.352 7.76 3.2 7.31
8/15/2021 11:45:00 PM 20.57 69.026 0.352 7.75 2.96 7.29
8/16/2021 12:00:00 AM 20.5 68.9 0.352 7.74 2.96 7.31
8/16/2021 12:15:00 AM 20.42 68.756 0.352 7.73 3.21 7.34
8/16/2021 12:30:00 AM 20.32 68.576 0.353 7.72 2.65 7.34
8/16/2021 12:45:00 AM 20.23 68.414 0.353 7.71 2.81 7.36
8/16/2021 1:00:00 AM 20.14 68.252 0.353 7.7 3.12 7.37
8/16/2021 1:15:00 AM 20.04 68.07201 0.354 7.7 3.15 7.39
8/16/2021 1:30:00 AM 19.95 67.91 0.354 7.7 3.02 7.39
8/16/2021 1:45:00 AM 19.87 67.766 0.354 7.69 3.1 7.42
8/16/2021 2:00:00 AM 19.79 67.622 0.355 7.7 3.02 7.44
8/16/2021 2:15:00 AM 19.71 67.478 0.355 7.69 3.69 7.44
8/16/2021 2:30:00 AM 19.65 67.37 0.355 7.69 3.15 7.46
8/16/2021 2:45:00 AM 19.59 67.262 0.356 7.7 2.89 7.48
8/16/2021 3:00:00 AM 19.54 67.172 0.356 7.69 3.13 7.47
8/16/2021 3:15:00 AM 19.5 67.1 0.356 7.7 2.78 7.49
8/16/2021 3:30:00 AM 19.43 66.974 0.357 7.69 3.35 7.51
8/16/2021 3:45:00 AM 19.37 66.866 0.357 7.69 3.04 7.54
8/16/2021 4:00:00 AM 19.29 66.722 0.358 7.69 3.08 7.54
8/16/2021 4:15:00 AM 19.22 66.596 0.359 7.69 3.11 7.55
8/16/2021 4:30:00 AM 19.14 66.452 0.36 7.68 3.08 7.56
8/16/2021 4:45:00 AM 19.07 66.326 0.362 7.68 3.02 7.57
8/16/2021 5:00:00 AM 19.01 66.218 0.363 7.68 3.03 7.59
8/16/2021 5:15:00 AM 18.95 66.11 0.364 7.68 3.1 7.59
8/16/2021 5:30:00 AM 18.91 66.038 0.365 7.69 2.9 7.63
8/16/2021 5:45:00 AM 18.86 65.948 0.365 7.69 2.98 7.64
8/16/2021 6:00:00 AM 18.82 65.876 0.366 7.69 3.11 7.66
8/16/2021 6:15:00 AM 18.79 65.82201 0.365 7.69 3.27 7.67
8/16/2021 6:30:00 AM 18.75 65.75 0.365 7.69 3.48 7.69
8/16/2021 6:45:00 AM 18.72 65.696 0.365 7.69 3.38 7.74
8/16/2021 7:00:00 AM 18.7 65.66 0.364 7.7 3.5 7.82
8/16/2021 7:15:00 AM 18.69 65.642 0.364 7.72 3.28 7.96
8/16/2021 7:30:00 AM 18.68 65.624 0.363 7.74 3.43 8.11
8/16/2021 7:45:00 AM 18.67 65.606 0.363 7.75 3.16 8.18
8/16/2021 8:00:00 AM 18.67 65.606 0.363 7.77 3.69 8.28
8/16/2021 8:15:00 AM 18.69 65.642 0.362 7.8 3.17 8.5
8/16/2021 8:30:00 AM 18.72 65.696 0.362 7.84 3.3 8.76
8/16/2021 8:45:00 AM 18.75 65.75 0.361 7.88 3.11 9.01
8/16/2021 9:00:00 AM 18.79 65.82201 0.361 7.91 3.32 9.16
8/16/2021 9:15:00 AM 18.83 65.894 0.36 7.95 8.51 9.33
8/16/2021 9:30:00 AM 18.86 65.948 0.361 7.96 3.61 9.45
8/16/2021 9:45:00 AM 18.88 65.984 0.36 7.99 8 9.46
8/16/2021 10:00:00 AM 18.9 66.02 0.36 8 8.18 9.47
8/16/2021 10:15:00 AM 18.94 66.092 0.36 8.02 2.99 9.6
8/16/2021 10:30:00 AM 19.03 66.254 0.359 8.09 2.85 9.88
8/16/2021 10:45:00 AM 19.15 66.47 0.358 8.17 11.19 10.27
8/16/2021 11:00:00 AM 19.28 66.704 0.358 8.23 7.32 10.54
8/16/2021 11:15:00 AM 19.47 67.046 0.357 8.32 7.08 10.84
8/16/2021 11:30:00 AM 19.65 67.37 0.356 8.38 8.82 11.05
8/16/2021 11:45:00 AM 19.82 67.676 0.355 8.42 6.8 11.21
8/16/2021 12:00:00 PM 19.98 67.964 0.355 8.45 9.37 11.38
8/16/2021 12:15:00 PM 20.13 68.234 0.355 8.49 7.36 11.44
8/16/2021 12:30:00 PM 20.26 68.468 0.354 8.52 7.88 11.5
8/16/2021 12:45:00 PM 20.48 68.864 0.354 8.57 8.05 11.64
8/16/2021 1:00:00 PM 20.63 69.134 0.353 8.58 2.77 11.75
8/16/2021 1:15:00 PM 20.85 69.53 0.352 8.63 2.82 11.85
8/16/2021 1:30:00 PM 21.09 69.962 0.351 8.67 2.74 11.99
8/16/2021 1:45:00 PM 21.24 70.232 0.35 8.69 2.79 12.03
8/16/2021 2:00:00 PM 21.34 70.412 0.349 8.7 2.88 11.87
8/16/2021 2:15:00 PM 21.37 70.466 0.35 8.68 3.11 11.72
8/16/2021 2:30:00 PM 21.34 70.412 0.35 8.65 3.06 11.28
8/16/2021 2:45:00 PM 21.39 70.502 0.349 8.65 2.7 11.19
8/16/2021 3:00:00 PM 21.4 70.52 0.349 8.65 2.72 11.15
8/16/2021 3:15:00 PM 21.38 70.484 0.349 8.64 2.71 10.84
8/16/2021 3:30:00 PM 21.37 70.466 0.349 8.61 2.63 10.51
8/16/2021 3:45:00 PM 21.38 70.484 0.349 8.59 2.66 10.32
8/16/2021 4:00:00 PM 21.39 70.502 0.349 8.58 2.37 10.25
8/16/2021 4:15:00 PM 21.4 70.52 0.349 8.57 2.6 10.18
8/16/2021 4:30:00 PM 21.38 70.484 0.35 8.56 2.57 9.98
8/16/2021 4:45:00 PM 21.32 70.376 0.348 8.5 2.95 9.61
8/16/2021 5:00:00 PM 21.27 70.286 0.348 8.43 2.94 9.27
8/16/2021 5:15:00 PM 21.25 70.25 0.349 8.4 2.57 9.16
8/16/2021 5:30:00 PM 21.25 70.25 0.35 8.4 2.64 9.24
8/16/2021 5:45:00 PM 21.23 70.214 0.351 8.4 2.85 9.29
8/16/2021 6:00:00 PM 21.21 70.17799 0.352 8.38 2.84 9.15
8/16/2021 6:15:00 PM 21.18 70.124 0.354 8.33 3.69 8.97
8/16/2021 6:30:00 PM 21.15 70.07 0.355 8.29 2.74 8.92
8/16/2021 6:45:00 PM 21.11 69.998 0.355 8.26 2.45 8.88
8/16/2021 7:00:00 PM 21.06 69.908 0.356 8.23 2.46 8.83
8/16/2021 7:15:00 PM 21.01 69.818 0.357 8.2 2.97 8.73
8/16/2021 7:30:00 PM 20.95 69.71 0.358 8.15 3.45 8.55
8/16/2021 7:45:00 PM 20.89 69.602 0.359 8.09 2.93 8.32
8/16/2021 8:00:00 PM 20.82 69.476 0.36 8.03 3.33 8.12
8/16/2021 8:15:00 PM 20.75 69.35 0.357 7.98 3.12 8
8/16/2021 8:30:00 PM 20.68 69.224 0.353 7.92 4.54 7.9
8/16/2021 8:45:00 PM 20.63 69.134 0.352 7.89 3.89 7.82
8/16/2021 9:00:00 PM 20.58 69.044 0.352 7.85 3.72 7.74
8/16/2021 9:15:00 PM 20.54 68.972 0.356 7.85 4.16 7.67
8/16/2021 9:30:00 PM 20.5 68.9 0.358 7.83 3.33 7.63
8/16/2021 9:45:00 PM 20.47 68.846 0.36 7.81 3.38 7.58
8/16/2021 10:00:00 PM 20.44 68.792 0.361 7.79 3.27 7.54
8/16/2021 10:15:00 PM 20.41 68.738 0.362 7.77 3.24 7.49
8/16/2021 10:30:00 PM 20.37 68.666 0.361 7.76 3.69 7.49
8/16/2021 10:45:00 PM 20.33 68.594 0.361 7.74 3.53 7.44
8/16/2021 11:00:00 PM 20.3 68.54 0.361 7.74 3.4 7.47
8/16/2021 11:15:00 PM 20.27 68.486 0.361 7.73 3.26 7.45
8/16/2021 11:30:00 PM 20.24 68.432 0.362 7.72 3.91 7.44
8/16/2021 11:45:00 PM 20.21 68.378 0.363 7.71 3.74 7.42
8/17/2021 12:00:00 AM 20.19 68.342 0.363 7.72 3.21 7.45
8/17/2021 12:15:00 AM 20.17 68.306 0.364 7.7 4.1 7.41
8/17/2021 12:30:00 AM 20.15 68.27 0.364 7.71 3.5 7.45
8/17/2021 12:45:00 AM 20.13 68.234 0.365 7.7 3.33 7.43
8/17/2021 1:00:00 AM 20.11 68.198 0.365 7.7 3.19 7.45
8/17/2021 1:15:00 AM 20.1 68.18 0.366 7.7 3.24 7.45
8/17/2021 1:30:00 AM 20.09 68.162 0.367 7.7 3.38 7.46
8/17/2021 1:45:00 AM 20.08 68.144 0.369 7.69 3.16 7.44
8/17/2021 2:00:00 AM 20.06 68.108 0.37 7.69 3.23 7.44
8/17/2021 2:15:00 AM 20.05 68.09 0.372 7.69 3.08 7.46
8/17/2021 2:30:00 AM 20.04 68.07201 0.373 7.69 3.09 7.46
8/17/2021 2:45:00 AM 20.03 68.054 0.375 7.68 3.29 7.43
8/17/2021 3:00:00 AM 20.03 68.054 0.375 7.68 2.83 7.43
8/17/2021 3:15:00 AM 20.03 68.054 0.376 7.69 3.16 7.44
8/17/2021 3:30:00 AM 20.03 68.054 0.376 7.68 3.25 7.45
8/17/2021 3:45:00 AM 20.02 68.036 0.376 7.67 3.26 7.42
8/17/2021 4:00:00 AM 20.02 68.036 0.375 7.68 3.49 7.44
8/17/2021 4:15:00 AM 20.02 68.036 0.374 7.67 3.31 7.45
8/17/2021 4:30:00 AM 20.01 68.018 0.374 7.67 3.28 7.46
8/17/2021 4:45:00 AM 20.01 68.018 0.374 7.67 3.31 7.43
8/17/2021 5:00:00 AM 20 68 0.374 7.67 3.36 7.45
8/17/2021 5:15:00 AM 19.99 67.982 0.374 7.66 3.33 7.43
8/17/2021 5:30:00 AM 19.99 67.982 0.374 7.67 5.73 7.46
8/17/2021 5:45:00 AM 19.98 67.964 0.375 7.66 4.55 7.44
8/17/2021 6:00:00 AM 19.98 67.964 0.376 7.66 4.03 7.45
8/17/2021 6:15:00 AM 19.97 67.946 0.376 7.65 4.36 7.44
8/17/2021 6:30:00 AM 19.96 67.92799 0.377 7.65 4.01 7.47
8/17/2021 6:45:00 AM 19.96 67.92799 0.377 7.65 3.35 7.49
8/17/2021 7:00:00 AM 19.96 67.92799 0.377 7.66 3.78 7.53
8/17/2021 7:15:00 AM 19.97 67.946 0.377 7.67 3.53 7.64
8/17/2021 7:30:00 AM 19.98 67.964 0.377 7.68 3.71 7.76
8/17/2021 7:45:00 AM 20.01 68.018 0.376 7.71 3.45 7.91
8/17/2021 8:00:00 AM 20.03 68.054 0.376 7.72 3.44 8.01
8/17/2021 8:15:00 AM 20.08 68.144 0.375 7.76 3.47 8.21
8/17/2021 8:30:00 AM 20.11 68.198 0.374 7.78 3.53 8.37
8/17/2021 8:45:00 AM 20.16 68.288 0.374 7.81 3.26 8.56
8/17/2021 9:00:00 AM 20.25 68.45 0.374 7.86 3.41 8.84
8/17/2021 9:15:00 AM 20.32 68.576 0.374 7.91 3.24 9.11
8/17/2021 9:30:00 AM 20.37 68.666 0.375 7.93 3.39 9.2
8/17/2021 9:45:00 AM 20.41 68.738 0.376 7.93 3.05 9.16
8/17/2021 10:00:00 AM 20.5 68.9 0.376 7.96 3.26 9.32
8/17/2021 10:15:00 AM 20.63 69.134 0.375 8.05 3.54 9.72
8/17/2021 10:30:00 AM 20.78 69.404 0.374 8.13 3.23 10.07
8/17/2021 10:45:00 AM 20.92 69.656 0.373 8.2 3.08 10.32
8/17/2021 11:00:00 AM 21.06 69.908 0.373 8.23 3.28 10.37
8/17/2021 11:15:00 AM 21.33 70.394 0.372 8.28 2.95 10.59
8/17/2021 11:30:00 AM 21.6 70.88 0.371 8.36 3.22 10.91
8/17/2021 11:45:00 AM 21.91 71.438 0.37 8.41 3.19 11.11
8/17/2021 12:00:00 PM 22.12 71.816 0.369 8.45 3.1 11.26
8/17/2021 12:15:00 PM 22.22 71.996 0.369 8.45 3.19 11.18
8/17/2021 12:30:00 PM 22.3 72.14 0.368 8.48 3.02 11.11
8/17/2021 12:45:00 PM 22.35 72.23 0.368 8.48 2.71 11.05
8/17/2021 1:00:00 PM 22.47 72.446 0.367 8.5 2.91 11
8/17/2021 1:15:00 PM 22.75 72.95 0.367 8.53 2.83 11.12
8/17/2021 1:30:00 PM 22.99 73.382 0.366 8.57 2.85 11.2
8/17/2021 1:45:00 PM 23.28 73.904 0.366 8.6 3.27 11.29
8/17/2021 2:00:00 PM 23.64 74.552 0.366 8.64 2.73 11.32
8/17/2021 2:15:00 PM 23.78 74.804 0.365 8.65 2.67 11.25
8/17/2021 2:30:00 PM 23.93 75.074 0.365 8.65 2.79 11.15
8/17/2021 2:45:00 PM 23.91 75.038 0.365 8.63 2.68 11.01
8/17/2021 3:00:00 PM 23.85 74.93 0.365 8.6 2.87 10.68
8/17/2021 3:15:00 PM 23.78 74.804 0.364 8.57 3.36 10.36
8/17/2021 3:30:00 PM 23.75 74.75 0.364 8.54 2.63 10.11
8/17/2021 3:45:00 PM 23.8 74.84 0.363 8.54 3.11 10.1
8/17/2021 4:00:00 PM 23.83 74.894 0.362 8.55 2.84 10.01
8/17/2021 4:15:00 PM 23.86 74.948 0.361 8.53 2.76 9.85
8/17/2021 4:30:00 PM 23.82 74.876 0.362 8.49 2.86 9.43
8/17/2021 4:45:00 PM 23.76 74.768 0.362 8.43 2.84 9.18
8/17/2021 5:00:00 PM 23.73 74.714 0.361 8.42 2.83 9.18
8/17/2021 5:15:00 PM 23.73 74.714 0.359 8.44 2.87 9.33
8/17/2021 5:30:00 PM 23.74 74.732 0.358 8.45 2.78 9.46
8/17/2021 5:45:00 PM 23.72 74.696 0.357 8.45 2.97 9.41
8/17/2021 6:00:00 PM 23.67 74.606 0.358 8.4 2.85 9.14
8/17/2021 6:15:00 PM 23.56 74.408 0.359 8.32 3.03 8.76
8/17/2021 6:30:00 PM 23.44 74.192 0.36 8.22 2.84 8.34
8/17/2021 6:45:00 PM 23.33 73.994 0.36 8.17 3.03 8.15
8/17/2021 7:00:00 PM 23.26 73.868 0.36 8.13 3.04 8.08
8/17/2021 7:15:00 PM 23.17 73.706 0.361 8.1 3.13 8.03
8/17/2021 7:30:00 PM 23.1 73.58 0.361 8.07 3.04 7.9
8/17/2021 7:45:00 PM 23.02 73.436 0.361 8.02 3.59 7.75
8/17/2021 8:00:00 PM 22.95 73.31 0.362 7.97 3.08 7.6
8/17/2021 8:15:00 PM 22.87 73.166 0.362 7.92 3.65 7.48
8/17/2021 8:30:00 PM 22.78 73.004 0.362 7.88 3.53 7.41
8/17/2021 8:45:00 PM 22.71 72.878 0.362 7.85 4.03 7.34
8/17/2021 9:00:00 PM 22.66 72.788 0.362 7.82 3.87 7.29
8/17/2021 9:15:00 PM 22.61 72.698 0.362 7.8 3.9 7.28
8/17/2021 9:30:00 PM 22.57 72.626 0.364 7.78 3.8 7.25
8/17/2021 9:45:00 PM 22.52 72.536 0.365 7.76 3.65 7.25
8/17/2021 10:00:00 PM 22.47 72.446 0.366 7.75 3.8 7.24
8/17/2021 10:15:00 PM 22.43 72.374 0.366 7.74 3.75 7.22
8/17/2021 10:30:00 PM 22.4 72.32 0.365 7.74 3.72 7.26
8/17/2021 10:45:00 PM 22.38 72.284 0.365 7.72 4.24 7.22
8/17/2021 11:00:00 PM 22.37 72.266 0.364 7.72 4.22 7.22
8/17/2021 11:15:00 PM 22.35 72.23 0.364 7.71 4.2 7.23
8/17/2021 11:30:00 PM 22.32 72.176 0.365 7.7 4.34 7.24
8/17/2021 11:45:00 PM 22.29 72.122 0.369 7.69 4.57 7.22
8/18/2021 12:00:00 AM 22.27 72.086 0.375 7.69 4.8 7.22
8/18/2021 12:15:00 AM 22.25 72.05 0.379 7.68 5.14 7.21
8/18/2021 12:30:00 AM 22.23 72.014 0.382 7.69 5.18 7.22
8/18/2021 12:45:00 AM 22.21 71.978 0.381 7.68 4.85 7.24
8/18/2021 1:00:00 AM 22.19 71.942 0.378 7.68 5.17 7.26
8/18/2021 1:15:00 AM 22.17 71.906 0.374 7.68 5.42 7.26
8/18/2021 1:30:00 AM 22.17 71.906 0.364 7.71 18.81 7.42
8/18/2021 1:45:00 AM 22.08 71.744 0.347 7.71 57.25 7.64
8/18/2021 2:00:00 AM 21.73 71.114 0.324 7.63 48.61 7.79
8/18/2021 2:15:00 AM 21.58 70.844 0.329 7.69 42.51 7.89
8/18/2021 2:30:00 AM 21.47 70.646 0.326 7.72 54.97 7.96
8/18/2021 2:45:00 AM 21.32 70.376 0.311 7.72 69.66 8.02
8/18/2021 3:00:00 AM 21.17 70.106 0.296 7.72 82.73 8.06
8/18/2021 3:15:00 AM 21.03 69.854 0.286 7.71 91.1 8.09
8/18/2021 3:30:00 AM 20.93 69.674 0.283 7.7 103.52 8.1
8/18/2021 3:45:00 AM 20.85 69.53 0.282 7.69 112.5 8.1
8/18/2021 4:00:00 AM 20.79 69.422 0.275 7.69 116.02 8.12
8/18/2021 4:15:00 AM 20.74 69.332 0.267 7.69 107.3 8.12
8/18/2021 4:30:00 AM 20.69 69.242 0.261 7.69 96.27 8.14
8/18/2021 4:45:00 AM 20.63 69.134 0.261 7.68 83.01 8.16
8/18/2021 5:00:00 AM 20.57 69.026 0.264 7.68 76.51 8.18
8/18/2021 5:15:00 AM 20.51 68.918 0.265 7.68 67.98 8.19
8/18/2021 5:30:00 AM 20.44 68.792 0.267 7.68 62.14 8.21
8/18/2021 5:45:00 AM 20.38 68.684 0.269 7.68 58.07 8.23
8/18/2021 6:00:00 AM 20.33 68.594 0.271 7.69 53.33 8.25
8/18/2021 6:15:00 AM 20.29 68.522 0.271 7.69 53.02 8.26
8/18/2021 6:30:00 AM 20.24 68.432 0.271 7.69 51.79 8.27
8/18/2021 6:45:00 AM 20.2 68.36 0.269 7.69 50.05 8.28
8/18/2021 7:00:00 AM 20.15 68.27 0.268 7.68 46.57 8.29
8/18/2021 7:15:00 AM 20.11 68.198 0.265 7.68 45.97 8.3
8/18/2021 7:30:00 AM 20.08 68.144 0.262 7.67 44.49 8.3
8/18/2021 7:45:00 AM 20.05 68.09 0.26 7.67 42.79 8.32
8/18/2021 8:00:00 AM 20.03 68.054 0.258 7.67 40.44 8.33
8/18/2021 8:15:00 AM 20.01 68.018 0.257 7.67 37.95 8.34
8/18/2021 8:30:00 AM 20.01 68.018 0.257 7.68 36.07 8.36
8/18/2021 8:45:00 AM 20 68 0.259 7.68 32.27 8.38
8/18/2021 9:00:00 AM 20.01 68.018 0.261 7.69 33.04 8.4
8/18/2021 9:15:00 AM 20.01 68.018 0.263 7.7 32.18 8.43
8/18/2021 9:30:00 AM 20.01 68.018 0.265 7.7 33.94 8.43
8/18/2021 9:45:00 AM 20.01 68.018 0.266 7.71 28.16 8.44
8/18/2021 10:00:00 AM 20.01 68.018 0.266 7.72 31.77 8.47
8/18/2021 10:15:00 AM 20.01 68.018 0.267 7.72 29 8.48
8/18/2021 10:30:00 AM 20.02 68.036 0.267 7.74 30.03 8.52
8/18/2021 10:45:00 AM 20.04 68.07201 0.268 7.75 31.41 8.54
8/18/2021 11:00:00 AM 20.05 68.09 0.268 7.75 37.35 8.53
8/18/2021 11:15:00 AM 20.07 68.126 0.267 7.75 38.88 8.54
8/18/2021 11:30:00 AM 20.09 68.162 0.265 7.76 39.15 8.55
8/18/2021 11:45:00 AM 20.09 68.162 0.263 7.75 41.03 8.54
8/18/2021 12:00:00 PM 20.07 68.126 0.26 7.73 44.17 8.5
8/18/2021 12:15:00 PM 20.08 68.144 0.259 7.73 45.45 8.49
8/18/2021 12:30:00 PM 20.09 68.162 0.259 7.73 44.74 8.48
8/18/2021 12:45:00 PM 20.12 68.216 0.258 7.74 50.21 8.47
8/18/2021 1:00:00 PM 20.14 68.252 0.26 7.74 49.92 8.47
8/18/2021 1:15:00 PM 20.17 68.306 0.263 7.74 55.37 8.46
8/18/2021 1:30:00 PM 20.19 68.342 0.266 7.75 56.45 8.44
8/18/2021 1:45:00 PM 20.2 68.36 0.269 7.75 57.75 8.44
8/18/2021 2:00:00 PM 20.22 68.396 0.272 7.75 58.91 8.44
8/18/2021 2:15:00 PM 20.23 68.414 0.27 7.74 60.23 8.44
8/18/2021 2:30:00 PM 20.22 68.396 0.267 7.73 68.99 8.42
8/18/2021 2:45:00 PM 20.2 68.36 0.264 7.71 82.67 8.4
8/18/2021 3:00:00 PM 20.18 68.324 0.26 7.7 100.91 8.4
8/18/2021 3:15:00 PM 20.18 68.324 0.255 7.69 132.52 8.38
8/18/2021 3:30:00 PM 20.19 68.342 0.25 7.68 170.21 8.38
8/18/2021 3:45:00 PM 20.2 68.36 0.242 7.67 201.56 8.37
8/18/2021 4:00:00 PM 20.22 68.396 0.236 7.65 216.2 8.36
8/18/2021 4:15:00 PM 20.23 68.414 0.234 7.63 230.49 8.35
8/18/2021 4:30:00 PM 20.25 68.45 0.228 7.61 254.86 8.35
8/18/2021 4:45:00 PM 20.25 68.45 0.222 7.6 286.61 8.34
8/18/2021 5:00:00 PM 20.27 68.486 0.216 7.57 332.16 8.32
8/18/2021 5:15:00 PM 20.3 68.54 0.206 7.51 389.67 8.31
8/18/2021 5:30:00 PM 20.33 68.594 0.196 7.48 455.83 8.3
8/18/2021 5:45:00 PM 20.37 68.666 0.187 7.46 495.16 8.29
8/18/2021 6:00:00 PM 20.38 68.684 0.177 7.4 535.2 8.29
8/18/2021 6:15:00 PM 20.39 68.702 0.166 7.3 622.12 8.3
8/18/2021 6:30:00 PM 20.4 68.72 0.154 7.32 800.22 8.3
8/18/2021 6:45:00 PM 20.42 68.756 0.142 7.3 973.47 8.29
8/18/2021 7:00:00 PM 20.44 68.792 0.132 7.25 1222.17 8.28
8/18/2021 7:15:00 PM 20.46 68.828 0.122 7.21 1330.56 8.27
8/18/2021 7:30:00 PM 20.49 68.882 0.115 7.15 1387.15 8.3
8/18/2021 7:45:00 PM 20.51 68.918 0.107 7.13 1581.45 8.28
8/18/2021 8:00:00 PM 20.51 68.918 0.098 7.02 1976.17 8.25
8/18/2021 8:15:00 PM 20.5 68.9 0.097 6.94 2297.55 8.19
8/18/2021 8:30:00 PM 20.51 68.918 0.104 6.9 2658.79 8.17
8/18/2021 8:45:00 PM 20.53 68.954 0.095 6.85 2886.76 8.28
8/18/2021 9:00:00 PM 20.54 68.972 0.09 6.83 2912.46 8.21
8/18/2021 9:15:00 PM -99999.99 -179968 -99999.99 -99999.99 -99999.99 -99999.99
8/18/2021 9:30:00 PM -99999.99 -179968 -99999.99 -99999.99 -99999.99 -99999.99
8/18/2021 9:45:00 PM -99999.99 -179968 -99999.99 -99999.99 -99999.99 -99999.99
8/18/2021 10:00:00 PM -99999.99 -179968 -99999.99 -99999.99 -99999.99 -99999.99
8/18/2021 10:15:00 PM -99999.99 -179968 -99999.99 -99999.99 -99999.99 -99999.99
8/18/2021 10:30:00 PM -99999.99 -179968 -99999.99 -99999.99 -99999.99 -99999.99
8/18/2021 10:45:00 PM -99999.99 -179968 -99999.99 -99999.99 -99999.99 -99999.99
8/18/2021 11:00:00 PM -99999.99 -179968 -99999.99 -99999.99 -99999.99 -99999.99
8/18/2021 11:15:00 PM -99999.99 -179968 -99999.99 -99999.99 -99999.99 -99999.99
8/18/2021 11:30:00 PM -99999.99 -179968 -99999.99 -99999.99 -99999.99 -99999.99
8/18/2021 11:45:00 PM -99999.99 -179968 -99999.99 -99999.99 -99999.99 -99999.99
8/19/2021 12:00:00 AM -99999.99 -179968 -99999.99 -99999.99 -99999.99 -99999.99
8/19/2021 12:15:00 AM -99999.99 -179968 -99999.99 -99999.99 -99999.99 -99999.99
8/19/2021 12:30:00 AM -99999.99 -179968 -99999.99 -99999.99 -99999.99 -99999.99
8/19/2021 12:45:00 AM -99999.99 -179968 -99999.99 -99999.99 -99999.99 -99999.99
8/19/2021 1:00:00 AM -99999.99 -179968 -99999.99 -99999.99 -99999.99 -99999.99
8/19/2021 1:15:00 AM -99999.99 -179968 -99999.99 -99999.99 -99999.99 -99999.99
8/19/2021 1:30:00 AM -99999.99 -179968 -99999.99 -99999.99 -99999.99 -99999.99
8/19/2021 1:45:00 AM -99999.99 -179968 -99999.99 -99999.99 -99999.99 -99999.99
8/19/2021 2:00:00 AM -99999.99 -179968 -99999.99 -99999.99 -99999.99 -99999.99
8/19/2021 2:15:00 AM -99999.99 -179968 -99999.99 -99999.99 -99999.99 -99999.99
8/19/2021 2:30:00 AM -99999.99 -179968 -99999.99 -99999.99 -99999.99 -99999.99
8/19/2021 2:45:00 AM -99999.99 -179968 -99999.99 -99999.99 -99999.99 -99999.99
8/19/2021 3:00:00 AM -99999.99 -179968 -99999.99 -99999.99 -99999.99 -99999.99
8/19/2021 3:15:00 AM -99999.99 -179968 -99999.99 -99999.99 -99999.99 -99999.99
8/19/2021 3:30:00 AM -99999.99 -179968 -99999.99 -99999.99 -99999.99 -99999.99
8/19/2021 3:45:00 AM -99999.99 -179968 -99999.99 -99999.99 -99999.99 -99999.99
8/19/2021 4:00:00 AM -99999.99 -179968 -99999.99 -99999.99 -99999.99 -99999.99
8/19/2021 4:15:00 AM -99999.99 -179968 -99999.99 -99999.99 -99999.99 -99999.99
8/19/2021 4:30:00 AM -99999.99 -179968 -99999.99 -99999.99 -99999.99 -99999.99
8/19/2021 4:45:00 AM -99999.99 -179968 -99999.99 -99999.99 -99999.99 -99999.99
8/19/2021 5:00:00 AM -99999.99 -179968 -99999.99 -99999.99 -99999.99 -99999.99
8/19/2021 5:15:00 AM -99999.99 -179968 -99999.99 -99999.99 -99999.99 -99999.99
8/19/2021 5:30:00 AM -99999.99 -179968 -99999.99 -99999.99 -99999.99 -99999.99
8/19/2021 5:45:00 AM -99999.99 -179968 -99999.99 -99999.99 -99999.99 -99999.99
8/19/2021 6:00:00 AM -99999.99 -179968 -99999.99 -99999.99 -99999.99 -99999.99
8/19/2021 6:15:00 AM -99999.99 -179968 -99999.99 -99999.99 -99999.99 -99999.99
8/19/2021 6:30:00 AM -99999.99 -179968 -99999.99 -99999.99 -99999.99 -99999.99
8/19/2021 6:45:00 AM -99999.99 -179968 -99999.99 -99999.99 -99999.99 -99999.99
8/19/2021 7:00:00 AM -99999.99 -179968 -99999.99 -99999.99 -99999.99 -99999.99
8/19/2021 7:15:00 AM -99999.99 -179968 -99999.99 -99999.99 -99999.99 -99999.99
8/19/2021 7:30:00 AM -99999.99 -179968 -99999.99 -99999.99 -99999.99 -99999.99
8/19/2021 7:45:00 AM -99999.99 -179968 -99999.99 -99999.99 -99999.99 -99999.99
8/19/2021 8:00:00 AM -99999.99 -179968 -99999.99 -99999.99 -99999.99 -99999.99
8/19/2021 8:15:00 AM -99999.99 -179968 -99999.99 -99999.99 -99999.99 -99999.99
8/19/2021 8:30:00 AM -99999.99 -179968 -99999.99 -99999.99 -99999.99 -99999.99
8/19/2021 8:45:00 AM -99999.99 -179968 -99999.99 -99999.99 -99999.99 -99999.99
8/19/2021 9:00:00 AM -99999.99 -179968 -99999.99 -99999.99 -99999.99 -99999.99
8/19/2021 9:15:00 AM -99999.99 -179968 -99999.99 -99999.99 -99999.99 -99999.99
8/19/2021 9:30:00 AM -99999.99 -179968 -99999.99 -99999.99 -99999.99 -99999.99
8/19/2021 9:45:00 AM -99999.99 -179968 -99999.99 -99999.99 -99999.99 -99999.99
8/19/2021 10:00:00 AM -99999.99 -179968 -99999.99 -99999.99 -99999.99 -99999.99
8/19/2021 10:15:00 AM -99999.99 -179968 -99999.99 -99999.99 -99999.99 -99999.99
8/19/2021 10:30:00 AM -99999.99 -179968 -99999.99 -99999.99 -99999.99 -99999.99
8/19/2021 10:45:00 AM -99999.99 -179968 -99999.99 -99999.99 -99999.99 -99999.99
8/19/2021 11:00:00 AM -99999.99 -179968 -99999.99 -99999.99 -99999.99 -99999.99
8/19/2021 11:15:00 AM -99999.99 -179968 -99999.99 -99999.99 -99999.99 -99999.99
8/19/2021 11:30:00 AM -99999.99 -179968 -99999.99 -99999.99 -99999.99 -99999.99
8/19/2021 11:45:00 AM -99999.99 -179968 -99999.99 -99999.99 -99999.99 -99999.99
8/19/2021 12:00:00 PM -99999.99 -179968 -99999.99 -99999.99 -99999.99 -99999.99
8/19/2021 12:15:00 PM -99999.99 -179968 -99999.99 -99999.99 -99999.99 -99999.99
8/19/2021 12:30:00 PM -99999.99 -179968 -99999.99 -99999.99 -99999.99 -99999.99
8/19/2021 12:45:00 PM -99999.99 -179968 -99999.99 -99999.99 -99999.99 -99999.99
8/19/2021 1:00:00 PM -99999.99 -179968 -99999.99 -99999.99 -99999.99 -99999.99
8/19/2021 1:15:00 PM -99999.99 -179968 -99999.99 -99999.99 -99999.99 -99999.99
8/19/2021 1:30:00 PM -99999.99 -179968 -99999.99 -99999.99 -99999.99 -99999.99
8/19/2021 1:45:00 PM -99999.99 -179968 -99999.99 -99999.99 -99999.99 -99999.99
8/19/2021 2:00:00 PM -99999.99 -179968 -99999.99 -99999.99 -99999.99 -99999.99
8/19/2021 2:15:00 PM -99999.99 -179968 -99999.99 -99999.99 -99999.99 -99999.99
8/19/2021 2:30:00 PM -99999.99 -179968 -99999.99 -99999.99 -99999.99 -99999.99
8/19/2021 2:45:00 PM -99999.99 -179968 -99999.99 -99999.99 -99999.99 -99999.99
8/19/2021 3:00:00 PM -99999.99 -179968 -99999.99 -99999.99 -99999.99 -99999.99
8/19/2021 3:15:00 PM -99999.99 -179968 -99999.99 -99999.99 -99999.99 -99999.99
8/19/2021 3:30:00 PM -99999.99 -179968 -99999.99 -99999.99 -99999.99 -99999.99
8/19/2021 3:45:00 PM -99999.99 -179968 -99999.99 -99999.99 -99999.99 -99999.99
8/19/2021 4:00:00 PM -99999.99 -179968 -99999.99 -99999.99 -99999.99 -99999.99
8/19/2021 4:15:00 PM -99999.99 -179968 -99999.99 -99999.99 -99999.99 -99999.99
8/19/2021 4:30:00 PM -99999.99 -179968 -99999.99 -99999.99 -99999.99 -99999.99
8/19/2021 4:45:00 PM -99999.99 -179968 -99999.99 -99999.99 -99999.99 -99999.99
8/19/2021 5:00:00 PM -99999.99 -179968 -99999.99 -99999.99 -99999.99 -99999.99
8/19/2021 5:15:00 PM -99999.99 -179968 -99999.99 -99999.99 -99999.99 -99999.99
8/19/2021 5:30:00 PM -99999.99 -179968 -99999.99 -99999.99 -99999.99 -99999.99
8/19/2021 5:45:00 PM -99999.99 -179968 -99999.99 -99999.99 -99999.99 -99999.99
8/19/2021 6:00:00 PM -99999.99 -179968 -99999.99 -99999.99 -99999.99 -99999.99
8/19/2021 6:15:00 PM -99999.99 -179968 -99999.99 -99999.99 -99999.99 -99999.99
8/19/2021 6:30:00 PM -99999.99 -179968 -99999.99 -99999.99 -99999.99 -99999.99
8/19/2021 6:45:00 PM -99999.99 -179968 -99999.99 -99999.99 -99999.99 -99999.99
8/19/2021 7:00:00 PM -99999.99 -179968 -99999.99 -99999.99 -99999.99 -99999.99
8/19/2021 7:15:00 PM -99999.99 -179968 -99999.99 -99999.99 -99999.99 -99999.99
8/19/2021 7:30:00 PM -99999.99 -179968 -99999.99 -99999.99 -99999.99 -99999.99
8/19/2021 7:45:00 PM -99999.99 -179968 -99999.99 -99999.99 -99999.99 -99999.99
8/19/2021 8:00:00 PM -99999.99 -179968 -99999.99 -99999.99 -99999.99 -99999.99
8/19/2021 8:15:00 PM -99999.99 -179968 -99999.99 -99999.99 -99999.99 -99999.99
8/19/2021 8:30:00 PM -99999.99 -179968 -99999.99 -99999.99 -99999.99 -99999.99
8/19/2021 8:45:00 PM -99999.99 -179968 -99999.99 -99999.99 -99999.99 -99999.99
8/19/2021 9:00:00 PM -99999.99 -179968 -99999.99 -99999.99 -99999.99 -99999.99
8/19/2021 9:15:00 PM -99999.99 -179968 -99999.99 -99999.99 -99999.99 -99999.99
8/19/2021 9:30:00 PM -99999.99 -179968 -99999.99 -99999.99 -99999.99 -99999.99
8/19/2021 9:45:00 PM -99999.99 -179968 -99999.99 -99999.99 -99999.99 -99999.99
8/19/2021 10:00:00 PM -99999.99 -179968 -99999.99 -99999.99 -99999.99 -99999.99
8/19/2021 10:15:00 PM -99999.99 -179968 -99999.99 -99999.99 -99999.99 -99999.99
8/19/2021 10:30:00 PM -99999.99 -179968 -99999.99 -99999.99 -99999.99 -99999.99
8/19/2021 10:45:00 PM -99999.99 -179968 -99999.99 -99999.99 -99999.99 -99999.99
8/19/2021 11:00:00 PM -99999.99 -179968 -99999.99 -99999.99 -99999.99 -99999.99
8/19/2021 11:15:00 PM -99999.99 -179968 -99999.99 -99999.99 -99999.99 -99999.99
8/19/2021 11:30:00 PM -99999.99 -179968 -99999.99 -99999.99 -99999.99 -99999.99
8/19/2021 11:45:00 PM -99999.99 -179968 -99999.99 -99999.99 -99999.99 -99999.99
8/20/2021 12:00:00 AM -99999.99 -179968 -99999.99 -99999.99 -99999.99 -99999.99
8/20/2021 12:15:00 AM -99999.99 -179968 -99999.99 -99999.99 -99999.99 -99999.99
8/20/2021 12:30:00 AM -99999.99 -179968 -99999.99 -99999.99 -99999.99 -99999.99
8/20/2021 12:45:00 AM -99999.99 -179968 -99999.99 -99999.99 -99999.99 -99999.99
8/20/2021 1:00:00 AM -99999.99 -179968 -99999.99 -99999.99 -99999.99 -99999.99
8/20/2021 1:15:00 AM -99999.99 -179968 -99999.99 -99999.99 -99999.99 -99999.99
8/20/2021 1:30:00 AM -99999.99 -179968 -99999.99 -99999.99 -99999.99 -99999.99
8/20/2021 1:45:00 AM -99999.99 -179968 -99999.99 -99999.99 -99999.99 -99999.99
8/20/2021 2:00:00 AM -99999.99 -179968 -99999.99 -99999.99 -99999.99 -99999.99
8/20/2021 2:15:00 AM -99999.99 -179968 -99999.99 -99999.99 -99999.99 -99999.99
8/20/2021 2:30:00 AM -99999.99 -179968 -99999.99 -99999.99 -99999.99 -99999.99
8/20/2021 2:45:00 AM -99999.99 -179968 -99999.99 -99999.99 -99999.99 -99999.99
8/20/2021 3:00:00 AM -99999.99 -179968 -99999.99 -99999.99 -99999.99 -99999.99
8/20/2021 3:15:00 AM -99999.99 -179968 -99999.99 -99999.99 -99999.99 -99999.99
8/20/2021 3:30:00 AM -99999.99 -179968 -99999.99 -99999.99 -99999.99 -99999.99
8/20/2021 3:45:00 AM -99999.99 -179968 -99999.99 -99999.99 -99999.99 -99999.99
8/20/2021 4:00:00 AM -99999.99 -179968 -99999.99 -99999.99 -99999.99 -99999.99
8/20/2021 4:15:00 AM -99999.99 -179968 -99999.99 -99999.99 -99999.99 -99999.99
8/20/2021 4:30:00 AM -99999.99 -179968 -99999.99 -99999.99 -99999.99 -99999.99
8/20/2021 4:45:00 AM -99999.99 -179968 -99999.99 -99999.99 -99999.99 -99999.99
8/20/2021 5:00:00 AM -99999.99 -179968 -99999.99 -99999.99 -99999.99 -99999.99
8/20/2021 5:15:00 AM -99999.99 -179968 -99999.99 -99999.99 -99999.99 -99999.99
8/20/2021 5:30:00 AM -99999.99 -179968 -99999.99 -99999.99 -99999.99 -99999.99
8/20/2021 5:45:00 AM -99999.99 -179968 -99999.99 -99999.99 -99999.99 -99999.99
8/20/2021 6:00:00 AM -99999.99 -179968 -99999.99 -99999.99 -99999.99 -99999.99
8/20/2021 6:15:00 AM -99999.99 -179968 -99999.99 -99999.99 -99999.99 -99999.99
8/20/2021 6:30:00 AM -99999.99 -179968 -99999.99 -99999.99 -99999.99 -99999.99
8/20/2021 6:45:00 AM -99999.99 -179968 -99999.99 -99999.99 -99999.99 -99999.99
8/20/2021 7:00:00 AM -99999.99 -179968 -99999.99 -99999.99 -99999.99 -99999.99
8/20/2021 7:15:00 AM -99999.99 -179968 -99999.99 -99999.99 -99999.99 -99999.99
8/20/2021 7:30:00 AM -99999.99 -179968 -99999.99 -99999.99 -99999.99 -99999.99
8/20/2021 7:45:00 AM -99999.99 -179968 -99999.99 -99999.99 -99999.99 -99999.99
8/20/2021 8:00:00 AM -99999.99 -179968 -99999.99 -99999.99 -99999.99 -99999.99
8/20/2021 8:15:00 AM -99999.99 -179968 -99999.99 -99999.99 -99999.99 -99999.99
8/20/2021 8:30:00 AM -99999.99 -179968 -99999.99 -99999.99 -99999.99 -99999.99
8/20/2021 8:45:00 AM -99999.99 -179968 -99999.99 -99999.99 -99999.99 -99999.99
8/20/2021 9:00:00 AM -99999.99 -179968 -99999.99 -99999.99 -99999.99 -99999.99
8/20/2021 9:15:00 AM -99999.99 -179968 -99999.99 -99999.99 -99999.99 -99999.99
8/20/2021 9:30:00 AM -99999.99 -179968 -99999.99 -99999.99 -99999.99 -99999.99
8/20/2021 9:45:00 AM -99999.99 -179968 -99999.99 -99999.99 -99999.99 -99999.99
8/20/2021 10:00:00 AM -99999.99 -179968 -99999.99 -99999.99 -99999.99 -99999.99
8/20/2021 10:15:00 AM -99999.99 -179968 -99999.99 -99999.99 -99999.99 -99999.99
8/20/2021 10:30:00 AM -99999.99 -179968 -99999.99 -99999.99 -99999.99 -99999.99
8/20/2021 10:45:00 AM -99999.99 -179968 -99999.99 -99999.99 -99999.99 -99999.99
8/20/2021 11:00:00 AM -99999.99 -179968 -99999.99 -99999.99 -99999.99 -99999.99
8/20/2021 11:15:00 AM -99999.99 -179968 -99999.99 -99999.99 -99999.99 -99999.99
8/20/2021 11:30:00 AM -99999.99 -179968 -99999.99 -99999.99 -99999.99 -99999.99
8/20/2021 11:45:00 AM -99999.99 -179968 -99999.99 -99999.99 -99999.99 -99999.99
8/20/2021 12:00:00 PM -99999.99 -179968 -99999.99 -99999.99 -99999.99 -99999.99
8/20/2021 12:15:00 PM -99999.99 -179968 -99999.99 -99999.99 -99999.99 -99999.99
8/20/2021 12:30:00 PM -99999.99 -179968 -99999.99 -99999.99 -99999.99 -99999.99
8/20/2021 12:45:00 PM -99999.99 -179968 -99999.99 -99999.99 -99999.99 -99999.99
8/20/2021 1:00:00 PM -99999.99 -179968 -99999.99 -99999.99 -99999.99 -99999.99
8/20/2021 1:15:00 PM -99999.99 -179968 -99999.99 -99999.99 -99999.99 -99999.99
8/20/2021 1:30:00 PM -99999.99 -179968 -99999.99 -99999.99 -99999.99 -99999.99
8/20/2021 1:45:00 PM -99999.99 -179968 -99999.99 -99999.99 -99999.99 -99999.99
8/20/2021 2:00:00 PM -99999.99 -179968 -99999.99 -99999.99 -99999.99 -99999.99
8/20/2021 2:15:00 PM -99999.99 -179968 -99999.99 -99999.99 -99999.99 -99999.99
8/20/2021 2:30:00 PM -99999.99 -179968 -99999.99 -99999.99 -99999.99 -99999.99
8/20/2021 2:45:00 PM -99999.99 -179968 -99999.99 -99999.99 -99999.99 -99999.99
8/20/2021 3:00:00 PM -99999.99 -179968 -99999.99 -99999.99 -99999.99 -99999.99
8/20/2021 3:15:00 PM -99999.99 -179968 -99999.99 -99999.99 -99999.99 -99999.99
8/20/2021 3:30:00 PM -99999.99 -179968 -99999.99 -99999.99 -99999.99 -99999.99
8/20/2021 3:45:00 PM -99999.99 -179968 -99999.99 -99999.99 -99999.99 -99999.99
8/20/2021 4:00:00 PM -99999.99 -179968 -99999.99 -99999.99 -99999.99 -99999.99
8/20/2021 4:15:00 PM -99999.99 -179968 -99999.99 -99999.99 -99999.99 -99999.99
8/20/2021 4:30:00 PM -99999.99 -179968 -99999.99 -99999.99 -99999.99 -99999.99
8/20/2021 4:45:00 PM -99999.99 -179968 -99999.99 -99999.99 -99999.99 -99999.99
8/20/2021 5:00:00 PM -99999.99 -179968 -99999.99 -99999.99 -99999.99 -99999.99
8/20/2021 5:15:00 PM -99999.99 -179968 -99999.99 -99999.99 -99999.99 -99999.99
8/20/2021 5:30:00 PM -99999.99 -179968 -99999.99 -99999.99 -99999.99 -99999.99
8/20/2021 5:45:00 PM -99999.99 -179968 -99999.99 -99999.99 -99999.99 -99999.99
8/20/2021 6:00:00 PM -99999.99 -179968 -99999.99 -99999.99 -99999.99 -99999.99
8/20/2021 6:15:00 PM -99999.99 -179968 -99999.99 -99999.99 -99999.99 -99999.99
8/20/2021 6:30:00 PM -99999.99 -179968 -99999.99 -99999.99 -99999.99 -99999.99
8/20/2021 6:45:00 PM -99999.99 -179968 -99999.99 -99999.99 -99999.99 -99999.99
8/20/2021 7:00:00 PM -99999.99 -179968 -99999.99 -99999.99 -99999.99 -99999.99
8/20/2021 7:15:00 PM -99999.99 -179968 -99999.99 -99999.99 -99999.99 -99999.99
8/20/2021 7:30:00 PM -99999.99 -179968 -99999.99 -99999.99 -99999.99 -99999.99
8/20/2021 7:45:00 PM -99999.99 -179968 -99999.99 -99999.99 -99999.99 -99999.99
8/20/2021 8:00:00 PM -99999.99 -179968 -99999.99 -99999.99 -99999.99 -99999.99
8/20/2021 8:15:00 PM -99999.99 -179968 -99999.99 -99999.99 -99999.99 -99999.99
8/20/2021 8:30:00 PM -99999.99 -179968 -99999.99 -99999.99 -99999.99 -99999.99
8/20/2021 8:45:00 PM -99999.99 -179968 -99999.99 -99999.99 -99999.99 -99999.99
8/20/2021 9:00:00 PM -99999.99 -179968 -99999.99 -99999.99 -99999.99 -99999.99
8/20/2021 9:15:00 PM -99999.99 -179968 -99999.99 -99999.99 -99999.99 -99999.99
8/20/2021 9:30:00 PM -99999.99 -179968 -99999.99 -99999.99 -99999.99 -99999.99
8/20/2021 9:45:00 PM -99999.99 -179968 -99999.99 -99999.99 -99999.99 -99999.99
8/20/2021 10:00:00 PM -99999.99 -179968 -99999.99 -99999.99 -99999.99 -99999.99
8/20/2021 10:15:00 PM -99999.99 -179968 -99999.99 -99999.99 -99999.99 -99999.99
8/20/2021 10:30:00 PM -99999.99 -179968 -99999.99 -99999.99 -99999.99 -99999.99
8/20/2021 10:45:00 PM -99999.99 -179968 -99999.99 -99999.99 -99999.99 -99999.99
8/20/2021 11:00:00 PM -99999.99 -179968 -99999.99 -99999.99 -99999.99 -99999.99
8/20/2021 11:15:00 PM -99999.99 -179968 -99999.99 -99999.99 -99999.99 -99999.99
8/20/2021 11:30:00 PM -99999.99 -179968 -99999.99 -99999.99 -99999.99 -99999.99
8/20/2021 11:45:00 PM -99999.99 -179968 -99999.99 -99999.99 -99999.99 -99999.99
8/21/2021 12:00:00 AM -99999.99 -179968 -99999.99 -99999.99 -99999.99 -99999.99
8/21/2021 12:15:00 AM -99999.99 -179968 -99999.99 -99999.99 -99999.99 -99999.99
8/21/2021 12:30:00 AM -99999.99 -179968 -99999.99 -99999.99 -99999.99 -99999.99
8/21/2021 12:45:00 AM -99999.99 -179968 -99999.99 -99999.99 -99999.99 -99999.99
8/21/2021 1:00:00 AM -99999.99 -179968 -99999.99 -99999.99 -99999.99 -99999.99
8/21/2021 1:15:00 AM -99999.99 -179968 -99999.99 -99999.99 -99999.99 -99999.99
8/21/2021 1:30:00 AM -99999.99 -179968 -99999.99 -99999.99 -99999.99 -99999.99
8/21/2021 1:45:00 AM -99999.99 -179968 -99999.99 -99999.99 -99999.99 -99999.99
8/21/2021 2:00:00 AM -99999.99 -179968 -99999.99 -99999.99 -99999.99 -99999.99
8/21/2021 2:15:00 AM -99999.99 -179968 -99999.99 -99999.99 -99999.99 -99999.99
8/21/2021 2:30:00 AM -99999.99 -179968 -99999.99 -99999.99 -99999.99 -99999.99
8/21/2021 2:45:00 AM -99999.99 -179968 -99999.99 -99999.99 -99999.99 -99999.99
8/21/2021 3:00:00 AM -99999.99 -179968 -99999.99 -99999.99 -99999.99 -99999.99
8/21/2021 3:15:00 AM -99999.99 -179968 -99999.99 -99999.99 -99999.99 -99999.99
8/21/2021 3:30:00 AM -99999.99 -179968 -99999.99 -99999.99 -99999.99 -99999.99
8/21/2021 3:45:00 AM -99999.99 -179968 -99999.99 -99999.99 -99999.99 -99999.99
8/21/2021 4:00:00 AM -99999.99 -179968 -99999.99 -99999.99 -99999.99 -99999.99
8/21/2021 4:15:00 AM -99999.99 -179968 -99999.99 -99999.99 -99999.99 -99999.99
8/21/2021 4:30:00 AM -99999.99 -179968 -99999.99 -99999.99 -99999.99 -99999.99
8/21/2021 4:45:00 AM -99999.99 -179968 -99999.99 -99999.99 -99999.99 -99999.99
8/21/2021 5:00:00 AM -99999.99 -179968 -99999.99 -99999.99 -99999.99 -99999.99
8/21/2021 5:15:00 AM -99999.99 -179968 -99999.99 -99999.99 -99999.99 -99999.99
8/21/2021 5:30:00 AM -99999.99 -179968 -99999.99 -99999.99 -99999.99 -99999.99
8/21/2021 5:45:00 AM -99999.99 -179968 -99999.99 -99999.99 -99999.99 -99999.99
8/21/2021 6:00:00 AM -99999.99 -179968 -99999.99 -99999.99 -99999.99 -99999.99
8/21/2021 6:15:00 AM -99999.99 -179968 -99999.99 -99999.99 -99999.99 -99999.99
8/21/2021 6:30:00 AM -99999.99 -179968 -99999.99 -99999.99 -99999.99 -99999.99
8/21/2021 6:45:00 AM -99999.99 -179968 -99999.99 -99999.99 -99999.99 -99999.99
8/21/2021 7:00:00 AM -99999.99 -179968 -99999.99 -99999.99 -99999.99 -99999.99
8/21/2021 7:15:00 AM -99999.99 -179968 -99999.99 -99999.99 -99999.99 -99999.99
8/21/2021 7:30:00 AM -99999.99 -179968 -99999.99 -99999.99 -99999.99 -99999.99
8/21/2021 7:45:00 AM -99999.99 -179968 -99999.99 -99999.99 -99999.99 -99999.99
8/21/2021 8:00:00 AM -99999.99 -179968 -99999.99 -99999.99 -99999.99 -99999.99
8/21/2021 8:15:00 AM -99999.99 -179968 -99999.99 -99999.99 -99999.99 -99999.99
8/21/2021 8:30:00 AM -99999.99 -179968 -99999.99 -99999.99 -99999.99 -99999.99
8/21/2021 8:45:00 AM -99999.99 -179968 -99999.99 -99999.99 -99999.99 -99999.99
8/21/2021 9:00:00 AM -99999.99 -179968 -99999.99 -99999.99 -99999.99 -99999.99
8/21/2021 9:15:00 AM -99999.99 -179968 -99999.99 -99999.99 -99999.99 -99999.99
8/21/2021 9:30:00 AM -99999.99 -179968 -99999.99 -99999.99 -99999.99 -99999.99
8/21/2021 9:45:00 AM -99999.99 -179968 -99999.99 -99999.99 -99999.99 -99999.99
8/21/2021 10:00:00 AM -99999.99 -179968 -99999.99 -99999.99 -99999.99 -99999.99
8/21/2021 10:15:00 AM -99999.99 -179968 -99999.99 -99999.99 -99999.99 -99999.99
8/21/2021 10:30:00 AM -99999.99 -179968 -99999.99 -99999.99 -99999.99 -99999.99
8/21/2021 10:45:00 AM -99999.99 -179968 -99999.99 -99999.99 -99999.99 -99999.99
8/21/2021 11:00:00 AM -99999.99 -179968 -99999.99 -99999.99 -99999.99 -99999.99
8/21/2021 11:15:00 AM -99999.99 -179968 -99999.99 -99999.99 -99999.99 -99999.99
8/21/2021 11:30:00 AM -99999.99 -179968 -99999.99 -99999.99 -99999.99 -99999.99
8/21/2021 11:45:00 AM -99999.99 -179968 -99999.99 -99999.99 -99999.99 -99999.99
8/21/2021 12:00:00 PM -99999.99 -179968 -99999.99 -99999.99 -99999.99 -99999.99
8/21/2021 12:15:00 PM -99999.99 -179968 -99999.99 -99999.99 -99999.99 -99999.99
8/21/2021 12:30:00 PM -99999.99 -179968 -99999.99 -99999.99 -99999.99 -99999.99
8/21/2021 12:45:00 PM -99999.99 -179968 -99999.99 -99999.99 -99999.99 -99999.99
8/21/2021 1:00:00 PM -99999.99 -179968 -99999.99 -99999.99 -99999.99 -99999.99
8/21/2021 1:15:00 PM -99999.99 -179968 -99999.99 -99999.99 -99999.99 -99999.99
8/21/2021 1:30:00 PM -99999.99 -179968 -99999.99 -99999.99 -99999.99 -99999.99
8/21/2021 1:45:00 PM -99999.99 -179968 -99999.99 -99999.99 -99999.99 -99999.99
8/21/2021 2:00:00 PM -99999.99 -179968 -99999.99 -99999.99 -99999.99 -99999.99
8/21/2021 2:15:00 PM -99999.99 -179968 -99999.99 -99999.99 -99999.99 -99999.99
8/21/2021 2:30:00 PM -99999.99 -179968 -99999.99 -99999.99 -99999.99 -99999.99
8/21/2021 2:45:00 PM -99999.99 -179968 -99999.99 -99999.99 -99999.99 -99999.99
8/21/2021 3:00:00 PM -99999.99 -179968 -99999.99 -99999.99 -99999.99 -99999.99
8/21/2021 3:15:00 PM -99999.99 -179968 -99999.99 -99999.99 -99999.99 -99999.99
8/21/2021 3:30:00 PM -99999.99 -179968 -99999.99 -99999.99 -99999.99 -99999.99
8/21/2021 3:45:00 PM -99999.99 -179968 -99999.99 -99999.99 -99999.99 -99999.99
8/21/2021 4:00:00 PM -99999.99 -179968 -99999.99 -99999.99 -99999.99 -99999.99
8/21/2021 4:15:00 PM -99999.99 -179968 -99999.99 -99999.99 -99999.99 -99999.99
8/21/2021 4:30:00 PM -99999.99 -179968 -99999.99 -99999.99 -99999.99 -99999.99
8/21/2021 4:45:00 PM -99999.99 -179968 -99999.99 -99999.99 -99999.99 -99999.99
8/21/2021 5:00:00 PM -99999.99 -179968 -99999.99 -99999.99 -99999.99 -99999.99
8/21/2021 5:15:00 PM -99999.99 -179968 -99999.99 -99999.99 -99999.99 -99999.99
8/21/2021 5:30:00 PM -99999.99 -179968 -99999.99 -99999.99 -99999.99 -99999.99
8/21/2021 5:45:00 PM -99999.99 -179968 -99999.99 -99999.99 -99999.99 -99999.99
8/21/2021 6:00:00 PM -99999.99 -179968 -99999.99 -99999.99 -99999.99 -99999.99
8/21/2021 6:15:00 PM -99999.99 -179968 -99999.99 -99999.99 -99999.99 -99999.99
8/21/2021 6:30:00 PM -99999.99 -179968 -99999.99 -99999.99 -99999.99 -99999.99
8/21/2021 6:45:00 PM -99999.99 -179968 -99999.99 -99999.99 -99999.99 -99999.99
8/21/2021 7:00:00 PM -99999.99 -179968 -99999.99 -99999.99 -99999.99 -99999.99
8/21/2021 7:15:00 PM -99999.99 -179968 -99999.99 -99999.99 -99999.99 -99999.99
8/21/2021 7:30:00 PM -99999.99 -179968 -99999.99 -99999.99 -99999.99 -99999.99
8/21/2021 7:45:00 PM -99999.99 -179968 -99999.99 -99999.99 -99999.99 -99999.99
8/21/2021 8:00:00 PM -99999.99 -179968 -99999.99 -99999.99 -99999.99 -99999.99
8/21/2021 8:15:00 PM -99999.99 -179968 -99999.99 -99999.99 -99999.99 -99999.99
8/21/2021 8:30:00 PM -99999.99 -179968 -99999.99 -99999.99 -99999.99 -99999.99
8/21/2021 8:45:00 PM -99999.99 -179968 -99999.99 -99999.99 -99999.99 -99999.99
8/21/2021 9:00:00 PM -99999.99 -179968 -99999.99 -99999.99 -99999.99 -99999.99
8/21/2021 9:15:00 PM -99999.99 -179968 -99999.99 -99999.99 -99999.99 -99999.99
8/21/2021 9:30:00 PM -99999.99 -179968 -99999.99 -99999.99 -99999.99 -99999.99
8/21/2021 9:45:00 PM -99999.99 -179968 -99999.99 -99999.99 -99999.99 -99999.99
8/21/2021 10:00:00 PM -99999.99 -179968 -99999.99 -99999.99 -99999.99 -99999.99
8/21/2021 10:15:00 PM -99999.99 -179968 -99999.99 -99999.99 -99999.99 -99999.99
8/21/2021 10:30:00 PM -99999.99 -179968 -99999.99 -99999.99 -99999.99 -99999.99
8/21/2021 10:45:00 PM -99999.99 -179968 -99999.99 -99999.99 -99999.99 -99999.99
8/21/2021 11:00:00 PM -99999.99 -179968 -99999.99 -99999.99 -99999.99 -99999.99
8/21/2021 11:15:00 PM -99999.99 -179968 -99999.99 -99999.99 -99999.99 -99999.99
8/21/2021 11:30:00 PM -99999.99 -179968 -99999.99 -99999.99 -99999.99 -99999.99
8/21/2021 11:45:00 PM -99999.99 -179968 -99999.99 -99999.99 -99999.99 -99999.99
8/22/2021 12:00:00 AM -99999.99 -179968 -99999.99 -99999.99 -99999.99 -99999.99
8/22/2021 12:15:00 AM -99999.99 -179968 -99999.99 -99999.99 -99999.99 -99999.99
8/22/2021 12:30:00 AM -99999.99 -179968 -99999.99 -99999.99 -99999.99 -99999.99
8/22/2021 12:45:00 AM -99999.99 -179968 -99999.99 -99999.99 -99999.99 -99999.99
8/22/2021 1:00:00 AM -99999.99 -179968 -99999.99 -99999.99 -99999.99 -99999.99
8/22/2021 1:15:00 AM -99999.99 -179968 -99999.99 -99999.99 -99999.99 -99999.99
8/22/2021 1:30:00 AM -99999.99 -179968 -99999.99 -99999.99 -99999.99 -99999.99
8/22/2021 1:45:00 AM -99999.99 -179968 -99999.99 -99999.99 -99999.99 -99999.99
8/22/2021 2:00:00 AM -99999.99 -179968 -99999.99 -99999.99 -99999.99 -99999.99
8/22/2021 2:15:00 AM -99999.99 -179968 -99999.99 -99999.99 -99999.99 -99999.99
8/22/2021 2:30:00 AM -99999.99 -179968 -99999.99 -99999.99 -99999.99 -99999.99
8/22/2021 2:45:00 AM -99999.99 -179968 -99999.99 -99999.99 -99999.99 -99999.99
8/22/2021 3:00:00 AM -99999.99 -179968 -99999.99 -99999.99 -99999.99 -99999.99
8/22/2021 3:15:00 AM -99999.99 -179968 -99999.99 -99999.99 -99999.99 -99999.99
8/22/2021 3:30:00 AM -99999.99 -179968 -99999.99 -99999.99 -99999.99 -99999.99
8/22/2021 3:45:00 AM -99999.99 -179968 -99999.99 -99999.99 -99999.99 -99999.99
8/22/2021 4:00:00 AM -99999.99 -179968 -99999.99 -99999.99 -99999.99 -99999.99
8/22/2021 4:15:00 AM -99999.99 -179968 -99999.99 -99999.99 -99999.99 -99999.99
8/22/2021 4:30:00 AM -99999.99 -179968 -99999.99 -99999.99 -99999.99 -99999.99
8/22/2021 4:45:00 AM -99999.99 -179968 -99999.99 -99999.99 -99999.99 -99999.99
8/22/2021 5:00:00 AM -99999.99 -179968 -99999.99 -99999.99 -99999.99 -99999.99
8/22/2021 5:15:00 AM -99999.99 -179968 -99999.99 -99999.99 -99999.99 -99999.99
8/22/2021 5:30:00 AM -99999.99 -179968 -99999.99 -99999.99 -99999.99 -99999.99
8/22/2021 5:45:00 AM -99999.99 -179968 -99999.99 -99999.99 -99999.99 -99999.99
8/22/2021 6:00:00 AM -99999.99 -179968 -99999.99 -99999.99 -99999.99 -99999.99
8/22/2021 6:15:00 AM -99999.99 -179968 -99999.99 -99999.99 -99999.99 -99999.99
8/22/2021 6:30:00 AM -99999.99 -179968 -99999.99 -99999.99 -99999.99 -99999.99
8/22/2021 6:45:00 AM -99999.99 -179968 -99999.99 -99999.99 -99999.99 -99999.99
8/22/2021 7:00:00 AM -99999.99 -179968 -99999.99 -99999.99 -99999.99 -99999.99
8/22/2021 7:15:00 AM -99999.99 -179968 -99999.99 -99999.99 -99999.99 -99999.99
8/22/2021 7:30:00 AM -99999.99 -179968 -99999.99 -99999.99 -99999.99 -99999.99
8/22/2021 7:45:00 AM -99999.99 -179968 -99999.99 -99999.99 -99999.99 -99999.99
8/22/2021 8:00:00 AM -99999.99 -179968 -99999.99 -99999.99 -99999.99 -99999.99
8/22/2021 8:15:00 AM -99999.99 -179968 -99999.99 -99999.99 -99999.99 -99999.99
8/22/2021 8:30:00 AM -99999.99 -179968 -99999.99 -99999.99 -99999.99 -99999.99
8/22/2021 8:45:00 AM -99999.99 -179968 -99999.99 -99999.99 -99999.99 -99999.99
8/22/2021 9:00:00 AM -99999.99 -179968 -99999.99 -99999.99 -99999.99 -99999.99
8/22/2021 9:15:00 AM -99999.99 -179968 -99999.99 -99999.99 -99999.99 -99999.99
8/22/2021 9:30:00 AM -99999.99 -179968 -99999.99 -99999.99 -99999.99 -99999.99
8/22/2021 9:45:00 AM -99999.99 -179968 -99999.99 -99999.99 -99999.99 -99999.99
8/22/2021 10:00:00 AM -99999.99 -179968 -99999.99 -99999.99 -99999.99 -99999.99
8/22/2021 10:15:00 AM -99999.99 -179968 -99999.99 -99999.99 -99999.99 -99999.99
8/22/2021 10:30:00 AM -99999.99 -179968 -99999.99 -99999.99 -99999.99 -99999.99
8/22/2021 10:45:00 AM -99999.99 -179968 -99999.99 -99999.99 -99999.99 -99999.99
8/22/2021 11:00:00 AM -99999.99 -179968 -99999.99 -99999.99 -99999.99 -99999.99
8/22/2021 11:15:00 AM -99999.99 -179968 -99999.99 -99999.99 -99999.99 -99999.99
8/22/2021 11:30:00 AM -99999.99 -179968 -99999.99 -99999.99 -99999.99 -99999.99
8/22/2021 11:45:00 AM -99999.99 -179968 -99999.99 -99999.99 -99999.99 -99999.99
8/22/2021 12:00:00 PM -99999.99 -179968 -99999.99 -99999.99 -99999.99 -99999.99
8/22/2021 12:15:00 PM -99999.99 -179968 -99999.99 -99999.99 -99999.99 -99999.99
8/22/2021 12:30:00 PM -99999.99 -179968 -99999.99 -99999.99 -99999.99 -99999.99
8/22/2021 12:45:00 PM -99999.99 -179968 -99999.99 -99999.99 -99999.99 -99999.99
8/22/2021 1:00:00 PM -99999.99 -179968 -99999.99 -99999.99 -99999.99 -99999.99
8/22/2021 1:15:00 PM -99999.99 -179968 -99999.99 -99999.99 -99999.99 -99999.99
8/22/2021 1:30:00 PM -99999.99 -179968 -99999.99 -99999.99 -99999.99 -99999.99
8/22/2021 1:45:00 PM -99999.99 -179968 -99999.99 -99999.99 -99999.99 -99999.99
8/22/2021 2:00:00 PM -99999.99 -179968 -99999.99 -99999.99 -99999.99 -99999.99
8/22/2021 2:15:00 PM -99999.99 -179968 -99999.99 -99999.99 -99999.99 -99999.99
8/22/2021 2:30:00 PM -99999.99 -179968 -99999.99 -99999.99 -99999.99 -99999.99
8/22/2021 2:45:00 PM -99999.99 -179968 -99999.99 -99999.99 -99999.99 -99999.99
8/22/2021 3:00:00 PM -99999.99 -179968 -99999.99 -99999.99 -99999.99 -99999.99
8/22/2021 3:15:00 PM -99999.99 -179968 -99999.99 -99999.99 -99999.99 -99999.99
8/22/2021 3:30:00 PM -99999.99 -179968 -99999.99 -99999.99 -99999.99 -99999.99
8/22/2021 3:45:00 PM -99999.99 -179968 -99999.99 -99999.99 -99999.99 -99999.99
8/22/2021 4:00:00 PM -99999.99 -179968 -99999.99 -99999.99 -99999.99 -99999.99
8/22/2021 4:15:00 PM -99999.99 -179968 -99999.99 -99999.99 -99999.99 -99999.99
8/22/2021 4:30:00 PM -99999.99 -179968 -99999.99 -99999.99 -99999.99 -99999.99
8/22/2021 4:45:00 PM -99999.99 -179968 -99999.99 -99999.99 -99999.99 -99999.99
8/22/2021 5:00:00 PM -99999.99 -179968 -99999.99 -99999.99 -99999.99 -99999.99
8/22/2021 5:15:00 PM -99999.99 -179968 -99999.99 -99999.99 -99999.99 -99999.99
8/22/2021 5:30:00 PM -99999.99 -179968 -99999.99 -99999.99 -99999.99 -99999.99
8/22/2021 5:45:00 PM -99999.99 -179968 -99999.99 -99999.99 -99999.99 -99999.99
8/22/2021 6:00:00 PM -99999.99 -179968 -99999.99 -99999.99 -99999.99 -99999.99
8/22/2021 6:15:00 PM -99999.99 -179968 -99999.99 -99999.99 -99999.99 -99999.99
8/22/2021 6:30:00 PM -99999.99 -179968 -99999.99 -99999.99 -99999.99 -99999.99
8/22/2021 6:45:00 PM -99999.99 -179968 -99999.99 -99999.99 -99999.99 -99999.99
8/22/2021 7:00:00 PM -99999.99 -179968 -99999.99 -99999.99 -99999.99 -99999.99
8/22/2021 7:15:00 PM -99999.99 -179968 -99999.99 -99999.99 -99999.99 -99999.99
8/22/2021 7:30:00 PM -99999.99 -179968 -99999.99 -99999.99 -99999.99 -99999.99
8/22/2021 7:45:00 PM -99999.99 -179968 -99999.99 -99999.99 -99999.99 -99999.99
8/22/2021 8:00:00 PM -99999.99 -179968 -99999.99 -99999.99 -99999.99 -99999.99
8/22/2021 8:15:00 PM -99999.99 -179968 -99999.99 -99999.99 -99999.99 -99999.99
8/22/2021 8:30:00 PM -99999.99 -179968 -99999.99 -99999.99 -99999.99 -99999.99
8/22/2021 8:45:00 PM -99999.99 -179968 -99999.99 -99999.99 -99999.99 -99999.99
8/22/2021 9:00:00 PM -99999.99 -179968 -99999.99 -99999.99 -99999.99 -99999.99
8/22/2021 9:15:00 PM -99999.99 -179968 -99999.99 -99999.99 -99999.99 -99999.99
8/22/2021 9:30:00 PM -99999.99 -179968 -99999.99 -99999.99 -99999.99 -99999.99
8/22/2021 9:45:00 PM -99999.99 -179968 -99999.99 -99999.99 -99999.99 -99999.99
8/22/2021 10:00:00 PM -99999.99 -179968 -99999.99 -99999.99 -99999.99 -99999.99
8/22/2021 10:15:00 PM -99999.99 -179968 -99999.99 -99999.99 -99999.99 -99999.99
8/22/2021 10:30:00 PM -99999.99 -179968 -99999.99 -99999.99 -99999.99 -99999.99
8/22/2021 10:45:00 PM -99999.99 -179968 -99999.99 -99999.99 -99999.99 -99999.99
8/22/2021 11:00:00 PM -99999.99 -179968 -99999.99 -99999.99 -99999.99 -99999.99
8/22/2021 11:15:00 PM -99999.99 -179968 -99999.99 -99999.99 -99999.99 -99999.99
8/22/2021 11:30:00 PM -99999.99 -179968 -99999.99 -99999.99 -99999.99 -99999.99
8/22/2021 11:45:00 PM -99999.99 -179968 -99999.99 -99999.99 -99999.99 -99999.99
8/23/2021 12:00:00 AM -99999.99 -179968 -99999.99 -99999.99 -99999.99 -99999.99
8/23/2021 12:15:00 AM -99999.99 -179968 -99999.99 -99999.99 -99999.99 -99999.99
8/23/2021 12:30:00 AM -99999.99 -179968 -99999.99 -99999.99 -99999.99 -99999.99
8/23/2021 12:45:00 AM -99999.99 -179968 -99999.99 -99999.99 -99999.99 -99999.99
8/23/2021 1:00:00 AM -99999.99 -179968 -99999.99 -99999.99 -99999.99 -99999.99
8/23/2021 1:15:00 AM -99999.99 -179968 -99999.99 -99999.99 -99999.99 -99999.99
8/23/2021 1:30:00 AM -99999.99 -179968 -99999.99 -99999.99 -99999.99 -99999.99
8/23/2021 1:45:00 AM -99999.99 -179968 -99999.99 -99999.99 -99999.99 -99999.99
8/23/2021 2:00:00 AM -99999.99 -179968 -99999.99 -99999.99 -99999.99 -99999.99
8/23/2021 2:15:00 AM -99999.99 -179968 -99999.99 -99999.99 -99999.99 -99999.99
8/23/2021 2:30:00 AM -99999.99 -179968 -99999.99 -99999.99 -99999.99 -99999.99
8/23/2021 2:45:00 AM -99999.99 -179968 -99999.99 -99999.99 -99999.99 -99999.99
8/23/2021 3:00:00 AM -99999.99 -179968 -99999.99 -99999.99 -99999.99 -99999.99
8/23/2021 3:15:00 AM -99999.99 -179968 -99999.99 -99999.99 -99999.99 -99999.99
8/23/2021 3:30:00 AM -99999.99 -179968 -99999.99 -99999.99 -99999.99 -99999.99
8/23/2021 3:45:00 AM -99999.99 -179968 -99999.99 -99999.99 -99999.99 -99999.99
8/23/2021 4:00:00 AM -99999.99 -179968 -99999.99 -99999.99 -99999.99 -99999.99
8/23/2021 4:15:00 AM -99999.99 -179968 -99999.99 -99999.99 -99999.99 -99999.99
8/23/2021 4:30:00 AM -99999.99 -179968 -99999.99 -99999.99 -99999.99 -99999.99
8/23/2021 4:45:00 AM -99999.99 -179968 -99999.99 -99999.99 -99999.99 -99999.99
8/23/2021 5:00:00 AM -99999.99 -179968 -99999.99 -99999.99 -99999.99 -99999.99
8/23/2021 5:15:00 AM -99999.99 -179968 -99999.99 -99999.99 -99999.99 -99999.99
8/23/2021 5:30:00 AM -99999.99 -179968 -99999.99 -99999.99 -99999.99 -99999.99
8/23/2021 5:45:00 AM -99999.99 -179968 -99999.99 -99999.99 -99999.99 -99999.99
8/23/2021 6:00:00 AM -99999.99 -179968 -99999.99 -99999.99 -99999.99 -99999.99
8/23/2021 6:15:00 AM -99999.99 -179968 -99999.99 -99999.99 -99999.99 -99999.99
8/23/2021 6:30:00 AM -99999.99 -179968 -99999.99 -99999.99 -99999.99 -99999.99
8/23/2021 6:45:00 AM -99999.99 -179968 -99999.99 -99999.99 -99999.99 -99999.99
8/23/2021 7:00:00 AM -99999.99 -179968 -99999.99 -99999.99 -99999.99 -99999.99
8/23/2021 7:15:00 AM -99999.99 -179968 -99999.99 -99999.99 -99999.99 -99999.99
8/23/2021 7:30:00 AM -99999.99 -179968 -99999.99 -99999.99 -99999.99 -99999.99
8/23/2021 7:45:00 AM -99999.99 -179968 -99999.99 -99999.99 -99999.99 -99999.99
8/23/2021 8:00:00 AM -99999.99 -179968 -99999.99 -99999.99 -99999.99 -99999.99
8/23/2021 8:15:00 AM -99999.99 -179968 -99999.99 -99999.99 -99999.99 -99999.99
8/23/2021 8:30:00 AM -99999.99 -179968 -99999.99 -99999.99 -99999.99 -99999.99
8/23/2021 8:45:00 AM -99999.99 -179968 -99999.99 -99999.99 -99999.99 -99999.99
8/23/2021 9:00:00 AM -99999.99 -179968 -99999.99 -99999.99 -99999.99 -99999.99
8/23/2021 9:15:00 AM -99999.99 -179968 -99999.99 -99999.99 -99999.99 -99999.99
8/23/2021 9:30:00 AM -99999.99 -179968 -99999.99 -99999.99 -99999.99 -99999.99
8/23/2021 9:45:00 AM -99999.99 -179968 -99999.99 -99999.99 -99999.99 -99999.99
8/23/2021 10:00:00 AM -99999.99 -179968 -99999.99 -99999.99 -99999.99 -99999.99
8/23/2021 10:15:00 AM -99999.99 -179968 -99999.99 -99999.99 -99999.99 -99999.99
8/23/2021 10:30:00 AM -99999.99 -179968 -99999.99 -99999.99 -99999.99 -99999.99
8/23/2021 10:45:00 AM -99999.99 -179968 -99999.99 -99999.99 -99999.99 -99999.99
8/23/2021 11:00:00 AM -99999.99 -179968 -99999.99 -99999.99 -99999.99 -99999.99
8/23/2021 11:15:00 AM -99999.99 -179968 -99999.99 -99999.99 -99999.99 -99999.99
8/23/2021 11:30:00 AM -99999.99 -179968 -99999.99 -99999.99 -99999.99 -99999.99
8/23/2021 11:45:00 AM -99999.99 -179968 -99999.99 -99999.99 -99999.99 -99999.99
8/23/2021 12:00:00 PM -99999.99 -179968 -99999.99 -99999.99 -99999.99 -99999.99
8/23/2021 12:15:00 PM -99999.99 -179968 -99999.99 -99999.99 -99999.99 -99999.99
8/23/2021 12:30:00 PM -99999.99 -179968 -99999.99 -99999.99 -99999.99 -99999.99
8/23/2021 12:45:00 PM -99999.99 -179968 -99999.99 -99999.99 -99999.99 -99999.99
8/23/2021 1:00:00 PM -99999.99 -179968 -99999.99 -99999.99 -99999.99 -99999.99
8/23/2021 1:15:00 PM -99999.99 -179968 -99999.99 -99999.99 -99999.99 -99999.99
8/23/2021 1:30:00 PM -99999.99 -179968 -99999.99 -99999.99 -99999.99 -99999.99
8/23/2021 1:45:00 PM -99999.99 -179968 -99999.99 -99999.99 -99999.99 -99999.99
8/23/2021 2:00:00 PM -99999.99 -179968 -99999.99 -99999.99 -99999.99 -99999.99
8/23/2021 2:15:00 PM -99999.99 -179968 -99999.99 -99999.99 -99999.99 -99999.99
8/23/2021 2:30:00 PM -99999.99 -179968 -99999.99 -99999.99 -99999.99 -99999.99
8/23/2021 2:45:00 PM -99999.99 -179968 -99999.99 -99999.99 -99999.99 -99999.99
8/23/2021 3:00:00 PM -99999.99 -179968 -99999.99 -99999.99 -99999.99 -99999.99
8/23/2021 3:15:00 PM -99999.99 -179968 -99999.99 -99999.99 -99999.99 -99999.99
8/23/2021 3:30:00 PM -99999.99 -179968 -99999.99 -99999.99 -99999.99 -99999.99
8/23/2021 3:45:00 PM -99999.99 -179968 -99999.99 -99999.99 -99999.99 -99999.99
8/23/2021 4:00:00 PM -99999.99 -179968 -99999.99 -99999.99 -99999.99 -99999.99
8/23/2021 4:15:00 PM -99999.99 -179968 -99999.99 -99999.99 -99999.99 -99999.99
8/23/2021 4:30:00 PM -99999.99 -179968 -99999.99 -99999.99 -99999.99 -99999.99
8/23/2021 4:45:00 PM -99999.99 -179968 -99999.99 -99999.99 -99999.99 -99999.99
8/23/2021 5:00:00 PM -99999.99 -179968 -99999.99 -99999.99 -99999.99 -99999.99
8/23/2021 5:15:00 PM -99999.99 -179968 -99999.99 -99999.99 -99999.99 -99999.99
8/23/2021 5:30:00 PM -99999.99 -179968 -99999.99 -99999.99 -99999.99 -99999.99
8/23/2021 5:45:00 PM -99999.99 -179968 -99999.99 -99999.99 -99999.99 -99999.99
8/23/2021 6:00:00 PM -99999.99 -179968 -99999.99 -99999.99 -99999.99 -99999.99
8/23/2021 6:15:00 PM -99999.99 -179968 -99999.99 -99999.99 -99999.99 -99999.99
8/23/2021 6:30:00 PM -99999.99 -179968 -99999.99 -99999.99 -99999.99 -99999.99
8/23/2021 6:45:00 PM -99999.99 -179968 -99999.99 -99999.99 -99999.99 -99999.99
8/23/2021 7:00:00 PM -99999.99 -179968 -99999.99 -99999.99 -99999.99 -99999.99
8/23/2021 7:15:00 PM -99999.99 -179968 -99999.99 -99999.99 -99999.99 -99999.99
8/23/2021 7:30:00 PM -99999.99 -179968 -99999.99 -99999.99 -99999.99 -99999.99
8/23/2021 7:45:00 PM -99999.99 -179968 -99999.99 -99999.99 -99999.99 -99999.99
8/23/2021 8:00:00 PM -99999.99 -179968 -99999.99 -99999.99 -99999.99 -99999.99
8/23/2021 8:15:00 PM -99999.99 -179968 -99999.99 -99999.99 -99999.99 -99999.99
8/23/2021 8:30:00 PM -99999.99 -179968 -99999.99 -99999.99 -99999.99 -99999.99
8/23/2021 8:45:00 PM -99999.99 -179968 -99999.99 -99999.99 -99999.99 -99999.99
8/23/2021 9:00:00 PM -99999.99 -179968 -99999.99 -99999.99 -99999.99 -99999.99
8/23/2021 9:15:00 PM -99999.99 -179968 -99999.99 -99999.99 -99999.99 -99999.99
8/23/2021 9:30:00 PM -99999.99 -179968 -99999.99 -99999.99 -99999.99 -99999.99
8/23/2021 9:45:00 PM -99999.99 -179968 -99999.99 -99999.99 -99999.99 -99999.99
8/23/2021 10:00:00 PM -99999.99 -179968 -99999.99 -99999.99 -99999.99 -99999.99
8/23/2021 10:15:00 PM -99999.99 -179968 -99999.99 -99999.99 -99999.99 -99999.99
8/23/2021 10:30:00 PM -99999.99 -179968 -99999.99 -99999.99 -99999.99 -99999.99
8/23/2021 10:45:00 PM -99999.99 -179968 -99999.99 -99999.99 -99999.99 -99999.99
8/23/2021 11:00:00 PM -99999.99 -179968 -99999.99 -99999.99 -99999.99 -99999.99
8/23/2021 11:15:00 PM -99999.99 -179968 -99999.99 -99999.99 -99999.99 -99999.99
8/23/2021 11:30:00 PM -99999.99 -179968 -99999.99 -99999.99 -99999.99 -99999.99
8/23/2021 11:45:00 PM -99999.99 -179968 -99999.99 -99999.99 -99999.99 -99999.99
8/24/2021 12:00:00 AM -99999.99 -179968 -99999.99 -99999.99 -99999.99 -99999.99
8/24/2021 12:15:00 AM -99999.99 -179968 -99999.99 -99999.99 -99999.99 -99999.99
8/24/2021 12:30:00 AM -99999.99 -179968 -99999.99 -99999.99 -99999.99 -99999.99
8/24/2021 12:45:00 AM -99999.99 -179968 -99999.99 -99999.99 -99999.99 -99999.99
8/24/2021 1:00:00 AM -99999.99 -179968 -99999.99 -99999.99 -99999.99 -99999.99
8/24/2021 1:15:00 AM -99999.99 -179968 -99999.99 -99999.99 -99999.99 -99999.99
8/24/2021 1:30:00 AM -99999.99 -179968 -99999.99 -99999.99 -99999.99 -99999.99
8/24/2021 1:45:00 AM -99999.99 -179968 -99999.99 -99999.99 -99999.99 -99999.99
8/24/2021 2:00:00 AM -99999.99 -179968 -99999.99 -99999.99 -99999.99 -99999.99
8/24/2021 2:15:00 AM -99999.99 -179968 -99999.99 -99999.99 -99999.99 -99999.99
8/24/2021 2:30:00 AM -99999.99 -179968 -99999.99 -99999.99 -99999.99 -99999.99
8/24/2021 2:45:00 AM -99999.99 -179968 -99999.99 -99999.99 -99999.99 -99999.99
8/24/2021 3:00:00 AM -99999.99 -179968 -99999.99 -99999.99 -99999.99 -99999.99
8/24/2021 3:15:00 AM -99999.99 -179968 -99999.99 -99999.99 -99999.99 -99999.99
8/24/2021 3:30:00 AM -99999.99 -179968 -99999.99 -99999.99 -99999.99 -99999.99
8/24/2021 3:45:00 AM -99999.99 -179968 -99999.99 -99999.99 -99999.99 -99999.99
8/24/2021 4:00:00 AM -99999.99 -179968 -99999.99 -99999.99 -99999.99 -99999.99
8/24/2021 4:15:00 AM -99999.99 -179968 -99999.99 -99999.99 -99999.99 -99999.99
8/24/2021 4:30:00 AM -99999.99 -179968 -99999.99 -99999.99 -99999.99 -99999.99
8/24/2021 4:45:00 AM -99999.99 -179968 -99999.99 -99999.99 -99999.99 -99999.99
8/24/2021 5:00:00 AM -99999.99 -179968 -99999.99 -99999.99 -99999.99 -99999.99
8/24/2021 5:15:00 AM -99999.99 -179968 -99999.99 -99999.99 -99999.99 -99999.99
8/24/2021 5:30:00 AM -99999.99 -179968 -99999.99 -99999.99 -99999.99 -99999.99
8/24/2021 5:45:00 AM -99999.99 -179968 -99999.99 -99999.99 -99999.99 -99999.99
8/24/2021 6:00:00 AM -99999.99 -179968 -99999.99 -99999.99 -99999.99 -99999.99
8/24/2021 6:15:00 AM -99999.99 -179968 -99999.99 -99999.99 -99999.99 -99999.99
8/24/2021 6:30:00 AM -99999.99 -179968 -99999.99 -99999.99 -99999.99 -99999.99
8/24/2021 6:45:00 AM -99999.99 -179968 -99999.99 -99999.99 -99999.99 -99999.99
8/24/2021 7:00:00 AM -99999.99 -179968 -99999.99 -99999.99 -99999.99 -99999.99
8/24/2021 7:15:00 AM -99999.99 -179968 -99999.99 -99999.99 -99999.99 -99999.99
8/24/2021 7:30:00 AM -99999.99 -179968 -99999.99 -99999.99 -99999.99 -99999.99
8/24/2021 7:45:00 AM -99999.99 -179968 -99999.99 -99999.99 -99999.99 -99999.99
8/24/2021 8:00:00 AM -99999.99 -179968 -99999.99 -99999.99 -99999.99 -99999.99
8/24/2021 8:15:00 AM -99999.99 -179968 -99999.99 -99999.99 -99999.99 -99999.99
8/24/2021 8:30:00 AM -99999.99 -179968 -99999.99 -99999.99 -99999.99 -99999.99
8/24/2021 8:45:00 AM -99999.99 -179968 -99999.99 -99999.99 -99999.99 -99999.99
8/24/2021 9:00:00 AM -99999.99 -179968 -99999.99 -99999.99 -99999.99 -99999.99
8/24/2021 9:15:00 AM -99999.99 -179968 -99999.99 -99999.99 -99999.99 -99999.99
8/24/2021 9:30:00 AM -99999.99 -179968 -99999.99 -99999.99 -99999.99 -99999.99
8/24/2021 9:45:00 AM -99999.99 -179968 -99999.99 -99999.99 -99999.99 -99999.99
8/24/2021 10:00:00 AM -99999.99 -179968 -99999.99 -99999.99 -99999.99 -99999.99
8/24/2021 10:15:00 AM -99999.99 -179968 -99999.99 -99999.99 -99999.99 -99999.99
8/24/2021 10:30:00 AM -99999.99 -179968 -99999.99 -99999.99 -99999.99 -99999.99
8/24/2021 10:45:00 AM -99999.99 -179968 -99999.99 -99999.99 -99999.99 -99999.99
8/24/2021 11:00:00 AM -99999.99 -179968 -99999.99 -99999.99 -99999.99 -99999.99
8/24/2021 11:15:00 AM -99999.99 -179968 -99999.99 -99999.99 -99999.99 -99999.99
8/24/2021 11:30:00 AM -99999.99 -179968 -99999.99 -99999.99 -99999.99 -99999.99
8/24/2021 11:45:00 AM -99999.99 -179968 -99999.99 -99999.99 -99999.99 -99999.99
8/24/2021 12:00:00 PM -99999.99 -179968 -99999.99 -99999.99 -99999.99 -99999.99
8/24/2021 12:15:00 PM -99999.99 -179968 -99999.99 -99999.99 -99999.99 -99999.99
8/24/2021 12:30:00 PM -99999.99 -179968 -99999.99 -99999.99 -99999.99 -99999.99
8/24/2021 12:45:00 PM -99999.99 -179968 -99999.99 -99999.99 -99999.99 -99999.99
8/24/2021 1:00:00 PM -99999.99 -179968 -99999.99 -99999.99 -99999.99 -99999.99
8/24/2021 1:15:00 PM -99999.99 -179968 -99999.99 -99999.99 -99999.99 -99999.99
8/24/2021 1:30:00 PM -99999.99 -179968 -99999.99 -99999.99 -99999.99 -99999.99
8/24/2021 1:45:00 PM -99999.99 -179968 -99999.99 -99999.99 -99999.99 -99999.99
8/24/2021 2:00:00 PM -99999.99 -179968 -99999.99 -99999.99 -99999.99 -99999.99
8/24/2021 2:15:00 PM -99999.99 -179968 -99999.99 -99999.99 -99999.99 -99999.99
8/24/2021 2:30:00 PM -99999.99 -179968 -99999.99 -99999.99 -99999.99 -99999.99
8/24/2021 2:45:00 PM -99999.99 -179968 -99999.99 -99999.99 -99999.99 -99999.99
8/24/2021 3:00:00 PM -99999.99 -179968 -99999.99 -99999.99 -99999.99 -99999.99
8/24/2021 3:15:00 PM -99999.99 -179968 -99999.99 -99999.99 -99999.99 -99999.99
8/24/2021 3:30:00 PM -99999.99 -179968 -99999.99 -99999.99 -99999.99 -99999.99
8/24/2021 3:45:00 PM -99999.99 -179968 -99999.99 -99999.99 -99999.99 -99999.99
8/24/2021 4:00:00 PM -99999.99 -179968 -99999.99 -99999.99 -99999.99 -99999.99
8/24/2021 4:15:00 PM -99999.99 -179968 -99999.99 -99999.99 -99999.99 -99999.99
8/24/2021 4:30:00 PM -99999.99 -179968 -99999.99 -99999.99 -99999.99 -99999.99
8/24/2021 4:45:00 PM -99999.99 -179968 -99999.99 -99999.99 -99999.99 -99999.99
8/24/2021 5:00:00 PM -99999.99 -179968 -99999.99 -99999.99 -99999.99 -99999.99
8/24/2021 5:15:00 PM -99999.99 -179968 -99999.99 -99999.99 -99999.99 -99999.99
8/24/2021 5:30:00 PM -99999.99 -179968 -99999.99 -99999.99 -99999.99 -99999.99
8/24/2021 5:45:00 PM -99999.99 -179968 -99999.99 -99999.99 -99999.99 -99999.99
8/24/2021 6:00:00 PM -99999.99 -179968 -99999.99 -99999.99 -99999.99 -99999.99
8/24/2021 6:15:00 PM -99999.99 -179968 -99999.99 -99999.99 -99999.99 -99999.99
8/24/2021 6:30:00 PM -99999.99 -179968 -99999.99 -99999.99 -99999.99 -99999.99
8/24/2021 6:45:00 PM -99999.99 -179968 -99999.99 -99999.99 -99999.99 -99999.99
8/24/2021 7:00:00 PM -99999.99 -179968 -99999.99 -99999.99 -99999.99 -99999.99
8/24/2021 7:15:00 PM -99999.99 -179968 -99999.99 -99999.99 -99999.99 -99999.99
8/24/2021 7:30:00 PM -99999.99 -179968 -99999.99 -99999.99 -99999.99 -99999.99
8/24/2021 7:45:00 PM -99999.99 -179968 -99999.99 -99999.99 -99999.99 -99999.99
8/24/2021 8:00:00 PM -99999.99 -179968 -99999.99 -99999.99 -99999.99 -99999.99
8/24/2021 8:15:00 PM -99999.99 -179968 -99999.99 -99999.99 -99999.99 -99999.99
8/24/2021 8:30:00 PM -99999.99 -179968 -99999.99 -99999.99 -99999.99 -99999.99
8/24/2021 8:45:00 PM -99999.99 -179968 -99999.99 -99999.99 -99999.99 -99999.99
8/24/2021 9:00:00 PM -99999.99 -179968 -99999.99 -99999.99 -99999.99 -99999.99
8/24/2021 9:15:00 PM -99999.99 -179968 -99999.99 -99999.99 -99999.99 -99999.99
8/24/2021 9:30:00 PM -99999.99 -179968 -99999.99 -99999.99 -99999.99 -99999.99
8/24/2021 9:45:00 PM -99999.99 -179968 -99999.99 -99999.99 -99999.99 -99999.99
8/24/2021 10:00:00 PM -99999.99 -179968 -99999.99 -99999.99 -99999.99 -99999.99
8/24/2021 10:15:00 PM -99999.99 -179968 -99999.99 -99999.99 -99999.99 -99999.99
8/24/2021 10:30:00 PM -99999.99 -179968 -99999.99 -99999.99 -99999.99 -99999.99
8/24/2021 10:45:00 PM -99999.99 -179968 -99999.99 -99999.99 -99999.99 -99999.99
8/24/2021 11:00:00 PM -99999.99 -179968 -99999.99 -99999.99 -99999.99 -99999.99
8/24/2021 11:15:00 PM -99999.99 -179968 -99999.99 -99999.99 -99999.99 -99999.99
8/24/2021 11:30:00 PM -99999.99 -179968 -99999.99 -99999.99 -99999.99 -99999.99
8/24/2021 11:45:00 PM -99999.99 -179968 -99999.99 -99999.99 -99999.99 -99999.99
8/25/2021 12:00:00 AM -99999.99 -179968 -99999.99 -99999.99 -99999.99 -99999.99
8/25/2021 12:15:00 AM -99999.99 -179968 -99999.99 -99999.99 -99999.99 -99999.99
8/25/2021 12:30:00 AM -99999.99 -179968 -99999.99 -99999.99 -99999.99 -99999.99
8/25/2021 12:45:00 AM -99999.99 -179968 -99999.99 -99999.99 -99999.99 -99999.99
8/25/2021 1:00:00 AM -99999.99 -179968 -99999.99 -99999.99 -99999.99 -99999.99
8/25/2021 1:15:00 AM -99999.99 -179968 -99999.99 -99999.99 -99999.99 -99999.99
8/25/2021 1:30:00 AM -99999.99 -179968 -99999.99 -99999.99 -99999.99 -99999.99
8/25/2021 1:45:00 AM -99999.99 -179968 -99999.99 -99999.99 -99999.99 -99999.99
8/25/2021 2:00:00 AM -99999.99 -179968 -99999.99 -99999.99 -99999.99 -99999.99
8/25/2021 2:15:00 AM -99999.99 -179968 -99999.99 -99999.99 -99999.99 -99999.99
8/25/2021 2:30:00 AM -99999.99 -179968 -99999.99 -99999.99 -99999.99 -99999.99
8/25/2021 2:45:00 AM -99999.99 -179968 -99999.99 -99999.99 -99999.99 -99999.99
8/25/2021 3:00:00 AM -99999.99 -179968 -99999.99 -99999.99 -99999.99 -99999.99
8/25/2021 3:15:00 AM -99999.99 -179968 -99999.99 -99999.99 -99999.99 -99999.99
8/25/2021 3:30:00 AM -99999.99 -179968 -99999.99 -99999.99 -99999.99 -99999.99
8/25/2021 3:45:00 AM -99999.99 -179968 -99999.99 -99999.99 -99999.99 -99999.99
8/25/2021 4:00:00 AM -99999.99 -179968 -99999.99 -99999.99 -99999.99 -99999.99
8/25/2021 4:15:00 AM -99999.99 -179968 -99999.99 -99999.99 -99999.99 -99999.99
8/25/2021 4:30:00 AM -99999.99 -179968 -99999.99 -99999.99 -99999.99 -99999.99
8/25/2021 4:45:00 AM -99999.99 -179968 -99999.99 -99999.99 -99999.99 -99999.99
8/25/2021 5:00:00 AM -99999.99 -179968 -99999.99 -99999.99 -99999.99 -99999.99
8/25/2021 5:15:00 AM -99999.99 -179968 -99999.99 -99999.99 -99999.99 -99999.99
8/25/2021 5:30:00 AM -99999.99 -179968 -99999.99 -99999.99 -99999.99 -99999.99
8/25/2021 5:45:00 AM -99999.99 -179968 -99999.99 -99999.99 -99999.99 -99999.99
8/25/2021 6:00:00 AM -99999.99 -179968 -99999.99 -99999.99 -99999.99 -99999.99
8/25/2021 6:15:00 AM -99999.99 -179968 -99999.99 -99999.99 -99999.99 -99999.99
8/25/2021 6:30:00 AM -99999.99 -179968 -99999.99 -99999.99 -99999.99 -99999.99
8/25/2021 6:45:00 AM -99999.99 -179968 -99999.99 -99999.99 -99999.99 -99999.99
8/25/2021 7:00:00 AM -99999.99 -179968 -99999.99 -99999.99 -99999.99 -99999.99
8/25/2021 7:15:00 AM -99999.99 -179968 -99999.99 -99999.99 -99999.99 -99999.99
8/25/2021 7:30:00 AM -99999.99 -179968 -99999.99 -99999.99 -99999.99 -99999.99
8/25/2021 7:45:00 AM -99999.99 -179968 -99999.99 -99999.99 -99999.99 -99999.99
8/25/2021 8:00:00 AM -99999.99 -179968 -99999.99 -99999.99 -99999.99 -99999.99
8/25/2021 8:15:00 AM -99999.99 -179968 -99999.99 -99999.99 -99999.99 -99999.99
8/25/2021 8:30:00 AM -99999.99 -179968 -99999.99 -99999.99 -99999.99 -99999.99
8/25/2021 8:45:00 AM -99999.99 -179968 -99999.99 -99999.99 -99999.99 -99999.99
8/25/2021 9:00:00 AM -99999.99 -179968 -99999.99 -99999.99 -99999.99 -99999.99
8/25/2021 9:15:00 AM -99999.99 -179968 -99999.99 -99999.99 -99999.99 -99999.99
8/25/2021 9:30:00 AM -99999.99 -179968 -99999.99 -99999.99 -99999.99 -99999.99
8/25/2021 9:45:00 AM -99999.99 -179968 -99999.99 -99999.99 -99999.99 -99999.99
8/25/2021 10:00:00 AM -99999.99 -179968 -99999.99 -99999.99 -99999.99 -99999.99
8/25/2021 10:15:00 AM -99999.99 -179968 -99999.99 -99999.99 -99999.99 -99999.99
8/25/2021 10:30:00 AM -99999.99 -179968 -99999.99 -99999.99 -99999.99 -99999.99
8/25/2021 10:45:00 AM -99999.99 -179968 -99999.99 -99999.99 -99999.99 -99999.99
8/25/2021 11:00:00 AM -99999.99 -179968 -99999.99 -99999.99 -99999.99 -99999.99
8/25/2021 11:15:00 AM -99999.99 -179968 -99999.99 -99999.99 -99999.99 -99999.99
8/25/2021 11:30:00 AM -99999.99 -179968 -99999.99 -99999.99 -99999.99 -99999.99
8/25/2021 11:45:00 AM -99999.99 -179968 -99999.99 -99999.99 -99999.99 -99999.99
8/25/2021 12:00:00 PM -99999.99 -179968 -99999.99 -99999.99 -99999.99 -99999.99
8/25/2021 12:15:00 PM -99999.99 -179968 -99999.99 -99999.99 -99999.99 -99999.99
8/25/2021 12:30:00 PM -99999.99 -179968 -99999.99 -99999.99 -99999.99 -99999.99
8/25/2021 12:45:00 PM -99999.99 -179968 -99999.99 -99999.99 -99999.99 -99999.99
8/25/2021 1:00:00 PM -99999.99 -179968 -99999.99 -99999.99 -99999.99 -99999.99
8/25/2021 1:15:00 PM -99999.99 -179968 -99999.99 -99999.99 -99999.99 -99999.99
8/25/2021 1:30:00 PM -99999.99 -179968 -99999.99 -99999.99 -99999.99 -99999.99
8/25/2021 1:45:00 PM -99999.99 -179968 -99999.99 -99999.99 -99999.99 -99999.99
8/25/2021 2:00:00 PM -99999.99 -179968 -99999.99 -99999.99 -99999.99 -99999.99
8/25/2021 2:15:00 PM -99999.99 -179968 -99999.99 -99999.99 -99999.99 -99999.99
8/25/2021 2:30:00 PM -99999.99 -179968 -99999.99 -99999.99 -99999.99 -99999.99
8/25/2021 2:45:00 PM -99999.99 -179968 -99999.99 -99999.99 -99999.99 -99999.99
8/25/2021 3:00:00 PM -99999.99 -179968 -99999.99 -99999.99 -99999.99 -99999.99
8/25/2021 3:15:00 PM -99999.99 -179968 -99999.99 -99999.99 -99999.99 -99999.99
8/25/2021 3:30:00 PM -99999.99 -179968 -99999.99 -99999.99 -99999.99 -99999.99
8/25/2021 3:45:00 PM -99999.99 -179968 -99999.99 -99999.99 -99999.99 -99999.99
8/25/2021 4:00:00 PM -99999.99 -179968 -99999.99 -99999.99 -99999.99 -99999.99
8/25/2021 4:15:00 PM -99999.99 -179968 -99999.99 -99999.99 -99999.99 -99999.99
8/25/2021 4:30:00 PM -99999.99 -179968 -99999.99 -99999.99 -99999.99 -99999.99
8/25/2021 4:45:00 PM -99999.99 -179968 -99999.99 -99999.99 -99999.99 -99999.99
8/25/2021 5:00:00 PM -99999.99 -179968 -99999.99 -99999.99 -99999.99 -99999.99
8/25/2021 5:15:00 PM -99999.99 -179968 -99999.99 -99999.99 -99999.99 -99999.99
8/25/2021 5:30:00 PM -99999.99 -179968 -99999.99 -99999.99 -99999.99 -99999.99
8/25/2021 5:45:00 PM -99999.99 -179968 -99999.99 -99999.99 -99999.99 -99999.99
8/25/2021 6:00:00 PM -99999.99 -179968 -99999.99 -99999.99 -99999.99 -99999.99
8/25/2021 6:15:00 PM -99999.99 -179968 -99999.99 -99999.99 -99999.99 -99999.99
8/25/2021 6:30:00 PM -99999.99 -179968 -99999.99 -99999.99 -99999.99 -99999.99
8/25/2021 6:45:00 PM -99999.99 -179968 -99999.99 -99999.99 -99999.99 -99999.99
8/25/2021 7:00:00 PM -99999.99 -179968 -99999.99 -99999.99 -99999.99 -99999.99
8/25/2021 7:15:00 PM -99999.99 -179968 -99999.99 -99999.99 -99999.99 -99999.99
8/25/2021 7:30:00 PM -99999.99 -179968 -99999.99 -99999.99 -99999.99 -99999.99
8/25/2021 7:45:00 PM -99999.99 -179968 -99999.99 -99999.99 -99999.99 -99999.99
8/25/2021 8:00:00 PM -99999.99 -179968 -99999.99 -99999.99 -99999.99 -99999.99
8/25/2021 8:15:00 PM -99999.99 -179968 -99999.99 -99999.99 -99999.99 -99999.99
8/25/2021 8:30:00 PM -99999.99 -179968 -99999.99 -99999.99 -99999.99 -99999.99
8/25/2021 8:45:00 PM -99999.99 -179968 -99999.99 -99999.99 -99999.99 -99999.99
8/25/2021 9:00:00 PM -99999.99 -179968 -99999.99 -99999.99 -99999.99 -99999.99
8/25/2021 9:15:00 PM -99999.99 -179968 -99999.99 -99999.99 -99999.99 -99999.99
8/25/2021 9:30:00 PM -99999.99 -179968 -99999.99 -99999.99 -99999.99 -99999.99
8/25/2021 9:45:00 PM -99999.99 -179968 -99999.99 -99999.99 -99999.99 -99999.99
8/25/2021 10:00:00 PM -99999.99 -179968 -99999.99 -99999.99 -99999.99 -99999.99
8/25/2021 10:15:00 PM -99999.99 -179968 -99999.99 -99999.99 -99999.99 -99999.99
8/25/2021 10:30:00 PM -99999.99 -179968 -99999.99 -99999.99 -99999.99 -99999.99
8/25/2021 10:45:00 PM -99999.99 -179968 -99999.99 -99999.99 -99999.99 -99999.99
8/25/2021 11:00:00 PM -99999.99 -179968 -99999.99 -99999.99 -99999.99 -99999.99
8/25/2021 11:15:00 PM -99999.99 -179968 -99999.99 -99999.99 -99999.99 -99999.99
8/25/2021 11:30:00 PM -99999.99 -179968 -99999.99 -99999.99 -99999.99 -99999.99
8/25/2021 11:45:00 PM -99999.99 -179968 -99999.99 -99999.99 -99999.99 -99999.99
8/26/2021 12:00:00 AM -99999.99 -179968 -99999.99 -99999.99 -99999.99 -99999.99
8/26/2021 12:15:00 AM -99999.99 -179968 -99999.99 -99999.99 -99999.99 -99999.99
8/26/2021 12:30:00 AM -99999.99 -179968 -99999.99 -99999.99 -99999.99 -99999.99
8/26/2021 12:45:00 AM -99999.99 -179968 -99999.99 -99999.99 -99999.99 -99999.99
8/26/2021 1:00:00 AM -99999.99 -179968 -99999.99 -99999.99 -99999.99 -99999.99
8/26/2021 1:15:00 AM -99999.99 -179968 -99999.99 -99999.99 -99999.99 -99999.99
8/26/2021 1:30:00 AM -99999.99 -179968 -99999.99 -99999.99 -99999.99 -99999.99
8/26/2021 1:45:00 AM -99999.99 -179968 -99999.99 -99999.99 -99999.99 -99999.99
8/26/2021 2:00:00 AM -99999.99 -179968 -99999.99 -99999.99 -99999.99 -99999.99
8/26/2021 2:15:00 AM -99999.99 -179968 -99999.99 -99999.99 -99999.99 -99999.99
8/26/2021 2:30:00 AM -99999.99 -179968 -99999.99 -99999.99 -99999.99 -99999.99
8/26/2021 2:45:00 AM -99999.99 -179968 -99999.99 -99999.99 -99999.99 -99999.99
8/26/2021 3:00:00 AM -99999.99 -179968 -99999.99 -99999.99 -99999.99 -99999.99
8/26/2021 3:15:00 AM -99999.99 -179968 -99999.99 -99999.99 -99999.99 -99999.99
8/26/2021 3:30:00 AM -99999.99 -179968 -99999.99 -99999.99 -99999.99 -99999.99
8/26/2021 3:45:00 AM -99999.99 -179968 -99999.99 -99999.99 -99999.99 -99999.99
8/26/2021 4:00:00 AM -99999.99 -179968 -99999.99 -99999.99 -99999.99 -99999.99
8/26/2021 4:15:00 AM -99999.99 -179968 -99999.99 -99999.99 -99999.99 -99999.99
8/26/2021 4:30:00 AM -99999.99 -179968 -99999.99 -99999.99 -99999.99 -99999.99
8/26/2021 4:45:00 AM -99999.99 -179968 -99999.99 -99999.99 -99999.99 -99999.99
8/26/2021 5:00:00 AM -99999.99 -179968 -99999.99 -99999.99 -99999.99 -99999.99
8/26/2021 5:15:00 AM -99999.99 -179968 -99999.99 -99999.99 -99999.99 -99999.99
8/26/2021 5:30:00 AM -99999.99 -179968 -99999.99 -99999.99 -99999.99 -99999.99
8/26/2021 5:45:00 AM -99999.99 -179968 -99999.99 -99999.99 -99999.99 -99999.99
8/26/2021 6:00:00 AM -99999.99 -179968 -99999.99 -99999.99 -99999.99 -99999.99
8/26/2021 6:15:00 AM -99999.99 -179968 -99999.99 -99999.99 -99999.99 -99999.99
8/26/2021 6:30:00 AM -99999.99 -179968 -99999.99 -99999.99 -99999.99 -99999.99
8/26/2021 6:45:00 AM -99999.99 -179968 -99999.99 -99999.99 -99999.99 -99999.99
8/26/2021 7:00:00 AM -99999.99 -179968 -99999.99 -99999.99 -99999.99 -99999.99
8/26/2021 7:15:00 AM -99999.99 -179968 -99999.99 -99999.99 -99999.99 -99999.99
8/26/2021 7:30:00 AM -99999.99 -179968 -99999.99 -99999.99 -99999.99 -99999.99
8/26/2021 7:45:00 AM -99999.99 -179968 -99999.99 -99999.99 -99999.99 -99999.99
8/26/2021 8:00:00 AM -99999.99 -179968 -99999.99 -99999.99 -99999.99 -99999.99
8/26/2021 8:15:00 AM -99999.99 -179968 -99999.99 -99999.99 -99999.99 -99999.99
8/26/2021 8:30:00 AM -99999.99 -179968 -99999.99 -99999.99 -99999.99 -99999.99
8/26/2021 8:45:00 AM -99999.99 -179968 -99999.99 -99999.99 -99999.99 -99999.99
8/26/2021 9:00:00 AM -99999.99 -179968 -99999.99 -99999.99 -99999.99 -99999.99
8/26/2021 9:15:00 AM -99999.99 -179968 -99999.99 -99999.99 -99999.99 -99999.99
8/26/2021 9:30:00 AM -99999.99 -179968 -99999.99 -99999.99 -99999.99 -99999.99
8/26/2021 9:45:00 AM -99999.99 -179968 -99999.99 -99999.99 -99999.99 -99999.99
8/26/2021 10:00:00 AM -99999.99 -179968 -99999.99 -99999.99 -99999.99 -99999.99
8/26/2021 10:15:00 AM -99999.99 -179968 -99999.99 -99999.99 -99999.99 -99999.99
8/26/2021 10:30:00 AM -99999.99 -179968 -99999.99 -99999.99 -99999.99 -99999.99
8/26/2021 10:45:00 AM -99999.99 -179968 -99999.99 -99999.99 -99999.99 -99999.99
8/26/2021 11:00:00 AM -99999.99 -179968 -99999.99 -99999.99 -99999.99 -99999.99
8/26/2021 11:15:00 AM -99999.99 -179968 -99999.99 -99999.99 -99999.99 -99999.99
8/26/2021 11:30:00 AM -99999.99 -179968 -99999.99 -99999.99 -99999.99 -99999.99
8/26/2021 11:45:00 AM -99999.99 -179968 -99999.99 -99999.99 -99999.99 -99999.99
8/26/2021 12:00:00 PM -99999.99 -179968 -99999.99 -99999.99 -99999.99 -99999.99
8/26/2021 12:15:00 PM -99999.99 -179968 -99999.99 -99999.99 -99999.99 -99999.99
8/26/2021 12:30:00 PM -99999.99 -179968 -99999.99 -99999.99 -99999.99 -99999.99
8/26/2021 12:45:00 PM -99999.99 -179968 -99999.99 -99999.99 -99999.99 -99999.99
8/26/2021 1:00:00 PM -99999.99 -179968 -99999.99 -99999.99 -99999.99 -99999.99
8/26/2021 1:15:00 PM -99999.99 -179968 -99999.99 -99999.99 -99999.99 -99999.99
8/26/2021 1:30:00 PM -99999.99 -179968 -99999.99 -99999.99 -99999.99 -99999.99
8/26/2021 1:45:00 PM -99999.99 -179968 -99999.99 -99999.99 -99999.99 -99999.99
8/26/2021 2:00:00 PM -99999.99 -179968 -99999.99 -99999.99 -99999.99 -99999.99
8/26/2021 2:15:00 PM -99999.99 -179968 -99999.99 -99999.99 -99999.99 -99999.99
8/26/2021 2:30:00 PM -99999.99 -179968 -99999.99 -99999.99 -99999.99 -99999.99
8/26/2021 2:45:00 PM -99999.99 -179968 -99999.99 -99999.99 -99999.99 -99999.99
8/26/2021 3:00:00 PM -99999.99 -179968 -99999.99 -99999.99 -99999.99 -99999.99
8/26/2021 3:15:00 PM -99999.99 -179968 -99999.99 -99999.99 -99999.99 -99999.99
8/26/2021 3:30:00 PM -99999.99 -179968 -99999.99 -99999.99 -99999.99 -99999.99
8/26/2021 3:45:00 PM -99999.99 -179968 -99999.99 -99999.99 -99999.99 -99999.99
8/26/2021 4:00:00 PM -99999.99 -179968 -99999.99 -99999.99 -99999.99 -99999.99
8/26/2021 4:15:00 PM -99999.99 -179968 -99999.99 -99999.99 -99999.99 -99999.99
8/26/2021 4:30:00 PM -99999.99 -179968 -99999.99 -99999.99 -99999.99 -99999.99
8/26/2021 4:45:00 PM -99999.99 -179968 -99999.99 -99999.99 -99999.99 -99999.99
8/26/2021 5:00:00 PM -99999.99 -179968 -99999.99 -99999.99 -99999.99 -99999.99
8/26/2021 5:15:00 PM -99999.99 -179968 -99999.99 -99999.99 -99999.99 -99999.99
8/26/2021 5:30:00 PM -99999.99 -179968 -99999.99 -99999.99 -99999.99 -99999.99
8/26/2021 5:45:00 PM -99999.99 -179968 -99999.99 -99999.99 -99999.99 -99999.99
8/26/2021 6:00:00 PM -99999.99 -179968 -99999.99 -99999.99 -99999.99 -99999.99
8/26/2021 6:15:00 PM -99999.99 -179968 -99999.99 -99999.99 -99999.99 -99999.99
8/26/2021 6:30:00 PM -99999.99 -179968 -99999.99 -99999.99 -99999.99 -99999.99
8/26/2021 6:45:00 PM -99999.99 -179968 -99999.99 -99999.99 -99999.99 -99999.99
8/26/2021 7:00:00 PM -99999.99 -179968 -99999.99 -99999.99 -99999.99 -99999.99
8/26/2021 7:15:00 PM -99999.99 -179968 -99999.99 -99999.99 -99999.99 -99999.99
8/26/2021 7:30:00 PM -99999.99 -179968 -99999.99 -99999.99 -99999.99 -99999.99
8/26/2021 7:45:00 PM -99999.99 -179968 -99999.99 -99999.99 -99999.99 -99999.99
8/26/2021 8:00:00 PM -99999.99 -179968 -99999.99 -99999.99 -99999.99 -99999.99
8/26/2021 8:15:00 PM -99999.99 -179968 -99999.99 -99999.99 -99999.99 -99999.99
8/26/2021 8:30:00 PM -99999.99 -179968 -99999.99 -99999.99 -99999.99 -99999.99
8/26/2021 8:45:00 PM -99999.99 -179968 -99999.99 -99999.99 -99999.99 -99999.99
8/26/2021 9:00:00 PM -99999.99 -179968 -99999.99 -99999.99 -99999.99 -99999.99
8/26/2021 9:15:00 PM -99999.99 -179968 -99999.99 -99999.99 -99999.99 -99999.99
8/26/2021 9:30:00 PM -99999.99 -179968 -99999.99 -99999.99 -99999.99 -99999.99
8/26/2021 9:45:00 PM -99999.99 -179968 -99999.99 -99999.99 -99999.99 -99999.99
8/26/2021 10:00:00 PM -99999.99 -179968 -99999.99 -99999.99 -99999.99 -99999.99
8/26/2021 10:15:00 PM -99999.99 -179968 -99999.99 -99999.99 -99999.99 -99999.99
8/26/2021 10:30:00 PM -99999.99 -179968 -99999.99 -99999.99 -99999.99 -99999.99
8/26/2021 10:45:00 PM -99999.99 -179968 -99999.99 -99999.99 -99999.99 -99999.99
8/26/2021 11:00:00 PM -99999.99 -179968 -99999.99 -99999.99 -99999.99 -99999.99
8/26/2021 11:15:00 PM -99999.99 -179968 -99999.99 -99999.99 -99999.99 -99999.99
8/26/2021 11:30:00 PM -99999.99 -179968 -99999.99 -99999.99 -99999.99 -99999.99
8/26/2021 11:45:00 PM -99999.99 -179968 -99999.99 -99999.99 -99999.99 -99999.99
8/27/2021 12:00:00 AM -99999.99 -179968 -99999.99 -99999.99 -99999.99 -99999.99
8/27/2021 12:15:00 AM -99999.99 -179968 -99999.99 -99999.99 -99999.99 -99999.99
8/27/2021 12:30:00 AM -99999.99 -179968 -99999.99 -99999.99 -99999.99 -99999.99
8/27/2021 12:45:00 AM -99999.99 -179968 -99999.99 -99999.99 -99999.99 -99999.99
8/27/2021 1:00:00 AM -99999.99 -179968 -99999.99 -99999.99 -99999.99 -99999.99
8/27/2021 1:15:00 AM -99999.99 -179968 -99999.99 -99999.99 -99999.99 -99999.99
8/27/2021 1:30:00 AM -99999.99 -179968 -99999.99 -99999.99 -99999.99 -99999.99
8/27/2021 1:45:00 AM -99999.99 -179968 -99999.99 -99999.99 -99999.99 -99999.99
8/27/2021 2:00:00 AM -99999.99 -179968 -99999.99 -99999.99 -99999.99 -99999.99
8/27/2021 2:15:00 AM -99999.99 -179968 -99999.99 -99999.99 -99999.99 -99999.99
8/27/2021 2:30:00 AM -99999.99 -179968 -99999.99 -99999.99 -99999.99 -99999.99
8/27/2021 2:45:00 AM -99999.99 -179968 -99999.99 -99999.99 -99999.99 -99999.99
8/27/2021 3:00:00 AM -99999.99 -179968 -99999.99 -99999.99 -99999.99 -99999.99
8/27/2021 3:15:00 AM -99999.99 -179968 -99999.99 -99999.99 -99999.99 -99999.99
8/27/2021 3:30:00 AM -99999.99 -179968 -99999.99 -99999.99 -99999.99 -99999.99
8/27/2021 3:45:00 AM -99999.99 -179968 -99999.99 -99999.99 -99999.99 -99999.99
8/27/2021 4:00:00 AM -99999.99 -179968 -99999.99 -99999.99 -99999.99 -99999.99
8/27/2021 4:15:00 AM -99999.99 -179968 -99999.99 -99999.99 -99999.99 -99999.99
8/27/2021 4:30:00 AM -99999.99 -179968 -99999.99 -99999.99 -99999.99 -99999.99
8/27/2021 4:45:00 AM -99999.99 -179968 -99999.99 -99999.99 -99999.99 -99999.99
8/27/2021 5:00:00 AM -99999.99 -179968 -99999.99 -99999.99 -99999.99 -99999.99
8/27/2021 5:15:00 AM -99999.99 -179968 -99999.99 -99999.99 -99999.99 -99999.99
8/27/2021 5:30:00 AM -99999.99 -179968 -99999.99 -99999.99 -99999.99 -99999.99
8/27/2021 5:45:00 AM -99999.99 -179968 -99999.99 -99999.99 -99999.99 -99999.99
8/27/2021 6:00:00 AM -99999.99 -179968 -99999.99 -99999.99 -99999.99 -99999.99
8/27/2021 6:15:00 AM -99999.99 -179968 -99999.99 -99999.99 -99999.99 -99999.99
8/27/2021 6:30:00 AM -99999.99 -179968 -99999.99 -99999.99 -99999.99 -99999.99
8/27/2021 6:45:00 AM -99999.99 -179968 -99999.99 -99999.99 -99999.99 -99999.99
8/27/2021 7:00:00 AM -99999.99 -179968 -99999.99 -99999.99 -99999.99 -99999.99
8/27/2021 7:15:00 AM -99999.99 -179968 -99999.99 -99999.99 -99999.99 -99999.99
8/27/2021 7:30:00 AM -99999.99 -179968 -99999.99 -99999.99 -99999.99 -99999.99
8/27/2021 7:45:00 AM -99999.99 -179968 -99999.99 -99999.99 -99999.99 -99999.99
8/27/2021 8:00:00 AM -99999.99 -179968 -99999.99 -99999.99 -99999.99 -99999.99
8/27/2021 8:15:00 AM -99999.99 -179968 -99999.99 -99999.99 -99999.99 -99999.99
8/27/2021 8:30:00 AM -99999.99 -179968 -99999.99 -99999.99 -99999.99 -99999.99
8/27/2021 8:45:00 AM -99999.99 -179968 -99999.99 -99999.99 -99999.99 -99999.99
8/27/2021 9:00:00 AM -99999.99 -179968 -99999.99 -99999.99 -99999.99 -99999.99
8/27/2021 9:15:00 AM -99999.99 -179968 -99999.99 -99999.99 -99999.99 -99999.99
8/27/2021 9:30:00 AM -99999.99 -179968 -99999.99 -99999.99 -99999.99 -99999.99
8/27/2021 9:45:00 AM -99999.99 -179968 -99999.99 -99999.99 -99999.99 -99999.99
8/27/2021 10:00:00 AM -99999.99 -179968 -99999.99 -99999.99 -99999.99 -99999.99
8/27/2021 10:15:00 AM -99999.99 -179968 -99999.99 -99999.99 -99999.99 -99999.99
8/27/2021 10:30:00 AM -99999.99 -179968 -99999.99 -99999.99 -99999.99 -99999.99
8/27/2021 10:45:00 AM -99999.99 -179968 -99999.99 -99999.99 -99999.99 -99999.99
8/27/2021 11:00:00 AM -99999.99 -179968 -99999.99 -99999.99 -99999.99 -99999.99
8/27/2021 11:15:00 AM -99999.99 -179968 -99999.99 -99999.99 -99999.99 -99999.99
8/27/2021 11:30:00 AM -99999.99 -179968 -99999.99 -99999.99 -99999.99 -99999.99
8/27/2021 11:45:00 AM -99999.99 -179968 -99999.99 -99999.99 -99999.99 -99999.99
8/27/2021 12:00:00 PM -99999.99 -179968 -99999.99 -99999.99 -99999.99 -99999.99
8/27/2021 12:15:00 PM -99999.99 -179968 -99999.99 -99999.99 -99999.99 -99999.99
8/27/2021 12:30:00 PM -99999.99 -179968 -99999.99 -99999.99 -99999.99 -99999.99
8/27/2021 12:45:00 PM -99999.99 -179968 -99999.99 -99999.99 -99999.99 -99999.99
8/27/2021 1:00:00 PM -99999.99 -179968 -99999.99 -99999.99 -99999.99 -99999.99
8/27/2021 1:15:00 PM -99999.99 -179968 -99999.99 -99999.99 -99999.99 -99999.99
8/27/2021 1:30:00 PM -99999.99 -179968 -99999.99 -99999.99 -99999.99 -99999.99
8/27/2021 1:45:00 PM -99999.99 -179968 -99999.99 -99999.99 -99999.99 -99999.99
8/27/2021 2:00:00 PM -99999.99 -179968 -99999.99 -99999.99 -99999.99 -99999.99
8/27/2021 2:15:00 PM -99999.99 -179968 -99999.99 -99999.99 -99999.99 -99999.99
8/27/2021 2:30:00 PM -99999.99 -179968 -99999.99 -99999.99 -99999.99 -99999.99
8/27/2021 2:45:00 PM -99999.99 -179968 -99999.99 -99999.99 -99999.99 -99999.99
8/27/2021 3:00:00 PM -99999.99 -179968 -99999.99 -99999.99 -99999.99 -99999.99
8/27/2021 3:15:00 PM -99999.99 -179968 -99999.99 -99999.99 -99999.99 -99999.99
8/27/2021 3:30:00 PM -99999.99 -179968 -99999.99 -99999.99 -99999.99 -99999.99
8/27/2021 3:45:00 PM -99999.99 -179968 -99999.99 -99999.99 -99999.99 -99999.99
8/27/2021 4:00:00 PM -99999.99 -179968 -99999.99 -99999.99 -99999.99 -99999.99
8/27/2021 4:15:00 PM -99999.99 -179968 -99999.99 -99999.99 -99999.99 -99999.99
8/27/2021 4:30:00 PM -99999.99 -179968 -99999.99 -99999.99 -99999.99 -99999.99
8/27/2021 4:45:00 PM -99999.99 -179968 -99999.99 -99999.99 -99999.99 -99999.99
8/27/2021 5:00:00 PM -99999.99 -179968 -99999.99 -99999.99 -99999.99 -99999.99
8/27/2021 5:15:00 PM -99999.99 -179968 -99999.99 -99999.99 -99999.99 -99999.99
8/27/2021 5:30:00 PM -99999.99 -179968 -99999.99 -99999.99 -99999.99 -99999.99
8/27/2021 5:45:00 PM -99999.99 -179968 -99999.99 -99999.99 -99999.99 -99999.99
8/27/2021 6:00:00 PM -99999.99 -179968 -99999.99 -99999.99 -99999.99 -99999.99
8/27/2021 6:15:00 PM -99999.99 -179968 -99999.99 -99999.99 -99999.99 -99999.99
8/27/2021 6:30:00 PM -99999.99 -179968 -99999.99 -99999.99 -99999.99 -99999.99
8/27/2021 6:45:00 PM -99999.99 -179968 -99999.99 -99999.99 -99999.99 -99999.99
8/27/2021 7:00:00 PM -99999.99 -179968 -99999.99 -99999.99 -99999.99 -99999.99
8/27/2021 7:15:00 PM -99999.99 -179968 -99999.99 -99999.99 -99999.99 -99999.99
8/27/2021 7:30:00 PM -99999.99 -179968 -99999.99 -99999.99 -99999.99 -99999.99
8/27/2021 7:45:00 PM -99999.99 -179968 -99999.99 -99999.99 -99999.99 -99999.99
8/27/2021 8:00:00 PM -99999.99 -179968 -99999.99 -99999.99 -99999.99 -99999.99
8/27/2021 8:15:00 PM -99999.99 -179968 -99999.99 -99999.99 -99999.99 -99999.99
8/27/2021 8:30:00 PM -99999.99 -179968 -99999.99 -99999.99 -99999.99 -99999.99
8/27/2021 8:45:00 PM -99999.99 -179968 -99999.99 -99999.99 -99999.99 -99999.99
8/27/2021 9:00:00 PM -99999.99 -179968 -99999.99 -99999.99 -99999.99 -99999.99
8/27/2021 9:15:00 PM -99999.99 -179968 -99999.99 -99999.99 -99999.99 -99999.99
8/27/2021 9:30:00 PM -99999.99 -179968 -99999.99 -99999.99 -99999.99 -99999.99
8/27/2021 9:45:00 PM -99999.99 -179968 -99999.99 -99999.99 -99999.99 -99999.99
8/27/2021 10:00:00 PM -99999.99 -179968 -99999.99 -99999.99 -99999.99 -99999.99
8/27/2021 10:15:00 PM -99999.99 -179968 -99999.99 -99999.99 -99999.99 -99999.99
8/27/2021 10:30:00 PM -99999.99 -179968 -99999.99 -99999.99 -99999.99 -99999.99
8/27/2021 10:45:00 PM -99999.99 -179968 -99999.99 -99999.99 -99999.99 -99999.99
8/27/2021 11:00:00 PM -99999.99 -179968 -99999.99 -99999.99 -99999.99 -99999.99
8/27/2021 11:15:00 PM -99999.99 -179968 -99999.99 -99999.99 -99999.99 -99999.99
8/27/2021 11:30:00 PM -99999.99 -179968 -99999.99 -99999.99 -99999.99 -99999.99
8/27/2021 11:45:00 PM -99999.99 -179968 -99999.99 -99999.99 -99999.99 -99999.99
8/28/2021 12:00:00 AM -99999.99 -179968 -99999.99 -99999.99 -99999.99 -99999.99
8/28/2021 12:15:00 AM -99999.99 -179968 -99999.99 -99999.99 -99999.99 -99999.99
8/28/2021 12:30:00 AM -99999.99 -179968 -99999.99 -99999.99 -99999.99 -99999.99
8/28/2021 12:45:00 AM -99999.99 -179968 -99999.99 -99999.99 -99999.99 -99999.99
8/28/2021 1:00:00 AM -99999.99 -179968 -99999.99 -99999.99 -99999.99 -99999.99
8/28/2021 1:15:00 AM -99999.99 -179968 -99999.99 -99999.99 -99999.99 -99999.99
8/28/2021 1:30:00 AM -99999.99 -179968 -99999.99 -99999.99 -99999.99 -99999.99
8/28/2021 1:45:00 AM -99999.99 -179968 -99999.99 -99999.99 -99999.99 -99999.99
8/28/2021 2:00:00 AM -99999.99 -179968 -99999.99 -99999.99 -99999.99 -99999.99
8/28/2021 2:15:00 AM -99999.99 -179968 -99999.99 -99999.99 -99999.99 -99999.99
8/28/2021 2:30:00 AM -99999.99 -179968 -99999.99 -99999.99 -99999.99 -99999.99
8/28/2021 2:45:00 AM -99999.99 -179968 -99999.99 -99999.99 -99999.99 -99999.99
8/28/2021 3:00:00 AM -99999.99 -179968 -99999.99 -99999.99 -99999.99 -99999.99
8/28/2021 3:15:00 AM -99999.99 -179968 -99999.99 -99999.99 -99999.99 -99999.99
8/28/2021 3:30:00 AM -99999.99 -179968 -99999.99 -99999.99 -99999.99 -99999.99
8/28/2021 3:45:00 AM -99999.99 -179968 -99999.99 -99999.99 -99999.99 -99999.99
8/28/2021 4:00:00 AM -99999.99 -179968 -99999.99 -99999.99 -99999.99 -99999.99
8/28/2021 4:15:00 AM -99999.99 -179968 -99999.99 -99999.99 -99999.99 -99999.99
8/28/2021 4:30:00 AM -99999.99 -179968 -99999.99 -99999.99 -99999.99 -99999.99
8/28/2021 4:45:00 AM -99999.99 -179968 -99999.99 -99999.99 -99999.99 -99999.99
8/28/2021 5:00:00 AM -99999.99 -179968 -99999.99 -99999.99 -99999.99 -99999.99
8/28/2021 5:15:00 AM -99999.99 -179968 -99999.99 -99999.99 -99999.99 -99999.99
8/28/2021 5:30:00 AM -99999.99 -179968 -99999.99 -99999.99 -99999.99 -99999.99
8/28/2021 5:45:00 AM -99999.99 -179968 -99999.99 -99999.99 -99999.99 -99999.99
8/28/2021 6:00:00 AM -99999.99 -179968 -99999.99 -99999.99 -99999.99 -99999.99
8/28/2021 6:15:00 AM -99999.99 -179968 -99999.99 -99999.99 -99999.99 -99999.99
8/28/2021 6:30:00 AM -99999.99 -179968 -99999.99 -99999.99 -99999.99 -99999.99
8/28/2021 6:45:00 AM -99999.99 -179968 -99999.99 -99999.99 -99999.99 -99999.99
8/28/2021 7:00:00 AM -99999.99 -179968 -99999.99 -99999.99 -99999.99 -99999.99
8/28/2021 7:15:00 AM -99999.99 -179968 -99999.99 -99999.99 -99999.99 -99999.99
8/28/2021 7:30:00 AM -99999.99 -179968 -99999.99 -99999.99 -99999.99 -99999.99
8/28/2021 7:45:00 AM -99999.99 -179968 -99999.99 -99999.99 -99999.99 -99999.99
8/28/2021 8:00:00 AM -99999.99 -179968 -99999.99 -99999.99 -99999.99 -99999.99
8/28/2021 8:15:00 AM -99999.99 -179968 -99999.99 -99999.99 -99999.99 -99999.99
8/28/2021 8:30:00 AM -99999.99 -179968 -99999.99 -99999.99 -99999.99 -99999.99
8/28/2021 8:45:00 AM -99999.99 -179968 -99999.99 -99999.99 -99999.99 -99999.99
8/28/2021 9:00:00 AM -99999.99 -179968 -99999.99 -99999.99 -99999.99 -99999.99
8/28/2021 9:15:00 AM -99999.99 -179968 -99999.99 -99999.99 -99999.99 -99999.99
8/28/2021 9:30:00 AM -99999.99 -179968 -99999.99 -99999.99 -99999.99 -99999.99
8/28/2021 9:45:00 AM -99999.99 -179968 -99999.99 -99999.99 -99999.99 -99999.99
8/28/2021 10:00:00 AM -99999.99 -179968 -99999.99 -99999.99 -99999.99 -99999.99
8/28/2021 10:15:00 AM -99999.99 -179968 -99999.99 -99999.99 -99999.99 -99999.99
8/28/2021 10:30:00 AM -99999.99 -179968 -99999.99 -99999.99 -99999.99 -99999.99
8/28/2021 10:45:00 AM -99999.99 -179968 -99999.99 -99999.99 -99999.99 -99999.99
8/28/2021 11:00:00 AM -99999.99 -179968 -99999.99 -99999.99 -99999.99 -99999.99
8/28/2021 11:15:00 AM -99999.99 -179968 -99999.99 -99999.99 -99999.99 -99999.99
8/28/2021 11:30:00 AM -99999.99 -179968 -99999.99 -99999.99 -99999.99 -99999.99
8/28/2021 11:45:00 AM -99999.99 -179968 -99999.99 -99999.99 -99999.99 -99999.99
8/28/2021 12:00:00 PM -99999.99 -179968 -99999.99 -99999.99 -99999.99 -99999.99
8/28/2021 12:15:00 PM -99999.99 -179968 -99999.99 -99999.99 -99999.99 -99999.99
8/28/2021 12:30:00 PM -99999.99 -179968 -99999.99 -99999.99 -99999.99 -99999.99
8/28/2021 12:45:00 PM -99999.99 -179968 -99999.99 -99999.99 -99999.99 -99999.99
8/28/2021 1:00:00 PM -99999.99 -179968 -99999.99 -99999.99 -99999.99 -99999.99
8/28/2021 1:15:00 PM -99999.99 -179968 -99999.99 -99999.99 -99999.99 -99999.99
8/28/2021 1:30:00 PM -99999.99 -179968 -99999.99 -99999.99 -99999.99 -99999.99
8/28/2021 1:45:00 PM -99999.99 -179968 -99999.99 -99999.99 -99999.99 -99999.99
8/28/2021 2:00:00 PM -99999.99 -179968 -99999.99 -99999.99 -99999.99 -99999.99
8/28/2021 2:15:00 PM -99999.99 -179968 -99999.99 -99999.99 -99999.99 -99999.99
8/28/2021 2:30:00 PM -99999.99 -179968 -99999.99 -99999.99 -99999.99 -99999.99
8/28/2021 2:45:00 PM -99999.99 -179968 -99999.99 -99999.99 -99999.99 -99999.99
8/28/2021 3:00:00 PM -99999.99 -179968 -99999.99 -99999.99 -99999.99 -99999.99
8/28/2021 3:15:00 PM -99999.99 -179968 -99999.99 -99999.99 -99999.99 -99999.99
8/28/2021 3:30:00 PM -99999.99 -179968 -99999.99 -99999.99 -99999.99 -99999.99
8/28/2021 3:45:00 PM -99999.99 -179968 -99999.99 -99999.99 -99999.99 -99999.99
8/28/2021 4:00:00 PM -99999.99 -179968 -99999.99 -99999.99 -99999.99 -99999.99
8/28/2021 4:15:00 PM -99999.99 -179968 -99999.99 -99999.99 -99999.99 -99999.99
8/28/2021 4:30:00 PM -99999.99 -179968 -99999.99 -99999.99 -99999.99 -99999.99
8/28/2021 4:45:00 PM -99999.99 -179968 -99999.99 -99999.99 -99999.99 -99999.99
8/28/2021 5:00:00 PM -99999.99 -179968 -99999.99 -99999.99 -99999.99 -99999.99
8/28/2021 5:15:00 PM -99999.99 -179968 -99999.99 -99999.99 -99999.99 -99999.99
8/28/2021 5:30:00 PM -99999.99 -179968 -99999.99 -99999.99 -99999.99 -99999.99
8/28/2021 5:45:00 PM -99999.99 -179968 -99999.99 -99999.99 -99999.99 -99999.99
8/28/2021 6:00:00 PM -99999.99 -179968 -99999.99 -99999.99 -99999.99 -99999.99
8/28/2021 6:15:00 PM -99999.99 -179968 -99999.99 -99999.99 -99999.99 -99999.99
8/28/2021 6:30:00 PM -99999.99 -179968 -99999.99 -99999.99 -99999.99 -99999.99
8/28/2021 6:45:00 PM -99999.99 -179968 -99999.99 -99999.99 -99999.99 -99999.99
8/28/2021 7:00:00 PM -99999.99 -179968 -99999.99 -99999.99 -99999.99 -99999.99
8/28/2021 7:15:00 PM -99999.99 -179968 -99999.99 -99999.99 -99999.99 -99999.99
8/28/2021 7:30:00 PM -99999.99 -179968 -99999.99 -99999.99 -99999.99 -99999.99
8/28/2021 7:45:00 PM -99999.99 -179968 -99999.99 -99999.99 -99999.99 -99999.99
8/28/2021 8:00:00 PM -99999.99 -179968 -99999.99 -99999.99 -99999.99 -99999.99
8/28/2021 8:15:00 PM -99999.99 -179968 -99999.99 -99999.99 -99999.99 -99999.99
8/28/2021 8:30:00 PM -99999.99 -179968 -99999.99 -99999.99 -99999.99 -99999.99
8/28/2021 8:45:00 PM -99999.99 -179968 -99999.99 -99999.99 -99999.99 -99999.99
8/28/2021 9:00:00 PM -99999.99 -179968 -99999.99 -99999.99 -99999.99 -99999.99
8/28/2021 9:15:00 PM -99999.99 -179968 -99999.99 -99999.99 -99999.99 -99999.99
8/28/2021 9:30:00 PM -99999.99 -179968 -99999.99 -99999.99 -99999.99 -99999.99
8/28/2021 9:45:00 PM -99999.99 -179968 -99999.99 -99999.99 -99999.99 -99999.99
8/28/2021 10:00:00 PM -99999.99 -179968 -99999.99 -99999.99 -99999.99 -99999.99
8/28/2021 10:15:00 PM -99999.99 -179968 -99999.99 -99999.99 -99999.99 -99999.99
8/28/2021 10:30:00 PM -99999.99 -179968 -99999.99 -99999.99 -99999.99 -99999.99
8/28/2021 10:45:00 PM -99999.99 -179968 -99999.99 -99999.99 -99999.99 -99999.99
8/28/2021 11:00:00 PM -99999.99 -179968 -99999.99 -99999.99 -99999.99 -99999.99
8/28/2021 11:15:00 PM -99999.99 -179968 -99999.99 -99999.99 -99999.99 -99999.99
8/28/2021 11:30:00 PM -99999.99 -179968 -99999.99 -99999.99 -99999.99 -99999.99
8/28/2021 11:45:00 PM -99999.99 -179968 -99999.99 -99999.99 -99999.99 -99999.99
8/29/2021 12:00:00 AM -99999.99 -179968 -99999.99 -99999.99 -99999.99 -99999.99
8/29/2021 12:15:00 AM -99999.99 -179968 -99999.99 -99999.99 -99999.99 -99999.99
8/29/2021 12:30:00 AM -99999.99 -179968 -99999.99 -99999.99 -99999.99 -99999.99
8/29/2021 12:45:00 AM -99999.99 -179968 -99999.99 -99999.99 -99999.99 -99999.99
8/29/2021 1:00:00 AM -99999.99 -179968 -99999.99 -99999.99 -99999.99 -99999.99
8/29/2021 1:15:00 AM -99999.99 -179968 -99999.99 -99999.99 -99999.99 -99999.99
8/29/2021 1:30:00 AM -99999.99 -179968 -99999.99 -99999.99 -99999.99 -99999.99
8/29/2021 1:45:00 AM -99999.99 -179968 -99999.99 -99999.99 -99999.99 -99999.99
8/29/2021 2:00:00 AM -99999.99 -179968 -99999.99 -99999.99 -99999.99 -99999.99
8/29/2021 2:15:00 AM -99999.99 -179968 -99999.99 -99999.99 -99999.99 -99999.99
8/29/2021 2:30:00 AM -99999.99 -179968 -99999.99 -99999.99 -99999.99 -99999.99
8/29/2021 2:45:00 AM -99999.99 -179968 -99999.99 -99999.99 -99999.99 -99999.99
8/29/2021 3:00:00 AM -99999.99 -179968 -99999.99 -99999.99 -99999.99 -99999.99
8/29/2021 3:15:00 AM -99999.99 -179968 -99999.99 -99999.99 -99999.99 -99999.99
8/29/2021 3:30:00 AM -99999.99 -179968 -99999.99 -99999.99 -99999.99 -99999.99
8/29/2021 3:45:00 AM -99999.99 -179968 -99999.99 -99999.99 -99999.99 -99999.99
8/29/2021 4:00:00 AM -99999.99 -179968 -99999.99 -99999.99 -99999.99 -99999.99
8/29/2021 4:15:00 AM -99999.99 -179968 -99999.99 -99999.99 -99999.99 -99999.99
8/29/2021 4:30:00 AM -99999.99 -179968 -99999.99 -99999.99 -99999.99 -99999.99
8/29/2021 4:45:00 AM -99999.99 -179968 -99999.99 -99999.99 -99999.99 -99999.99
8/29/2021 5:00:00 AM -99999.99 -179968 -99999.99 -99999.99 -99999.99 -99999.99
8/29/2021 5:15:00 AM -99999.99 -179968 -99999.99 -99999.99 -99999.99 -99999.99
8/29/2021 5:30:00 AM -99999.99 -179968 -99999.99 -99999.99 -99999.99 -99999.99
8/29/2021 5:45:00 AM -99999.99 -179968 -99999.99 -99999.99 -99999.99 -99999.99
8/29/2021 6:00:00 AM -99999.99 -179968 -99999.99 -99999.99 -99999.99 -99999.99
8/29/2021 6:15:00 AM -99999.99 -179968 -99999.99 -99999.99 -99999.99 -99999.99
8/29/2021 6:30:00 AM -99999.99 -179968 -99999.99 -99999.99 -99999.99 -99999.99
8/29/2021 6:45:00 AM -99999.99 -179968 -99999.99 -99999.99 -99999.99 -99999.99
8/29/2021 7:00:00 AM -99999.99 -179968 -99999.99 -99999.99 -99999.99 -99999.99
8/29/2021 7:15:00 AM -99999.99 -179968 -99999.99 -99999.99 -99999.99 -99999.99
8/29/2021 7:30:00 AM -99999.99 -179968 -99999.99 -99999.99 -99999.99 -99999.99
8/29/2021 7:45:00 AM -99999.99 -179968 -99999.99 -99999.99 -99999.99 -99999.99
8/29/2021 8:00:00 AM -99999.99 -179968 -99999.99 -99999.99 -99999.99 -99999.99
8/29/2021 8:15:00 AM -99999.99 -179968 -99999.99 -99999.99 -99999.99 -99999.99
8/29/2021 8:30:00 AM -99999.99 -179968 -99999.99 -99999.99 -99999.99 -99999.99
8/29/2021 8:45:00 AM -99999.99 -179968 -99999.99 -99999.99 -99999.99 -99999.99
8/29/2021 9:00:00 AM -99999.99 -179968 -99999.99 -99999.99 -99999.99 -99999.99
8/29/2021 9:15:00 AM -99999.99 -179968 -99999.99 -99999.99 -99999.99 -99999.99
8/29/2021 9:30:00 AM -99999.99 -179968 -99999.99 -99999.99 -99999.99 -99999.99
8/29/2021 9:45:00 AM -99999.99 -179968 -99999.99 -99999.99 -99999.99 -99999.99
8/29/2021 10:00:00 AM -99999.99 -179968 -99999.99 -99999.99 -99999.99 -99999.99
8/29/2021 10:15:00 AM -99999.99 -179968 -99999.99 -99999.99 -99999.99 -99999.99
8/29/2021 10:30:00 AM -99999.99 -179968 -99999.99 -99999.99 -99999.99 -99999.99
8/29/2021 10:45:00 AM -99999.99 -179968 -99999.99 -99999.99 -99999.99 -99999.99
8/29/2021 11:00:00 AM -99999.99 -179968 -99999.99 -99999.99 -99999.99 -99999.99
8/29/2021 11:15:00 AM -99999.99 -179968 -99999.99 -99999.99 -99999.99 -99999.99
8/29/2021 11:30:00 AM -99999.99 -179968 -99999.99 -99999.99 -99999.99 -99999.99
8/29/2021 11:45:00 AM -99999.99 -179968 -99999.99 -99999.99 -99999.99 -99999.99
8/29/2021 12:00:00 PM -99999.99 -179968 -99999.99 -99999.99 -99999.99 -99999.99
8/29/2021 12:15:00 PM -99999.99 -179968 -99999.99 -99999.99 -99999.99 -99999.99
8/29/2021 12:30:00 PM -99999.99 -179968 -99999.99 -99999.99 -99999.99 -99999.99
8/29/2021 12:45:00 PM -99999.99 -179968 -99999.99 -99999.99 -99999.99 -99999.99
8/29/2021 1:00:00 PM -99999.99 -179968 -99999.99 -99999.99 -99999.99 -99999.99
8/29/2021 1:15:00 PM -99999.99 -179968 -99999.99 -99999.99 -99999.99 -99999.99
8/29/2021 1:30:00 PM -99999.99 -179968 -99999.99 -99999.99 -99999.99 -99999.99
8/29/2021 1:45:00 PM -99999.99 -179968 -99999.99 -99999.99 -99999.99 -99999.99
8/29/2021 2:00:00 PM -99999.99 -179968 -99999.99 -99999.99 -99999.99 -99999.99
8/29/2021 2:15:00 PM -99999.99 -179968 -99999.99 -99999.99 -99999.99 -99999.99
8/29/2021 2:30:00 PM -99999.99 -179968 -99999.99 -99999.99 -99999.99 -99999.99
8/29/2021 2:45:00 PM -99999.99 -179968 -99999.99 -99999.99 -99999.99 -99999.99
8/29/2021 3:00:00 PM -99999.99 -179968 -99999.99 -99999.99 -99999.99 -99999.99
8/29/2021 3:15:00 PM -99999.99 -179968 -99999.99 -99999.99 -99999.99 -99999.99
8/29/2021 3:30:00 PM -99999.99 -179968 -99999.99 -99999.99 -99999.99 -99999.99
8/29/2021 3:45:00 PM -99999.99 -179968 -99999.99 -99999.99 -99999.99 -99999.99
8/29/2021 4:00:00 PM -99999.99 -179968 -99999.99 -99999.99 -99999.99 -99999.99
8/29/2021 4:15:00 PM -99999.99 -179968 -99999.99 -99999.99 -99999.99 -99999.99
8/29/2021 4:30:00 PM -99999.99 -179968 -99999.99 -99999.99 -99999.99 -99999.99
8/29/2021 4:45:00 PM -99999.99 -179968 -99999.99 -99999.99 -99999.99 -99999.99
8/29/2021 5:00:00 PM -99999.99 -179968 -99999.99 -99999.99 -99999.99 -99999.99
8/29/2021 5:15:00 PM -99999.99 -179968 -99999.99 -99999.99 -99999.99 -99999.99
8/29/2021 5:30:00 PM -99999.99 -179968 -99999.99 -99999.99 -99999.99 -99999.99
8/29/2021 5:45:00 PM -99999.99 -179968 -99999.99 -99999.99 -99999.99 -99999.99
8/29/2021 6:00:00 PM -99999.99 -179968 -99999.99 -99999.99 -99999.99 -99999.99
8/29/2021 6:15:00 PM -99999.99 -179968 -99999.99 -99999.99 -99999.99 -99999.99
8/29/2021 6:30:00 PM -99999.99 -179968 -99999.99 -99999.99 -99999.99 -99999.99
8/29/2021 6:45:00 PM -99999.99 -179968 -99999.99 -99999.99 -99999.99 -99999.99
8/29/2021 7:00:00 PM -99999.99 -179968 -99999.99 -99999.99 -99999.99 -99999.99
8/29/2021 7:15:00 PM -99999.99 -179968 -99999.99 -99999.99 -99999.99 -99999.99
8/29/2021 7:30:00 PM -99999.99 -179968 -99999.99 -99999.99 -99999.99 -99999.99
8/29/2021 7:45:00 PM -99999.99 -179968 -99999.99 -99999.99 -99999.99 -99999.99
8/29/2021 8:00:00 PM -99999.99 -179968 -99999.99 -99999.99 -99999.99 -99999.99
8/29/2021 8:15:00 PM -99999.99 -179968 -99999.99 -99999.99 -99999.99 -99999.99
8/29/2021 8:30:00 PM -99999.99 -179968 -99999.99 -99999.99 -99999.99 -99999.99
8/29/2021 8:45:00 PM -99999.99 -179968 -99999.99 -99999.99 -99999.99 -99999.99
8/29/2021 9:00:00 PM -99999.99 -179968 -99999.99 -99999.99 -99999.99 -99999.99
8/29/2021 9:15:00 PM -99999.99 -179968 -99999.99 -99999.99 -99999.99 -99999.99
8/29/2021 9:30:00 PM -99999.99 -179968 -99999.99 -99999.99 -99999.99 -99999.99
8/29/2021 9:45:00 PM -99999.99 -179968 -99999.99 -99999.99 -99999.99 -99999.99
8/29/2021 10:00:00 PM -99999.99 -179968 -99999.99 -99999.99 -99999.99 -99999.99
8/29/2021 10:15:00 PM -99999.99 -179968 -99999.99 -99999.99 -99999.99 -99999.99
8/29/2021 10:30:00 PM -99999.99 -179968 -99999.99 -99999.99 -99999.99 -99999.99
8/29/2021 10:45:00 PM -99999.99 -179968 -99999.99 -99999.99 -99999.99 -99999.99
8/29/2021 11:00:00 PM -99999.99 -179968 -99999.99 -99999.99 -99999.99 -99999.99
8/29/2021 11:15:00 PM -99999.99 -179968 -99999.99 -99999.99 -99999.99 -99999.99
8/29/2021 11:30:00 PM -99999.99 -179968 -99999.99 -99999.99 -99999.99 -99999.99
8/29/2021 11:45:00 PM -99999.99 -179968 -99999.99 -99999.99 -99999.99 -99999.99
8/30/2021 12:00:00 AM -99999.99 -179968 -99999.99 -99999.99 -99999.99 -99999.99
8/30/2021 12:15:00 AM -99999.99 -179968 -99999.99 -99999.99 -99999.99 -99999.99
8/30/2021 12:30:00 AM -99999.99 -179968 -99999.99 -99999.99 -99999.99 -99999.99
8/30/2021 12:45:00 AM -99999.99 -179968 -99999.99 -99999.99 -99999.99 -99999.99
8/30/2021 1:00:00 AM -99999.99 -179968 -99999.99 -99999.99 -99999.99 -99999.99
8/30/2021 1:15:00 AM -99999.99 -179968 -99999.99 -99999.99 -99999.99 -99999.99
8/30/2021 1:30:00 AM -99999.99 -179968 -99999.99 -99999.99 -99999.99 -99999.99
8/30/2021 1:45:00 AM -99999.99 -179968 -99999.99 -99999.99 -99999.99 -99999.99
8/30/2021 2:00:00 AM -99999.99 -179968 -99999.99 -99999.99 -99999.99 -99999.99
8/30/2021 2:15:00 AM -99999.99 -179968 -99999.99 -99999.99 -99999.99 -99999.99
8/30/2021 2:30:00 AM -99999.99 -179968 -99999.99 -99999.99 -99999.99 -99999.99
8/30/2021 2:45:00 AM -99999.99 -179968 -99999.99 -99999.99 -99999.99 -99999.99
8/30/2021 3:00:00 AM -99999.99 -179968 -99999.99 -99999.99 -99999.99 -99999.99
8/30/2021 3:15:00 AM -99999.99 -179968 -99999.99 -99999.99 -99999.99 -99999.99
8/30/2021 3:30:00 AM -99999.99 -179968 -99999.99 -99999.99 -99999.99 -99999.99
8/30/2021 3:45:00 AM -99999.99 -179968 -99999.99 -99999.99 -99999.99 -99999.99
8/30/2021 4:00:00 AM -99999.99 -179968 -99999.99 -99999.99 -99999.99 -99999.99
8/30/2021 4:15:00 AM -99999.99 -179968 -99999.99 -99999.99 -99999.99 -99999.99
8/30/2021 4:30:00 AM -99999.99 -179968 -99999.99 -99999.99 -99999.99 -99999.99
8/30/2021 4:45:00 AM -99999.99 -179968 -99999.99 -99999.99 -99999.99 -99999.99
8/30/2021 5:00:00 AM -99999.99 -179968 -99999.99 -99999.99 -99999.99 -99999.99
8/30/2021 5:15:00 AM -99999.99 -179968 -99999.99 -99999.99 -99999.99 -99999.99
8/30/2021 5:30:00 AM -99999.99 -179968 -99999.99 -99999.99 -99999.99 -99999.99
8/30/2021 5:45:00 AM -99999.99 -179968 -99999.99 -99999.99 -99999.99 -99999.99
8/30/2021 6:00:00 AM -99999.99 -179968 -99999.99 -99999.99 -99999.99 -99999.99
8/30/2021 6:15:00 AM -99999.99 -179968 -99999.99 -99999.99 -99999.99 -99999.99
8/30/2021 6:30:00 AM -99999.99 -179968 -99999.99 -99999.99 -99999.99 -99999.99
8/30/2021 6:45:00 AM -99999.99 -179968 -99999.99 -99999.99 -99999.99 -99999.99
8/30/2021 7:00:00 AM -99999.99 -179968 -99999.99 -99999.99 -99999.99 -99999.99
8/30/2021 7:15:00 AM -99999.99 -179968 -99999.99 -99999.99 -99999.99 -99999.99
8/30/2021 7:30:00 AM -99999.99 -179968 -99999.99 -99999.99 -99999.99 -99999.99
8/30/2021 7:45:00 AM -99999.99 -179968 -99999.99 -99999.99 -99999.99 -99999.99
8/30/2021 8:00:00 AM -99999.99 -179968 -99999.99 -99999.99 -99999.99 -99999.99
8/30/2021 8:15:00 AM -99999.99 -179968 -99999.99 -99999.99 -99999.99 -99999.99
8/30/2021 8:30:00 AM -99999.99 -179968 -99999.99 -99999.99 -99999.99 -99999.99
8/30/2021 8:45:00 AM -99999.99 -179968 -99999.99 -99999.99 -99999.99 -99999.99
8/30/2021 9:00:00 AM -99999.99 -179968 -99999.99 -99999.99 -99999.99 -99999.99
8/30/2021 9:15:00 AM -99999.99 -179968 -99999.99 -99999.99 -99999.99 -99999.99
8/30/2021 9:30:00 AM -99999.99 -179968 -99999.99 -99999.99 -99999.99 -99999.99
8/30/2021 9:45:00 AM -99999.99 -179968 -99999.99 -99999.99 -99999.99 -99999.99
8/30/2021 10:00:00 AM -99999.99 -179968 -99999.99 -99999.99 -99999.99 -99999.99
8/30/2021 10:15:00 AM -99999.99 -179968 -99999.99 -99999.99 -99999.99 -99999.99
8/30/2021 10:30:00 AM -99999.99 -179968 -99999.99 -99999.99 -99999.99 -99999.99
8/30/2021 10:45:00 AM -99999.99 -179968 -99999.99 -99999.99 -99999.99 -99999.99
8/30/2021 11:00:00 AM -99999.99 -179968 -99999.99 -99999.99 -99999.99 -99999.99
8/30/2021 11:15:00 AM -99999.99 -179968 -99999.99 -99999.99 -99999.99 -99999.99
8/30/2021 11:30:00 AM -99999.99 -179968 -99999.99 -99999.99 -99999.99 -99999.99
8/30/2021 11:45:00 AM -99999.99 -179968 -99999.99 -99999.99 -99999.99 -99999.99
8/30/2021 12:00:00 PM -99999.99 -179968 -99999.99 -99999.99 -99999.99 -99999.99
8/30/2021 12:15:00 PM -99999.99 -179968 -99999.99 -99999.99 -99999.99 -99999.99
8/30/2021 12:30:00 PM -99999.99 -179968 -99999.99 -99999.99 -99999.99 -99999.99
8/30/2021 12:45:00 PM -99999.99 -179968 -99999.99 -99999.99 -99999.99 -99999.99
8/30/2021 1:00:00 PM -99999.99 -179968 -99999.99 -99999.99 -99999.99 -99999.99
8/30/2021 1:15:00 PM -99999.99 -179968 -99999.99 -99999.99 -99999.99 -99999.99
8/30/2021 1:30:00 PM -99999.99 -179968 -99999.99 -99999.99 -99999.99 -99999.99
8/30/2021 1:45:00 PM -99999.99 -179968 -99999.99 -99999.99 -99999.99 -99999.99
8/30/2021 2:00:00 PM -99999.99 -179968 -99999.99 -99999.99 -99999.99 -99999.99
8/30/2021 2:15:00 PM -99999.99 -179968 -99999.99 -99999.99 -99999.99 -99999.99
8/30/2021 2:30:00 PM -99999.99 -179968 -99999.99 -99999.99 -99999.99 -99999.99
8/30/2021 2:45:00 PM -99999.99 -179968 -99999.99 -99999.99 -99999.99 -99999.99
8/30/2021 3:00:00 PM -99999.99 -179968 -99999.99 -99999.99 -99999.99 -99999.99
8/30/2021 3:15:00 PM -99999.99 -179968 -99999.99 -99999.99 -99999.99 -99999.99
8/30/2021 3:30:00 PM -99999.99 -179968 -99999.99 -99999.99 -99999.99 -99999.99
8/30/2021 3:45:00 PM -99999.99 -179968 -99999.99 -99999.99 -99999.99 -99999.99
8/30/2021 4:00:00 PM -99999.99 -179968 -99999.99 -99999.99 -99999.99 -99999.99
8/30/2021 4:15:00 PM -99999.99 -179968 -99999.99 -99999.99 -99999.99 -99999.99
8/30/2021 4:30:00 PM -99999.99 -179968 -99999.99 -99999.99 -99999.99 -99999.99
8/30/2021 4:45:00 PM -99999.99 -179968 -99999.99 -99999.99 -99999.99 -99999.99
8/30/2021 5:00:00 PM -99999.99 -179968 -99999.99 -99999.99 -99999.99 -99999.99
8/30/2021 5:15:00 PM -99999.99 -179968 -99999.99 -99999.99 -99999.99 -99999.99
8/30/2021 5:30:00 PM -99999.99 -179968 -99999.99 -99999.99 -99999.99 -99999.99
8/30/2021 5:45:00 PM -99999.99 -179968 -99999.99 -99999.99 -99999.99 -99999.99
8/30/2021 6:00:00 PM -99999.99 -179968 -99999.99 -99999.99 -99999.99 -99999.99
8/30/2021 6:15:00 PM -99999.99 -179968 -99999.99 -99999.99 -99999.99 -99999.99
8/30/2021 6:30:00 PM -99999.99 -179968 -99999.99 -99999.99 -99999.99 -99999.99
8/30/2021 6:45:00 PM -99999.99 -179968 -99999.99 -99999.99 -99999.99 -99999.99
8/30/2021 7:00:00 PM -99999.99 -179968 -99999.99 -99999.99 -99999.99 -99999.99
8/30/2021 7:15:00 PM -99999.99 -179968 -99999.99 -99999.99 -99999.99 -99999.99
8/30/2021 7:30:00 PM -99999.99 -179968 -99999.99 -99999.99 -99999.99 -99999.99
8/30/2021 7:45:00 PM -99999.99 -179968 -99999.99 -99999.99 -99999.99 -99999.99
8/30/2021 8:00:00 PM -99999.99 -179968 -99999.99 -99999.99 -99999.99 -99999.99
8/30/2021 8:15:00 PM -99999.99 -179968 -99999.99 -99999.99 -99999.99 -99999.99
8/30/2021 8:30:00 PM -99999.99 -179968 -99999.99 -99999.99 -99999.99 -99999.99
8/30/2021 8:45:00 PM -99999.99 -179968 -99999.99 -99999.99 -99999.99 -99999.99
8/30/2021 9:00:00 PM -99999.99 -179968 -99999.99 -99999.99 -99999.99 -99999.99
8/30/2021 9:15:00 PM -99999.99 -179968 -99999.99 -99999.99 -99999.99 -99999.99
8/30/2021 9:30:00 PM -99999.99 -179968 -99999.99 -99999.99 -99999.99 -99999.99
8/30/2021 9:45:00 PM -99999.99 -179968 -99999.99 -99999.99 -99999.99 -99999.99
8/30/2021 10:00:00 PM -99999.99 -179968 -99999.99 -99999.99 -99999.99 -99999.99
8/30/2021 10:15:00 PM -99999.99 -179968 -99999.99 -99999.99 -99999.99 -99999.99
8/30/2021 10:30:00 PM -99999.99 -179968 -99999.99 -99999.99 -99999.99 -99999.99
8/30/2021 10:45:00 PM -99999.99 -179968 -99999.99 -99999.99 -99999.99 -99999.99
8/30/2021 11:00:00 PM -99999.99 -179968 -99999.99 -99999.99 -99999.99 -99999.99
8/30/2021 11:15:00 PM -99999.99 -179968 -99999.99 -99999.99 -99999.99 -99999.99
8/30/2021 11:30:00 PM -99999.99 -179968 -99999.99 -99999.99 -99999.99 -99999.99
8/30/2021 11:45:00 PM -99999.99 -179968 -99999.99 -99999.99 -99999.99 -99999.99
8/31/2021 12:00:00 AM -99999.99 -179968 -99999.99 -99999.99 -99999.99 -99999.99
8/31/2021 12:15:00 AM -99999.99 -179968 -99999.99 -99999.99 -99999.99 -99999.99
8/31/2021 12:30:00 AM -99999.99 -179968 -99999.99 -99999.99 -99999.99 -99999.99
8/31/2021 12:45:00 AM -99999.99 -179968 -99999.99 -99999.99 -99999.99 -99999.99
8/31/2021 1:00:00 AM -99999.99 -179968 -99999.99 -99999.99 -99999.99 -99999.99
8/31/2021 1:15:00 AM -99999.99 -179968 -99999.99 -99999.99 -99999.99 -99999.99
8/31/2021 1:30:00 AM -99999.99 -179968 -99999.99 -99999.99 -99999.99 -99999.99
8/31/2021 1:45:00 AM -99999.99 -179968 -99999.99 -99999.99 -99999.99 -99999.99
8/31/2021 2:00:00 AM -99999.99 -179968 -99999.99 -99999.99 -99999.99 -99999.99
8/31/2021 2:15:00 AM -99999.99 -179968 -99999.99 -99999.99 -99999.99 -99999.99
8/31/2021 2:30:00 AM -99999.99 -179968 -99999.99 -99999.99 -99999.99 -99999.99
8/31/2021 2:45:00 AM -99999.99 -179968 -99999.99 -99999.99 -99999.99 -99999.99
8/31/2021 3:00:00 AM -99999.99 -179968 -99999.99 -99999.99 -99999.99 -99999.99
8/31/2021 3:15:00 AM -99999.99 -179968 -99999.99 -99999.99 -99999.99 -99999.99
8/31/2021 3:30:00 AM -99999.99 -179968 -99999.99 -99999.99 -99999.99 -99999.99
8/31/2021 3:45:00 AM -99999.99 -179968 -99999.99 -99999.99 -99999.99 -99999.99
8/31/2021 4:00:00 AM -99999.99 -179968 -99999.99 -99999.99 -99999.99 -99999.99
8/31/2021 4:15:00 AM -99999.99 -179968 -99999.99 -99999.99 -99999.99 -99999.99
8/31/2021 4:30:00 AM -99999.99 -179968 -99999.99 -99999.99 -99999.99 -99999.99
8/31/2021 4:45:00 AM -99999.99 -179968 -99999.99 -99999.99 -99999.99 -99999.99
8/31/2021 5:00:00 AM -99999.99 -179968 -99999.99 -99999.99 -99999.99 -99999.99
8/31/2021 5:15:00 AM -99999.99 -179968 -99999.99 -99999.99 -99999.99 -99999.99
8/31/2021 5:30:00 AM -99999.99 -179968 -99999.99 -99999.99 -99999.99 -99999.99
8/31/2021 5:45:00 AM -99999.99 -179968 -99999.99 -99999.99 -99999.99 -99999.99
8/31/2021 6:00:00 AM -99999.99 -179968 -99999.99 -99999.99 -99999.99 -99999.99
8/31/2021 6:15:00 AM -99999.99 -179968 -99999.99 -99999.99 -99999.99 -99999.99
8/31/2021 6:30:00 AM -99999.99 -179968 -99999.99 -99999.99 -99999.99 -99999.99
8/31/2021 6:45:00 AM -99999.99 -179968 -99999.99 -99999.99 -99999.99 -99999.99
8/31/2021 7:00:00 AM -99999.99 -179968 -99999.99 -99999.99 -99999.99 -99999.99
8/31/2021 7:15:00 AM -99999.99 -179968 -99999.99 -99999.99 -99999.99 -99999.99
8/31/2021 7:30:00 AM -99999.99 -179968 -99999.99 -99999.99 -99999.99 -99999.99
8/31/2021 7:45:00 AM -99999.99 -179968 -99999.99 -99999.99 -99999.99 -99999.99
8/31/2021 8:00:00 AM -99999.99 -179968 -99999.99 -99999.99 -99999.99 -99999.99
8/31/2021 8:15:00 AM -99999.99 -179968 -99999.99 -99999.99 -99999.99 -99999.99
8/31/2021 8:30:00 AM -99999.99 -179968 -99999.99 -99999.99 -99999.99 -99999.99
8/31/2021 8:45:00 AM -99999.99 -179968 -99999.99 -99999.99 -99999.99 -99999.99
8/31/2021 9:00:00 AM -99999.99 -179968 -99999.99 -99999.99 -99999.99 -99999.99
8/31/2021 9:15:00 AM -99999.99 -179968 -99999.99 -99999.99 -99999.99 -99999.99
8/31/2021 9:30:00 AM -99999.99 -179968 -99999.99 -99999.99 -99999.99 -99999.99
8/31/2021 9:45:00 AM -99999.99 -179968 -99999.99 -99999.99 -99999.99 -99999.99
8/31/2021 10:00:00 AM -99999.99 -179968 -99999.99 -99999.99 -99999.99 -99999.99
8/31/2021 10:15:00 AM -99999.99 -179968 -99999.99 -99999.99 -99999.99 -99999.99
8/31/2021 10:30:00 AM -99999.99 -179968 -99999.99 -99999.99 -99999.99 -99999.99
8/31/2021 10:45:00 AM -99999.99 -179968 -99999.99 -99999.99 -99999.99 -99999.99
8/31/2021 11:00:00 AM -99999.99 -179968 -99999.99 -99999.99 -99999.99 -99999.99
8/31/2021 11:15:00 AM -99999.99 -179968 -99999.99 -99999.99 -99999.99 -99999.99
8/31/2021 11:30:00 AM -99999.99 -179968 -99999.99 -99999.99 -99999.99 -99999.99
8/31/2021 11:45:00 AM -99999.99 -179968 -99999.99 -99999.99 -99999.99 -99999.99
8/31/2021 12:00:00 PM -99999.99 -179968 -99999.99 -99999.99 -99999.99 -99999.99
8/31/2021 12:15:00 PM -99999.99 -179968 -99999.99 -99999.99 -99999.99 -99999.99
8/31/2021 12:30:00 PM -99999.99 -179968 -99999.99 -99999.99 -99999.99 -99999.99
8/31/2021 12:45:00 PM -99999.99 -179968 -99999.99 -99999.99 -99999.99 -99999.99
8/31/2021 1:00:00 PM -99999.99 -179968 -99999.99 -99999.99 -99999.99 -99999.99
8/31/2021 1:15:00 PM -99999.99 -179968 -99999.99 -99999.99 -99999.99 -99999.99
8/31/2021 1:30:00 PM -99999.99 -179968 -99999.99 -99999.99 -99999.99 -99999.99
8/31/2021 1:45:00 PM -99999.99 -179968 -99999.99 -99999.99 -99999.99 -99999.99
8/31/2021 2:00:00 PM -99999.99 -179968 -99999.99 -99999.99 -99999.99 -99999.99
8/31/2021 2:15:00 PM -99999.99 -179968 -99999.99 -99999.99 -99999.99 -99999.99
8/31/2021 2:30:00 PM -99999.99 -179968 -99999.99 -99999.99 -99999.99 -99999.99
8/31/2021 2:45:00 PM -99999.99 -179968 -99999.99 -99999.99 -99999.99 -99999.99
8/31/2021 3:00:00 PM -99999.99 -179968 -99999.99 -99999.99 -99999.99 -99999.99
8/31/2021 3:15:00 PM -99999.99 -179968 -99999.99 -99999.99 -99999.99 -99999.99
8/31/2021 3:30:00 PM -99999.99 -179968 -99999.99 -99999.99 -99999.99 -99999.99
8/31/2021 3:45:00 PM -99999.99 -179968 -99999.99 -99999.99 -99999.99 -99999.99
8/31/2021 4:00:00 PM -99999.99 -179968 -99999.99 -99999.99 -99999.99 -99999.99
8/31/2021 4:15:00 PM -99999.99 -179968 -99999.99 -99999.99 -99999.99 -99999.99
8/31/2021 4:30:00 PM -99999.99 -179968 -99999.99 -99999.99 -99999.99 -99999.99
8/31/2021 4:45:00 PM -99999.99 -179968 -99999.99 -99999.99 -99999.99 -99999.99
8/31/2021 5:00:00 PM -99999.99 -179968 -99999.99 -99999.99 -99999.99 -99999.99
8/31/2021 5:15:00 PM -99999.99 -179968 -99999.99 -99999.99 -99999.99 -99999.99
8/31/2021 5:30:00 PM -99999.99 -179968 -99999.99 -99999.99 -99999.99 -99999.99
8/31/2021 5:45:00 PM -99999.99 -179968 -99999.99 -99999.99 -99999.99 -99999.99
8/31/2021 6:00:00 PM -99999.99 -179968 -99999.99 -99999.99 -99999.99 -99999.99
8/31/2021 6:15:00 PM -99999.99 -179968 -99999.99 -99999.99 -99999.99 -99999.99
8/31/2021 6:30:00 PM -99999.99 -179968 -99999.99 -99999.99 -99999.99 -99999.99
8/31/2021 6:45:00 PM -99999.99 -179968 -99999.99 -99999.99 -99999.99 -99999.99
8/31/2021 7:00:00 PM -99999.99 -179968 -99999.99 -99999.99 -99999.99 -99999.99
8/31/2021 7:15:00 PM -99999.99 -179968 -99999.99 -99999.99 -99999.99 -99999.99
8/31/2021 7:30:00 PM -99999.99 -179968 -99999.99 -99999.99 -99999.99 -99999.99
8/31/2021 7:45:00 PM -99999.99 -179968 -99999.99 -99999.99 -99999.99 -99999.99
8/31/2021 8:00:00 PM -99999.99 -179968 -99999.99 -99999.99 -99999.99 -99999.99
8/31/2021 8:15:00 PM -99999.99 -179968 -99999.99 -99999.99 -99999.99 -99999.99
8/31/2021 8:30:00 PM -99999.99 -179968 -99999.99 -99999.99 -99999.99 -99999.99
8/31/2021 8:45:00 PM -99999.99 -179968 -99999.99 -99999.99 -99999.99 -99999.99
8/31/2021 9:00:00 PM -99999.99 -179968 -99999.99 -99999.99 -99999.99 -99999.99
8/31/2021 9:15:00 PM -99999.99 -179968 -99999.99 -99999.99 -99999.99 -99999.99
8/31/2021 9:30:00 PM -99999.99 -179968 -99999.99 -99999.99 -99999.99 -99999.99
8/31/2021 9:45:00 PM -99999.99 -179968 -99999.99 -99999.99 -99999.99 -99999.99
8/31/2021 10:00:00 PM -99999.99 -179968 -99999.99 -99999.99 -99999.99 -99999.99
8/31/2021 10:15:00 PM -99999.99 -179968 -99999.99 -99999.99 -99999.99 -99999.99
8/31/2021 10:30:00 PM -99999.99 -179968 -99999.99 -99999.99 -99999.99 -99999.99
8/31/2021 10:45:00 PM -99999.99 -179968 -99999.99 -99999.99 -99999.99 -99999.99
8/31/2021 11:00:00 PM -99999.99 -179968 -99999.99 -99999.99 -99999.99 -99999.99
8/31/2021 11:15:00 PM -99999.99 -179968 -99999.99 -99999.99 -99999.99 -99999.99
8/31/2021 11:30:00 PM -99999.99 -179968 -99999.99 -99999.99 -99999.99 -99999.99
8/31/2021 11:45:00 PM -99999.99 -179968 -99999.99 -99999.99 -99999.99 -99999.99
9/1/2021 12:00:00 AM -99999.99 -179968 -99999.99 -99999.99 -99999.99 -99999.99
9/1/2021 12:15:00 AM -99999.99 -179968 -99999.99 -99999.99 -99999.99 -99999.99
9/1/2021 12:30:00 AM -99999.99 -179968 -99999.99 -99999.99 -99999.99 -99999.99
9/1/2021 12:45:00 AM -99999.99 -179968 -99999.99 -99999.99 -99999.99 -99999.99
9/1/2021 1:00:00 AM -99999.99 -179968 -99999.99 -99999.99 -99999.99 -99999.99
9/1/2021 1:15:00 AM -99999.99 -179968 -99999.99 -99999.99 -99999.99 -99999.99
9/1/2021 1:30:00 AM -99999.99 -179968 -99999.99 -99999.99 -99999.99 -99999.99
9/1/2021 1:45:00 AM -99999.99 -179968 -99999.99 -99999.99 -99999.99 -99999.99
9/1/2021 2:00:00 AM -99999.99 -179968 -99999.99 -99999.99 -99999.99 -99999.99
9/1/2021 2:15:00 AM -99999.99 -179968 -99999.99 -99999.99 -99999.99 -99999.99
9/1/2021 2:30:00 AM -99999.99 -179968 -99999.99 -99999.99 -99999.99 -99999.99
9/1/2021 2:45:00 AM -99999.99 -179968 -99999.99 -99999.99 -99999.99 -99999.99
9/1/2021 3:00:00 AM -99999.99 -179968 -99999.99 -99999.99 -99999.99 -99999.99
9/1/2021 3:15:00 AM -99999.99 -179968 -99999.99 -99999.99 -99999.99 -99999.99
9/1/2021 3:30:00 AM -99999.99 -179968 -99999.99 -99999.99 -99999.99 -99999.99
9/1/2021 3:45:00 AM -99999.99 -179968 -99999.99 -99999.99 -99999.99 -99999.99
9/1/2021 4:00:00 AM -99999.99 -179968 -99999.99 -99999.99 -99999.99 -99999.99
9/1/2021 4:15:00 AM -99999.99 -179968 -99999.99 -99999.99 -99999.99 -99999.99
9/1/2021 4:30:00 AM -99999.99 -179968 -99999.99 -99999.99 -99999.99 -99999.99
9/1/2021 4:45:00 AM -99999.99 -179968 -99999.99 -99999.99 -99999.99 -99999.99
9/1/2021 5:00:00 AM -99999.99 -179968 -99999.99 -99999.99 -99999.99 -99999.99
9/1/2021 5:15:00 AM -99999.99 -179968 -99999.99 -99999.99 -99999.99 -99999.99
9/1/2021 5:30:00 AM -99999.99 -179968 -99999.99 -99999.99 -99999.99 -99999.99
9/1/2021 5:45:00 AM -99999.99 -179968 -99999.99 -99999.99 -99999.99 -99999.99
9/1/2021 6:00:00 AM -99999.99 -179968 -99999.99 -99999.99 -99999.99 -99999.99
9/1/2021 6:15:00 AM -99999.99 -179968 -99999.99 -99999.99 -99999.99 -99999.99
9/1/2021 6:30:00 AM -99999.99 -179968 -99999.99 -99999.99 -99999.99 -99999.99
9/1/2021 6:45:00 AM -99999.99 -179968 -99999.99 -99999.99 -99999.99 -99999.99
9/1/2021 7:00:00 AM -99999.99 -179968 -99999.99 -99999.99 -99999.99 -99999.99
9/1/2021 7:15:00 AM -99999.99 -179968 -99999.99 -99999.99 -99999.99 -99999.99
9/1/2021 7:30:00 AM -99999.99 -179968 -99999.99 -99999.99 -99999.99 -99999.99
9/1/2021 7:45:00 AM -99999.99 -179968 -99999.99 -99999.99 -99999.99 -99999.99
9/1/2021 8:00:00 AM -99999.99 -179968 -99999.99 -99999.99 -99999.99 -99999.99
9/1/2021 8:15:00 AM -99999.99 -179968 -99999.99 -99999.99 -99999.99 -99999.99
9/1/2021 8:30:00 AM -99999.99 -179968 -99999.99 -99999.99 -99999.99 -99999.99
9/1/2021 8:45:00 AM -99999.99 -179968 -99999.99 -99999.99 -99999.99 -99999.99
9/1/2021 9:00:00 AM -99999.99 -179968 -99999.99 -99999.99 -99999.99 -99999.99
9/1/2021 9:15:00 AM -99999.99 -179968 -99999.99 -99999.99 -99999.99 -99999.99
9/1/2021 9:30:00 AM -99999.99 -179968 -99999.99 -99999.99 -99999.99 -99999.99
9/1/2021 9:45:00 AM -99999.99 -179968 -99999.99 -99999.99 -99999.99 -99999.99
9/1/2021 10:00:00 AM -99999.99 -179968 -99999.99 -99999.99 -99999.99 -99999.99
9/1/2021 10:15:00 AM -99999.99 -179968 -99999.99 -99999.99 -99999.99 -99999.99
9/1/2021 10:30:00 AM -99999.99 -179968 -99999.99 -99999.99 -99999.99 -99999.99
9/1/2021 10:45:00 AM -99999.99 -179968 -99999.99 -99999.99 -99999.99 -99999.99
9/1/2021 11:00:00 AM -99999.99 -179968 -99999.99 -99999.99 -99999.99 -99999.99
9/1/2021 11:15:00 AM -99999.99 -179968 -99999.99 -99999.99 -99999.99 -99999.99
9/1/2021 11:30:00 AM -99999.99 -179968 -99999.99 -99999.99 -99999.99 -99999.99
9/1/2021 11:45:00 AM -99999.99 -179968 -99999.99 -99999.99 -99999.99 -99999.99
9/1/2021 12:00:00 PM -99999.99 -179968 -99999.99 -99999.99 -99999.99 -99999.99
9/1/2021 12:15:00 PM -99999.99 -179968 -99999.99 -99999.99 -99999.99 -99999.99
9/1/2021 12:30:00 PM -99999.99 -179968 -99999.99 -99999.99 -99999.99 -99999.99
9/1/2021 12:45:00 PM -99999.99 -179968 -99999.99 -99999.99 -99999.99 -99999.99
9/1/2021 1:00:00 PM -99999.99 -179968 -99999.99 -99999.99 -99999.99 -99999.99
9/1/2021 1:15:00 PM -99999.99 -179968 -99999.99 -99999.99 -99999.99 -99999.99
9/1/2021 1:30:00 PM -99999.99 -179968 -99999.99 -99999.99 -99999.99 -99999.99
9/1/2021 1:45:00 PM -99999.99 -179968 -99999.99 -99999.99 -99999.99 -99999.99
9/1/2021 2:00:00 PM -99999.99 -179968 -99999.99 -99999.99 -99999.99 -99999.99
9/1/2021 2:15:00 PM -99999.99 -179968 -99999.99 -99999.99 -99999.99 -99999.99
9/1/2021 2:30:00 PM -99999.99 -179968 -99999.99 -99999.99 -99999.99 -99999.99
9/1/2021 2:45:00 PM -99999.99 -179968 -99999.99 -99999.99 -99999.99 -99999.99
9/1/2021 3:00:00 PM -99999.99 -179968 -99999.99 -99999.99 -99999.99 -99999.99
9/1/2021 3:15:00 PM -99999.99 -179968 -99999.99 -99999.99 -99999.99